Provisional Data: Little Pine Creek near Waterville, PA


Please select a monitoring station.
Please select start date.
Please select start date.

Toggle Unit: C/F Toggle Unit: C/F
Sample Time Temperature (C) Temperature (F) Specific Conductivity (mS/cm) pH   Turbidity (NTU+) DO (mg/L)
8/1/2022 12:00:00 AM 22.14 71.852 0.191 7.35 1.71 6.89
8/1/2022 12:15:00 AM 22.11 71.798 0.191 7.34 1.88 6.96
8/1/2022 12:30:00 AM 22.07 71.726 0.191 7.34 1.75 6.93
8/1/2022 12:45:00 AM 22.04 71.672 0.191 7.33 1.63 6.97
8/1/2022 1:00:00 AM 22.01 71.618 0.191 7.33 1.65 7
8/1/2022 1:15:00 AM 21.98 71.564 0.191 7.32 1.8 7.02
8/1/2022 1:30:00 AM 21.96 71.528 0.191 7.32 1.82 7.04
8/1/2022 1:45:00 AM 21.93 71.474 0.191 7.32 1.69 7.04
8/1/2022 2:00:00 AM 21.91 71.438 0.191 7.31 1.89 7.09
8/1/2022 2:15:00 AM 21.87 71.366 0.191 7.32 1.82 7.05
8/1/2022 2:30:00 AM 21.86 71.348 0.191 7.31 1.64 7.11
8/1/2022 2:45:00 AM 21.83 71.294 0.191 7.3 1.71 7.1
8/1/2022 3:00:00 AM 21.82 71.276 0.191 7.3 1.8 7.09
8/1/2022 3:15:00 AM 21.8 71.24 0.191 7.3 1.75 7.11
8/1/2022 3:30:00 AM 21.78 71.204 0.191 7.3 1.67 7.13
8/1/2022 3:45:00 AM 21.77 71.186 0.191 7.3 1.9 7.04
8/1/2022 4:00:00 AM 21.76 71.168 0.191 7.29 1.72 7.11
8/1/2022 4:15:00 AM 21.72 71.096 0.191 7.28 1.78 7.09
8/1/2022 4:30:00 AM 21.7 71.06 0.191 7.29 2.23 7.11
8/1/2022 4:45:00 AM 21.68 71.024 0.192 7.28 2.55 7.04
8/1/2022 5:00:00 AM 21.65 70.97 0.192 7.28 1.8 7.14
8/1/2022 5:15:00 AM 21.62 70.916 0.192 7.28 1.87 7.14
8/1/2022 5:30:00 AM 21.59 70.862 0.192 7.28 2.45 7.19
8/1/2022 5:45:00 AM 21.56 70.808 0.192 7.28 1.9 7.16
8/1/2022 6:00:00 AM 21.54 70.772 0.192 7.27 2.06 7.17
8/1/2022 6:15:00 AM 21.52 70.736 0.192 7.28 1.89 7.22
8/1/2022 6:30:00 AM 21.5 70.7 0.192 7.28 1.97 7.18
8/1/2022 6:45:00 AM 21.49 70.682 0.192 7.29 1.9 7.3
8/1/2022 7:00:00 AM 21.47 70.646 0.192 7.29 1.9 7.36
8/1/2022 7:15:00 AM 21.49 70.682 0.192 7.3 1.77 7.46
8/1/2022 7:30:00 AM 21.51 70.718 0.192 7.31 1.81 7.58
8/1/2022 7:45:00 AM 21.55 70.79 0.192 7.32 1.69 7.71
8/1/2022 8:00:00 AM 21.59 70.862 0.191 7.35 2.07 8.03
8/1/2022 8:15:00 AM 21.62 70.916 0.191 7.36 1.75 8.14
8/1/2022 8:30:00 AM 21.66 70.988 0.191 7.39 1.62 8.2
8/1/2022 8:45:00 AM 21.69 71.042 0.19 7.4 1.75 8.37
8/1/2022 9:00:00 AM 21.77 71.186 0.19 7.42 1.68 8.55
8/1/2022 9:15:00 AM 21.88 71.384 0.189 7.45 1.6 8.73
8/1/2022 9:30:00 AM 21.98 71.564 0.189 7.49 1.84 8.87
8/1/2022 9:45:00 AM 22.1 71.78 0.188 7.5 1.75 8.95
8/1/2022 10:00:00 AM 22.29 72.122 0.188 7.59 1.72 9.27
8/1/2022 10:15:00 AM 22.43 72.374 0.187 7.62 1.67 9.35
8/1/2022 10:30:00 AM 22.64 72.752 0.186 7.69 1.69 9.49
8/1/2022 10:45:00 AM 22.8 73.04 0.186 7.74 1.85 9.58
8/1/2022 11:00:00 AM 22.98 73.364 0.186 7.79 1.69 9.54
8/1/2022 11:15:00 AM 23.14 73.652 0.185 7.88 1.55 9.74
8/1/2022 11:30:00 AM 23.36 74.048 0.185 7.97 1.51 9.7
8/1/2022 11:45:00 AM 23.52 74.336 0.185 7.98 1.72 9.55
8/1/2022 12:00:00 PM 23.67 74.606 0.184 8.05 1.56 9.7
8/1/2022 12:15:00 PM 23.81 74.858 0.184 8.08 1.68 9.64
8/1/2022 12:30:00 PM 24.19 75.542 0.184 8.14 1.57 9.66
8/1/2022 12:45:00 PM 24.33 75.794 0.184 8.2 1.53 9.61
8/1/2022 1:00:00 PM 24.64 76.352 0.184 8.16 3.29 9.51
8/1/2022 1:15:00 PM 25.04 77.07201 0.184 8.26 2.47 9.4
8/1/2022 1:30:00 PM 25.55 77.99 0.184 8.31 1.5 9.48
8/1/2022 1:45:00 PM 25.99 78.782 0.184 8.32 1.64 9.28
8/1/2022 2:00:00 PM 26.66 79.988 0.184 8.29 7.67 8.8
8/1/2022 2:15:00 PM 27.21 80.978 0.184 8.21 40.93 8.99
8/1/2022 2:30:00 PM 27.64 81.752 0.184 8.31 2.05 8.94
8/1/2022 2:45:00 PM 28.08 82.544 0.184 8.32 1.71 8.81
8/1/2022 3:00:00 PM 28.42 83.156 0.184 8.27 1.96 8.71
8/1/2022 3:15:00 PM 28.71 83.67799 0.185 8.27 1.57 8.68
8/1/2022 3:30:00 PM 28.87 83.966 0.185 8.3 1.56 8.58
8/1/2022 3:45:00 PM 28.95 84.11 0.185 8.24 1.99 8.2
8/1/2022 4:00:00 PM 29.01 84.218 0.185 8.25 1.62 8.42
8/1/2022 4:15:00 PM 29.4 84.92 0.185 8.32 1.63 8.48
8/1/2022 4:30:00 PM 29.51 85.118 0.187 8.21 17.32 8.27
8/1/2022 4:45:00 PM 29.64 85.35201 0.185 8.3 1.4 8.45
8/1/2022 5:00:00 PM 29.71 85.478 0.186 8.3 1.63 8.31
8/1/2022 5:15:00 PM 29.6 85.28 0.186 8.21 1.57 8.1
8/1/2022 5:30:00 PM 29.42 84.956 0.186 8.17 1.57 7.98
8/1/2022 5:45:00 PM 29.16 84.488 0.187 8.14 1.62 7.95
8/1/2022 6:00:00 PM 28.76 83.768 0.187 8.07 1.79 7.78
8/1/2022 6:15:00 PM 28.15 82.67 0.188 7.99 1.58 7.7
8/1/2022 6:30:00 PM 27.64 81.752 0.189 7.91 1.71 7.56
8/1/2022 6:45:00 PM 27.15 80.87 0.189 7.85 1.79 7.45
8/1/2022 7:00:00 PM 26.73 80.114 0.19 7.77 2.49 7.35
8/1/2022 7:15:00 PM 26.44 79.592 0.191 7.72 1.92 7.38
8/1/2022 7:30:00 PM 26.13 79.034 0.191 7.68 1.99 7.25
8/1/2022 7:45:00 PM 25.88 78.584 0.192 7.63 1.95 7.13
8/1/2022 8:00:00 PM 25.66 78.188 0.192 7.58 1.93 6.94
8/1/2022 8:15:00 PM 25.46 77.828 0.192 7.55 1.86 6.85
8/1/2022 8:30:00 PM 25.27 77.486 0.193 7.51 1.84 6.73
8/1/2022 8:45:00 PM 25.08 77.144 0.193 7.49 2.26 6.63
8/1/2022 9:00:00 PM 24.92 76.856 0.194 7.48 1.91 6.6
8/1/2022 9:15:00 PM 24.77 76.586 0.194 7.45 2.46 6.48
8/1/2022 9:30:00 PM 24.64 76.352 0.194 7.43 2.27 6.52
8/1/2022 9:45:00 PM 24.52 76.136 0.194 7.42 1.85 6.46
8/1/2022 10:00:00 PM 24.41 75.938 0.195 7.41 1.84 6.4
8/1/2022 10:15:00 PM 24.3 75.74 0.195 7.39 2.25 6.41
8/1/2022 10:30:00 PM 24.19 75.542 0.195 7.38 1.76 6.48
8/1/2022 10:45:00 PM 24.11 75.398 0.195 7.37 1.97 6.45
8/1/2022 11:00:00 PM 24.02 75.236 0.195 7.36 1.91 6.48
8/1/2022 11:15:00 PM 23.9 75.02 0.195 7.35 1.8 6.45
8/1/2022 11:30:00 PM 23.81 74.858 0.195 7.33 1.76 6.48
8/1/2022 11:45:00 PM 23.71 74.67799 0.194 7.33 1.94 6.5
8/2/2022 12:00:00 AM 23.59 74.462 0.194 7.33 1.77 6.51
8/2/2022 12:15:00 AM 23.47 74.246 0.194 7.32 1.86 6.53
8/2/2022 12:30:00 AM 23.35 74.03 0.194 7.32 1.72 6.57
8/2/2022 12:45:00 AM 23.27 73.886 0.194 7.31 1.98 6.6
8/2/2022 1:00:00 AM 23.17 73.706 0.194 7.31 1.93 6.61
8/2/2022 1:15:00 AM 23.07 73.526 0.194 7.3 1.84 6.64
8/2/2022 1:30:00 AM 22.97 73.346 0.194 7.3 1.82 6.72
8/2/2022 1:45:00 AM 22.87 73.166 0.194 7.3 1.93 6.68
8/2/2022 2:00:00 AM 22.8 73.04 0.194 7.3 1.83 6.71
8/2/2022 2:15:00 AM 22.74 72.932 0.194 7.29 2.02 6.76
8/2/2022 2:30:00 AM 22.68 72.824 0.194 7.28 1.89 6.75
8/2/2022 2:45:00 AM 22.61 72.698 0.194 7.28 1.99 6.72
8/2/2022 3:00:00 AM 22.54 72.57201 0.194 7.28 3.7 6.78
8/2/2022 3:15:00 AM 22.5 72.5 0.194 7.28 2.16 6.86
8/2/2022 3:30:00 AM 22.45 72.41 0.194 7.27 1.95 6.84
8/2/2022 3:45:00 AM 22.41 72.338 0.194 7.28 1.97 6.86
8/2/2022 4:00:00 AM 22.36 72.248 0.194 7.27 1.85 6.86
8/2/2022 4:15:00 AM 22.34 72.212 0.192 7.27 2.37 6.83
8/2/2022 4:30:00 AM 22.29 72.122 0.194 7.27 2.15 6.92
8/2/2022 4:45:00 AM 22.25 72.05 0.194 7.26 1.94 6.9
8/2/2022 5:00:00 AM 22.19 71.942 0.194 7.26 1.83 6.92
8/2/2022 5:15:00 AM 22.14 71.852 0.194 7.26 2.11 6.88
8/2/2022 5:30:00 AM 22.07 71.726 0.194 7.25 2.35 6.82
8/2/2022 5:45:00 AM 22.02 71.636 0.194 7.25 2.13 6.88
8/2/2022 6:00:00 AM 21.94 71.492 0.194 7.26 2.01 7
8/2/2022 6:15:00 AM 21.88 71.384 0.194 7.26 2.01 7
8/2/2022 6:30:00 AM 21.82 71.276 0.194 7.26 2.16 7.03
8/2/2022 6:45:00 AM 21.75 71.15 0.194 7.26 1.96 7.13
8/2/2022 7:00:00 AM 21.7 71.06 0.194 7.27 1.88 7.25
8/2/2022 7:15:00 AM 21.65 70.97 0.193 7.28 1.74 7.4
8/2/2022 7:30:00 AM 21.62 70.916 0.193 7.3 1.88 7.51
8/2/2022 7:45:00 AM 21.6 70.88 0.193 7.31 1.79 7.63
8/2/2022 8:00:00 AM 21.59 70.862 0.193 7.32 1.72 7.79
8/2/2022 8:15:00 AM 21.61 70.898 0.193 7.34 2.09 7.85
8/2/2022 8:30:00 AM 21.66 70.988 0.192 7.36 1.79 7.97
8/2/2022 8:45:00 AM 21.79 71.222 0.192 7.39 1.76 8.08
8/2/2022 9:00:00 AM 21.94 71.492 0.191 7.41 1.78 8.27
8/2/2022 9:15:00 AM 22.05 71.69 0.191 7.43 1.69 8.42
8/2/2022 9:30:00 AM 22.24 72.032 0.19 7.45 1.68 8.54
8/2/2022 9:45:00 AM 22.48 72.464 0.19 7.47 1.69 8.62
8/2/2022 10:00:00 AM 22.67 72.806 0.19 7.5 1.64 8.48
8/2/2022 10:15:00 AM 22.86 73.148 0.19 7.52 1.86 8.66
8/2/2022 10:30:00 AM 23.05 73.49 0.189 7.55 1.6 8.77
8/2/2022 10:45:00 AM 23.26 73.868 0.189 7.59 1.6 8.91
8/2/2022 11:00:00 AM 23.41 74.138 0.189 7.62 1.59 8.99
8/2/2022 11:15:00 AM 23.63 74.534 0.188 7.68 1.72 9.05
8/2/2022 11:30:00 AM 23.89 75.002 0.188 7.73 1.56 9.29
8/2/2022 11:45:00 AM 24.21 75.578 0.188 7.79 1.72 9.3
8/2/2022 12:00:00 PM 24.5 76.1 0.188 7.86 1.52 9.4
8/2/2022 12:15:00 PM 24.61 76.298 0.187 7.83 1.69 9.31
8/2/2022 12:30:00 PM 24.95 76.91 0.187 7.88 1.55 9.19
8/2/2022 12:45:00 PM 25 77 0.187 7.88 1.67 9.07
8/2/2022 1:00:00 PM 25.26 77.468 0.187 7.9 1.45 9.01
8/2/2022 1:15:00 PM 25.56 78.008 0.187 7.93 1.57 8.96
8/2/2022 1:30:00 PM 25.9 78.62 0.187 7.95 1.68 8.85
8/2/2022 1:45:00 PM 26.25 79.25 0.187 8.02 1.54 8.98
8/2/2022 2:00:00 PM 26.57 79.826 0.187 8.02 1.76 8.83
8/2/2022 2:15:00 PM 26.98 80.564 0.187 8.04 2.24 8.79
8/2/2022 2:30:00 PM 27.16 80.888 0.188 8.02 1.56 8.66
8/2/2022 2:45:00 PM 27.32 81.176 0.188 8 1.5 8.55
8/2/2022 3:00:00 PM 27.47 81.446 0.188 8.01 1.74 8.49
8/2/2022 3:15:00 PM 27.71 81.878 0.188 8.01 1.56 8.49
8/2/2022 3:30:00 PM 28.29 82.922 0.188 8.07 1.68 8.58
8/2/2022 3:45:00 PM 28.28 82.904 0.188 8.05 1.51 8.44
8/2/2022 4:00:00 PM 28.47 83.24599 0.188 8.06 1.64 8.37
8/2/2022 4:15:00 PM 28.58 83.444 0.188 8.04 1.56 8.29
8/2/2022 4:30:00 PM 28.72 83.696 0.188 8.05 1.43 8.15
8/2/2022 4:45:00 PM 28.89 84.002 0.189 8.06 1.55 8.29
8/2/2022 5:00:00 PM 28.96 84.128 0.189 8.04 1.5 8.23
8/2/2022 5:15:00 PM 29.05 84.28999 0.189 8.07 1.68 8.19
8/2/2022 5:30:00 PM 29.12 84.416 0.189 8.07 1.58 8.19
8/2/2022 5:45:00 PM 29.04 84.272 0.189 8.04 1.6 8.16
8/2/2022 6:00:00 PM 28.89 84.002 0.19 8.01 1.59 8.03
8/2/2022 6:15:00 PM 28.52 83.336 0.191 7.94 1.8 7.84
8/2/2022 6:30:00 PM 27.9 82.22 0.192 7.86 1.74 7.62
8/2/2022 6:45:00 PM 27.28 81.104 0.193 7.78 1.74 7.41
8/2/2022 7:00:00 PM 26.76 80.168 0.194 7.72 1.9 7.31
8/2/2022 7:15:00 PM 26.35 79.43 0.194 7.64 2.46 7.18
8/2/2022 7:30:00 PM 25.94 78.692 0.195 7.63 1.68 7.14
8/2/2022 7:45:00 PM 25.61 78.098 0.195 7.59 1.97 7.02
8/2/2022 8:00:00 PM 25.29 77.522 0.195 7.56 1.67 6.96
8/2/2022 8:15:00 PM 25 77 0.195 7.53 1.65 6.91
8/2/2022 8:30:00 PM 24.75 76.55 0.196 7.5 2.48 6.86
8/2/2022 8:45:00 PM 24.51 76.118 0.196 7.48 1.73 6.83
8/2/2022 9:00:00 PM 24.29 75.722 0.196 7.47 1.7 6.78
8/2/2022 9:15:00 PM 24.11 75.398 0.196 7.44 2.04 6.73
8/2/2022 9:30:00 PM 23.91 75.038 0.196 7.42 1.81 6.7
8/2/2022 9:45:00 PM 23.7 74.66 0.196 7.41 2.21 6.7
8/2/2022 10:00:00 PM 23.51 74.318 0.196 7.4 1.81 6.66
8/2/2022 10:15:00 PM 23.38 74.084 0.196 7.38 1.9 6.68
8/2/2022 10:30:00 PM 23.26 73.868 0.196 7.38 1.82 6.68
8/2/2022 10:45:00 PM 23.13 73.634 0.196 7.37 2.28 6.74
8/2/2022 11:00:00 PM 22.98 73.364 0.196 7.36 1.74 6.7
8/2/2022 11:15:00 PM 22.87 73.166 0.196 7.35 4.1 6.71
8/2/2022 11:30:00 PM 22.74 72.932 0.196 7.34 1.85 6.78
8/2/2022 11:45:00 PM 22.63 72.734 0.196 7.34 1.7 6.78
8/3/2022 12:00:00 AM 22.49 72.482 0.196 7.33 1.87 6.84
8/3/2022 12:15:00 AM 22.37 72.266 0.196 7.33 2.2 6.91
8/3/2022 12:30:00 AM 22.23 72.014 0.196 7.32 2.94 6.94
8/3/2022 12:45:00 AM 22.09 71.762 0.195 7.32 2.11 6.99
8/3/2022 1:00:00 AM 22.01 71.618 0.195 7.32 1.9 6.99
8/3/2022 1:15:00 AM 21.86 71.348 0.195 7.32 1.86 7.02
8/3/2022 1:30:00 AM 21.75 71.15 0.195 7.31 1.88 7.03
8/3/2022 1:45:00 AM 21.64 70.952 0.195 7.31 2.69 7.08
8/3/2022 2:00:00 AM 21.52 70.736 0.195 7.31 1.84 7.14
8/3/2022 2:15:00 AM 21.41 70.538 0.195 7.31 1.66 7.18
8/3/2022 2:30:00 AM 21.31 70.358 0.195 7.31 1.84 7.19
8/3/2022 2:45:00 AM 21.21 70.17799 0.195 7.3 1.72 7.2
8/3/2022 3:00:00 AM 21.1 69.98 0.195 7.3 1.62 7.22
8/3/2022 3:15:00 AM 21.01 69.818 0.195 7.3 1.81 7.24
8/3/2022 3:30:00 AM 20.88 69.584 0.195 7.3 1.65 7.31
8/3/2022 3:45:00 AM 20.8 69.44 0.195 7.3 1.69 7.32
8/3/2022 4:00:00 AM 20.69 69.242 0.195 7.3 1.72 7.36
8/3/2022 4:15:00 AM 20.6 69.08 0.195 7.29 1.84 7.36
8/3/2022 4:30:00 AM 20.5 68.9 0.195 7.29 1.79 7.38
8/3/2022 4:45:00 AM 20.41 68.738 0.195 7.29 1.76 7.39
8/3/2022 5:00:00 AM 20.31 68.558 0.195 7.29 1.69 7.43
8/3/2022 5:15:00 AM 20.21 68.378 0.195 7.29 2.08 7.41
8/3/2022 5:30:00 AM 20.14 68.252 0.195 7.29 2.4 7.45
8/3/2022 5:45:00 AM 20.05 68.09 0.195 7.28 1.79 7.49
8/3/2022 6:00:00 AM 19.96 67.92799 0.195 7.26 1.79 7.49
8/3/2022 6:15:00 AM 19.88 67.784 0.195 7.26 1.86 7.54
8/3/2022 6:30:00 AM 19.78 67.604 0.195 7.25 1.72 7.58
8/3/2022 6:45:00 AM 19.69 67.442 0.195 7.24 1.83 7.68
8/3/2022 7:00:00 AM 19.64 67.352 0.195 7.25 1.76 7.76
8/3/2022 7:15:00 AM 19.55 67.19 0.195 7.25 1.86 7.89
8/3/2022 7:30:00 AM 19.5 67.1 0.194 7.28 1.76 8
8/3/2022 7:45:00 AM 19.44 66.992 0.194 7.28 1.71 8.11
8/3/2022 8:00:00 AM 19.39 66.902 0.194 7.3 1.95 8.2
8/3/2022 8:15:00 AM 19.39 66.902 0.194 7.33 1.66 8.3
8/3/2022 8:30:00 AM 19.44 66.992 0.193 7.36 1.61 8.41
8/3/2022 8:45:00 AM 19.49 67.082 0.193 7.38 1.75 8.45
8/3/2022 9:00:00 AM 19.57 67.226 0.193 7.39 1.66 8.52
8/3/2022 9:15:00 AM 19.66 67.388 0.193 7.41 1.62 8.57
8/3/2022 9:30:00 AM 19.8 67.64 0.192 7.42 1.58 8.69
8/3/2022 9:45:00 AM 19.97 67.946 0.192 7.43 1.6 8.69
8/3/2022 10:00:00 AM 20.15 68.27 0.192 7.45 1.61 8.78
8/3/2022 10:15:00 AM 20.34 68.612 0.192 7.46 1.57 8.81
8/3/2022 10:30:00 AM 20.56 69.008 0.191 7.48 1.54 8.83
8/3/2022 10:45:00 AM 20.8 69.44 0.191 7.49 1.55 8.83
8/3/2022 11:00:00 AM 21.06 69.908 0.191 7.51 1.5 8.9
8/3/2022 11:15:00 AM 21.36 70.448 0.191 7.53 1.67 8.96
8/3/2022 11:30:00 AM 21.7 71.06 0.191 7.55 1.67 8.96
8/3/2022 11:45:00 AM 22.09 71.762 0.191 7.57 1.48 8.98
8/3/2022 12:00:00 PM 22.45 72.41 0.19 7.59 1.44 9.02
8/3/2022 12:15:00 PM 22.75 72.95 0.19 7.61 1.5 9.13
8/3/2022 12:30:00 PM 23.07 73.526 0.19 7.63 1.44 9
8/3/2022 12:45:00 PM 23.49 74.282 0.19 7.65 1.56 9.05
8/3/2022 1:00:00 PM 23.89 75.002 0.19 7.67 1.4 9.08
8/3/2022 1:15:00 PM 24.38 75.884 0.189 7.69 1.71 9.05
8/3/2022 1:30:00 PM 24.91 76.838 0.189 7.72 1.78 9.04
8/3/2022 1:45:00 PM 25.56 78.008 0.189 7.75 1.38 8.99
8/3/2022 2:00:00 PM 26.23 79.214 0.189 7.78 1.61 8.93
8/3/2022 2:15:00 PM 26.91 80.438 0.189 7.8 1.56 8.88
8/3/2022 2:30:00 PM 27.61 81.698 0.189 7.85 1.62 8.72
8/3/2022 2:45:00 PM 28.23 82.814 0.189 7.85 1.54 8.58
8/3/2022 3:00:00 PM 28.84 83.912 0.189 7.85 1.62 8.64
8/3/2022 3:15:00 PM 29.46 85.028 0.189 7.89 1.56 8.49
8/3/2022 3:30:00 PM 29.82 85.676 0.189 7.85 1.55 8.41
8/3/2022 3:45:00 PM 30.16 86.288 0.189 7.88 1.45 8.27
8/3/2022 4:00:00 PM 30.46 86.828 0.189 7.88 1.39 8.22
8/3/2022 4:15:00 PM 30.73 87.314 0.189 7.91 9.26 8.23
8/3/2022 4:30:00 PM 30.94 87.692 0.189 7.9 1.52 8.18
8/3/2022 4:45:00 PM 31.03 87.854 0.189 7.88 1.64 8.09
8/3/2022 5:00:00 PM 31.04 87.872 0.19 7.87 1.52 8.06
8/3/2022 5:15:00 PM 31.01 87.818 0.19 7.87 1.38 7.97
8/3/2022 5:30:00 PM 30.9 87.62 0.19 7.84 1.41 7.86
8/3/2022 5:45:00 PM 30.73 87.314 0.191 7.84 1.39 7.81
8/3/2022 6:00:00 PM 30.4 86.72 0.191 7.81 1.52 7.7
8/3/2022 6:15:00 PM 29.99 85.982 0.192 7.77 1.76 7.52
8/3/2022 6:30:00 PM 29.49 85.082 0.193 7.71 1.68 7.37
8/3/2022 6:45:00 PM 28.89 84.002 0.194 7.68 1.7 7.28
8/3/2022 7:00:00 PM 28.26 82.868 0.195 7.65 1.73 7.19
8/3/2022 7:15:00 PM 27.72 81.896 0.195 7.6 2.2 7.05
8/3/2022 7:30:00 PM 27.21 80.978 0.196 7.57 2.12 7
8/3/2022 7:45:00 PM 26.78 80.204 0.196 7.53 1.85 6.88
8/3/2022 8:00:00 PM 26.39 79.502 0.197 7.49 2.62 6.77
8/3/2022 8:15:00 PM 26.07 78.926 0.197 7.46 1.92 6.69
8/3/2022 8:30:00 PM 25.77 78.386 0.197 7.45 1.97 6.65
8/3/2022 8:45:00 PM 25.51 77.918 0.197 7.42 2.14 6.55
8/3/2022 9:00:00 PM 25.26 77.468 0.197 7.41 1.87 6.53
8/3/2022 9:15:00 PM 25.02 77.036 0.198 7.4 2.17 6.51
8/3/2022 9:30:00 PM 24.82 76.676 0.198 7.38 2.07 6.46
8/3/2022 9:45:00 PM 24.63 76.334 0.198 7.37 2.24 6.47
8/3/2022 10:00:00 PM 24.46 76.028 0.198 7.37 1.91 6.46
8/3/2022 10:15:00 PM 24.3 75.74 0.198 7.36 2.2 6.47
8/3/2022 10:30:00 PM 24.14 75.452 0.198 7.35 2.19 6.46
8/3/2022 10:45:00 PM 24 75.2 0.198 7.33 2.11 6.51
8/3/2022 11:00:00 PM 23.88 74.984 0.198 7.33 1.99 6.54
8/3/2022 11:15:00 PM 23.74 74.732 0.198 7.32 1.97 6.55
8/3/2022 11:30:00 PM 23.64 74.552 0.198 7.32 1.95 6.56
8/3/2022 11:45:00 PM 23.53 74.354 0.198 7.31 1.93 6.56
8/4/2022 12:00:00 AM 23.42 74.156 0.198 7.31 2.01 6.62
8/4/2022 12:15:00 AM 23.31 73.958 0.197 7.31 2.13 6.66
8/4/2022 12:30:00 AM 23.21 73.778 0.197 7.3 2 6.68
8/4/2022 12:45:00 AM 23.12 73.616 0.198 7.3 2.01 6.69
8/4/2022 1:00:00 AM 23.03 73.454 0.197 7.3 1.94 6.72
8/4/2022 1:15:00 AM 22.93 73.274 0.197 7.29 1.81 6.7
8/4/2022 1:30:00 AM 22.86 73.148 0.197 7.29 1.96 6.71
8/4/2022 1:45:00 AM 22.77 72.986 0.197 7.29 2.02 6.74
8/4/2022 2:00:00 AM 22.69 72.842 0.197 7.28 1.77 6.78
8/4/2022 2:15:00 AM 22.6 72.68 0.197 7.28 2.21 6.81
8/4/2022 2:30:00 AM 22.53 72.554 0.197 7.27 5.86 6.81
8/4/2022 2:45:00 AM 22.47 72.446 0.197 7.28 1.79 6.85
8/4/2022 3:00:00 AM 22.39 72.302 0.197 7.28 1.82 6.87
8/4/2022 3:15:00 AM 22.32 72.176 0.197 7.28 1.79 6.88
8/4/2022 3:30:00 AM 22.26 72.068 0.197 7.27 1.79 6.89
8/4/2022 3:45:00 AM 22.19 71.942 0.197 7.28 1.71 6.92
8/4/2022 4:00:00 AM 22.12 71.816 0.197 7.27 2.71 6.93
8/4/2022 4:15:00 AM 22.05 71.69 0.197 7.27 2.16 6.94
8/4/2022 4:30:00 AM 21.99 71.582 0.196 7.27 1.86 6.99
8/4/2022 4:45:00 AM 21.93 71.474 0.196 7.27 1.78 7.03
8/4/2022 5:00:00 AM 21.87 71.366 0.196 7.27 1.64 7.02
8/4/2022 5:15:00 AM 21.8 71.24 0.196 7.27 1.63 7
8/4/2022 5:30:00 AM 21.75 71.15 0.197 7.26 1.91 7.03
8/4/2022 5:45:00 AM 21.68 71.024 0.196 7.26 1.87 7.08
8/4/2022 6:00:00 AM 21.62 70.916 0.196 7.26 2.09 7.06
8/4/2022 6:15:00 AM 21.57 70.826 0.196 7.26 1.9 7.12
8/4/2022 6:30:00 AM 21.52 70.736 0.196 7.26 1.9 7.16
8/4/2022 6:45:00 AM 21.49 70.682 0.196 7.27 1.95 7.21
8/4/2022 7:00:00 AM 21.44 70.592 0.196 7.27 2.53 7.26
8/4/2022 7:15:00 AM 21.4 70.52 0.195 7.28 3.6 7.34
8/4/2022 7:30:00 AM 21.37 70.466 0.196 7.28 4.3 7.47
8/4/2022 7:45:00 AM 21.36 70.448 0.195 7.3 2.08 7.61
8/4/2022 8:00:00 AM 21.35 70.43 0.195 7.31 1.85 7.7
8/4/2022 8:15:00 AM 21.37 70.466 0.195 7.32 1.69 7.81
8/4/2022 8:30:00 AM 21.42 70.556 0.194 7.34 1.77 7.91
8/4/2022 8:45:00 AM 21.49 70.682 0.194 7.35 1.56 8.05
8/4/2022 9:00:00 AM 21.59 70.862 0.193 7.36 1.69 8.17
8/4/2022 9:15:00 AM 21.7 71.06 0.193 7.37 1.58 8.26
8/4/2022 9:30:00 AM 21.85 71.33 0.192 7.38 1.49 8.32
8/4/2022 9:45:00 AM 22.03 71.654 0.192 7.4 1.72 8.41
8/4/2022 10:00:00 AM 22.23 72.014 0.191 7.41 1.55 8.42
8/4/2022 10:15:00 AM 22.46 72.42799 0.191 7.43 1.47 8.37
8/4/2022 10:30:00 AM 22.72 72.896 0.191 7.44 1.51 8.52
8/4/2022 10:45:00 AM 23.04 73.472 0.19 7.46 1.94 8.62
8/4/2022 11:00:00 AM 23.39 74.102 0.19 7.49 1.54 8.67
8/4/2022 11:15:00 AM 23.75 74.75 0.19 7.53 1.54 8.85
8/4/2022 11:30:00 AM 24.13 75.434 0.189 7.55 1.45 8.98
8/4/2022 11:45:00 AM 24.59 76.262 0.189 7.59 1.56 9.04
8/4/2022 12:00:00 PM 24.93 76.874 0.189 7.63 1.47 9.09
8/4/2022 12:15:00 PM 25.25 77.45 0.188 7.67 1.48 9.1
8/4/2022 12:30:00 PM 25.58 78.044 0.188 7.7 1.66 9.19
8/4/2022 12:45:00 PM 25.8 78.44 0.188 7.73 1.58 9.13
8/4/2022 1:00:00 PM 26.31 79.358 0.187 7.79 1.55 9.19
8/4/2022 1:15:00 PM 26.37 79.466 0.187 7.79 1.5 9.07
8/4/2022 1:30:00 PM 26.66 79.988 0.187 7.8 1.57 8.95
8/4/2022 1:45:00 PM 26.57 79.826 0.187 7.8 1.68 8.8
8/4/2022 2:00:00 PM 26.39 79.502 0.187 7.74 1.73 8.46
8/4/2022 2:15:00 PM 26.33 79.394 0.188 7.72 1.48 8.22
8/4/2022 2:30:00 PM 26.17 79.106 0.189 7.66 1.79 7.94
8/4/2022 2:45:00 PM 25.99 78.782 0.189 7.61 1.71 7.76
8/4/2022 3:00:00 PM 25.78 78.404 0.189 7.57 1.81 7.57
8/4/2022 3:15:00 PM 25.52 77.936 0.19 7.54 2.19 7.46
8/4/2022 3:30:00 PM 25.32 77.576 0.19 7.51 2.72 7.45
8/4/2022 3:45:00 PM 25.13 77.234 0.19 7.49 2.42 7.46
8/4/2022 4:00:00 PM 25.01 77.018 0.19 7.49 2.26 7.55
8/4/2022 4:15:00 PM 24.93 76.874 0.19 7.49 2.07 7.7
8/4/2022 4:30:00 PM 24.93 76.874 0.19 7.53 1.71 8
8/4/2022 4:45:00 PM 24.97 76.946 0.189 7.57 2.05 8.19
8/4/2022 5:00:00 PM 25.03 77.054 0.189 7.62 1.71 8.35
8/4/2022 5:15:00 PM 25.14 77.252 0.188 7.66 1.55 8.52
8/4/2022 5:30:00 PM 25.46 77.828 0.188 7.74 1.63 8.72
8/4/2022 5:45:00 PM 25.51 77.918 0.188 7.76 2.49 8.72
8/4/2022 6:00:00 PM 25.49 77.882 0.188 7.72 1.78 8.59
8/4/2022 6:15:00 PM 25.47 77.846 0.188 7.71 1.9 8.43
8/4/2022 6:30:00 PM 25.41 77.738 0.188 7.67 1.91 8.2
8/4/2022 6:45:00 PM 25.35 77.63 0.189 7.65 1.76 8.07
8/4/2022 7:00:00 PM 25.27 77.486 0.189 7.61 1.68 7.92
8/4/2022 7:15:00 PM 25.18 77.324 0.19 7.58 1.94 7.79
8/4/2022 7:30:00 PM 25.07 77.126 0.19 7.56 1.64 7.64
8/4/2022 7:45:00 PM 24.97 76.946 0.191 7.54 1.71 7.52
8/4/2022 8:00:00 PM 24.86 76.748 0.192 7.52 1.78 7.39
8/4/2022 8:15:00 PM 24.72 76.496 0.192 7.49 1.73 7.3
8/4/2022 8:30:00 PM 24.61 76.298 0.193 7.46 1.69 7.12
8/4/2022 8:45:00 PM 24.48 76.064 0.194 7.43 1.91 6.98
8/4/2022 9:00:00 PM 24.35 75.83 0.194 7.42 2.02 6.89
8/4/2022 9:15:00 PM 24.26 75.668 0.195 7.4 1.95 6.76
8/4/2022 9:30:00 PM 24.14 75.452 0.195 7.39 2.2 6.71
8/4/2022 9:45:00 PM 24.02 75.236 0.196 7.37 1.9 6.69
8/4/2022 10:00:00 PM 23.92 75.056 0.196 7.36 2.45 6.64
8/4/2022 10:15:00 PM 23.81 74.858 0.196 7.35 2.21 6.59
8/4/2022 10:30:00 PM 23.74 74.732 0.196 7.33 1.69 6.57
8/4/2022 10:45:00 PM 23.65 74.57 0.196 7.33 1.91 6.57
8/4/2022 11:00:00 PM 23.56 74.408 0.197 7.33 1.84 6.6
8/4/2022 11:15:00 PM 23.49 74.282 0.197 7.32 1.86 6.61
8/4/2022 11:30:00 PM 23.42 74.156 0.196 7.31 1.96 6.66
8/4/2022 11:45:00 PM 23.35 74.03 0.196 7.31 2.18 6.68
8/5/2022 12:00:00 AM 23.28 73.904 0.196 7.3 1.68 6.65
8/5/2022 12:15:00 AM 23.23 73.814 0.196 7.3 1.85 6.67
8/5/2022 12:30:00 AM 23.18 73.724 0.196 7.3 1.77 6.66
8/5/2022 12:45:00 AM 23.15 73.67 0.196 7.29 1.98 6.72
8/5/2022 1:00:00 AM 23.11 73.598 0.196 7.28 1.8 6.69
8/5/2022 1:15:00 AM 23.06 73.508 0.196 7.28 1.84 6.71
8/5/2022 1:30:00 AM 23.02 73.436 0.196 7.28 1.86 6.74
8/5/2022 1:45:00 AM 22.97 73.346 0.196 7.28 1.84 6.76
8/5/2022 2:00:00 AM 22.92 73.256 0.196 7.28 2.01 6.77
8/5/2022 2:15:00 AM 22.87 73.166 0.196 7.28 1.82 6.77
8/5/2022 2:30:00 AM 22.81 73.058 0.196 7.27 3.35 6.77
8/5/2022 2:45:00 AM 22.77 72.986 0.196 7.26 1.83 6.76
8/5/2022 3:00:00 AM 22.71 72.878 0.196 7.26 2.08 6.76
8/5/2022 3:15:00 AM 22.65 72.77 0.196 7.26 2.29 6.83
8/5/2022 3:30:00 AM 22.59 72.662 0.196 7.26 1.96 6.85
8/5/2022 3:45:00 AM 22.54 72.57201 0.196 7.26 1.74 6.81
8/5/2022 4:00:00 AM 22.5 72.5 0.196 7.26 1.99 6.87
8/5/2022 4:15:00 AM 22.46 72.42799 0.196 7.26 1.69 6.9
8/5/2022 4:30:00 AM 22.42 72.356 0.196 7.25 2.37 6.9
8/5/2022 4:45:00 AM 22.38 72.284 0.196 7.25 1.82 6.88
8/5/2022 5:00:00 AM 22.34 72.212 0.196 7.26 1.92 6.96
8/5/2022 5:15:00 AM 22.31 72.158 0.196 7.25 1.9 6.92
8/5/2022 5:30:00 AM 22.26 72.068 0.196 7.25 1.79 6.94
8/5/2022 5:45:00 AM 22.22 71.996 0.196 7.25 1.98 6.96
8/5/2022 6:00:00 AM 22.18 71.924 0.196 7.25 1.85 7
8/5/2022 6:15:00 AM 22.14 71.852 0.196 7.25 1.93 7
8/5/2022 6:30:00 AM 22.1 71.78 0.196 7.25 1.89 6.99
8/5/2022 6:45:00 AM 22.07 71.726 0.196 7.26 2.04 7.08
8/5/2022 7:00:00 AM 22.04 71.672 0.195 7.26 2.06 7.21
8/5/2022 7:15:00 AM 22.04 71.672 0.195 7.27 2.07 7.3
8/5/2022 7:30:00 AM 22.06 71.708 0.194 7.28 1.98 7.52
8/5/2022 7:45:00 AM 22.11 71.798 0.194 7.31 2.39 7.76
8/5/2022 8:00:00 AM 22.19 71.942 0.193 7.33 1.94 8.03
8/5/2022 8:15:00 AM 22.25 72.05 0.192 7.35 2.03 8.2
8/5/2022 8:30:00 AM 22.34 72.212 0.192 7.36 1.87 8.35
8/5/2022 8:45:00 AM 22.45 72.41 0.191 7.39 1.77 8.46
8/5/2022 9:00:00 AM 22.61 72.698 0.19 7.42 1.8 8.71
8/5/2022 9:15:00 AM 22.76 72.968 0.189 7.46 1.73 8.89
8/5/2022 9:30:00 AM 22.92 73.256 0.189 7.49 1.62 8.95
8/5/2022 9:45:00 AM 23.07 73.526 0.188 7.52 1.91 9.05
8/5/2022 10:00:00 AM 23.21 73.778 0.188 7.53 1.7 9.1
8/5/2022 10:15:00 AM 23.31 73.958 0.187 7.56 1.66 9.08
8/5/2022 10:30:00 AM 23.41 74.138 0.187 7.56 1.66 9.01
8/5/2022 10:45:00 AM 23.51 74.318 0.187 7.57 1.66 8.97
8/5/2022 11:00:00 AM 23.63 74.534 0.187 7.59 1.59 9.01
8/5/2022 11:15:00 AM 23.74 74.732 0.187 7.61 1.77 9.06
8/5/2022 11:30:00 AM 23.82 74.876 0.187 7.63 1.7 9.08
8/5/2022 11:45:00 AM 23.92 75.056 0.187 7.66 1.6 9.17
8/5/2022 12:00:00 PM 24.04 75.272 0.186 7.7 1.62 9.17
8/5/2022 12:15:00 PM 24.16 75.488 0.186 7.74 1.78 9.18
8/5/2022 12:30:00 PM 24.3 75.74 0.186 7.76 1.68 9.24
8/5/2022 12:45:00 PM 24.56 76.208 0.186 7.84 1.75 9.36
8/5/2022 1:00:00 PM 24.79 76.622 0.186 7.9 1.64 9.5
8/5/2022 1:15:00 PM 24.95 76.91 0.186 7.94 1.74 9.5
8/5/2022 1:30:00 PM 25.18 77.324 0.185 8 1.72 9.52
8/5/2022 1:45:00 PM 25.39 77.702 0.185 8.02 1.7 9.39
8/5/2022 2:00:00 PM 25.85 78.53 0.185 8.05 1.53 9.31
8/5/2022 2:15:00 PM 26.27 79.286 0.185 8.04 1.72 9.21
8/5/2022 2:30:00 PM 26.88 80.384 0.185 8.06 1.59 9.1
8/5/2022 2:45:00 PM 27.51 81.518 0.185 8.06 1.7 9.02
8/5/2022 3:00:00 PM 28.24 82.832 0.186 8.02 2.12 8.78
8/5/2022 3:15:00 PM 29.04 84.272 0.186 8 4.32 8.58
8/5/2022 3:30:00 PM 29.7 85.46001 0.186 8.01 1.65 8.47
8/5/2022 3:45:00 PM 30.26 86.468 0.187 7.99 1.77 8.35
8/5/2022 4:00:00 PM 30.72 87.296 0.187 7.97 1.6 8.24
8/5/2022 4:15:00 PM 31.15 88.07 0.188 7.95 1.58 8.13
8/5/2022 4:30:00 PM 31.37 88.466 0.188 7.91 1.61 7.99
8/5/2022 4:45:00 PM 31.45 88.61 0.188 7.87 1.59 7.91
8/5/2022 5:00:00 PM 31.51 88.718 0.189 7.86 1.47 7.86
8/5/2022 5:15:00 PM 31.53 88.75401 0.189 7.84 1.47 7.81
8/5/2022 5:30:00 PM 31.42 88.556 0.19 7.82 1.6 7.75
8/5/2022 5:45:00 PM 31.22 88.196 0.19 7.81 2.7 7.69
8/5/2022 6:00:00 PM 30.89 87.60201 0.191 7.78 1.59 7.57
8/5/2022 6:15:00 PM 30.27 86.486 0.191 7.74 2.01 7.45
8/5/2022 6:30:00 PM 29.68 85.424 0.192 7.66 2.66 7.13
8/5/2022 6:45:00 PM 29.08 84.344 0.193 7.63 1.72 7.08
8/5/2022 7:00:00 PM 28.57 83.426 0.193 7.58 1.86 6.93
8/5/2022 7:15:00 PM 28.11 82.598 0.194 7.54 1.82 6.77
8/5/2022 7:30:00 PM 27.67 81.806 0.195 7.51 1.84 6.72
8/5/2022 7:45:00 PM 27.29 81.122 0.196 7.48 2.54 6.61
8/5/2022 8:00:00 PM 26.93 80.474 0.196 7.45 1.97 6.52
8/5/2022 8:15:00 PM 26.61 79.898 0.197 7.43 1.84 6.45
8/5/2022 8:30:00 PM 26.32 79.376 0.198 7.41 2.57 6.4
8/5/2022 8:45:00 PM 26.07 78.926 0.198 7.4 2.14 6.35
8/5/2022 9:00:00 PM 25.84 78.512 0.199 7.39 2.22 6.35
8/5/2022 9:15:00 PM 25.64 78.152 0.199 7.38 2 6.36
8/5/2022 9:30:00 PM 25.46 77.828 0.199 7.36 2.15 6.28
8/5/2022 9:45:00 PM 25.29 77.522 0.199 7.34 2.23 6.23
8/5/2022 10:00:00 PM 25.16 77.288 0.199 7.34 2.05 6.2
8/5/2022 10:15:00 PM 25.05 77.09 0.199 7.33 2.34 6.18
8/5/2022 10:30:00 PM 24.94 76.892 0.199 7.31 1.89 6.11
8/5/2022 10:45:00 PM 24.84 76.712 0.199 7.3 2.48 6.15
8/5/2022 11:00:00 PM 24.77 76.586 0.198 7.3 2.27 6.14
8/5/2022 11:15:00 PM 24.68 76.424 0.198 7.29 2.33 6.14
8/5/2022 11:30:00 PM 24.61 76.298 0.197 7.28 2.23 6.07
8/5/2022 11:45:00 PM 24.56 76.208 0.197 7.27 2.38 6.09
8/6/2022 12:00:00 AM 24.5 76.1 0.196 7.27 2.22 6.12
8/6/2022 12:15:00 AM 24.44 75.992 0.196 7.26 2.04 6.1
8/6/2022 12:30:00 AM 24.4 75.92 0.196 7.25 1.99 6.08
8/6/2022 12:45:00 AM 24.34 75.812 0.196 7.25 2.06 6.14
8/6/2022 1:00:00 AM 24.3 75.74 0.196 7.25 1.87 6.13
8/6/2022 1:15:00 AM 24.26 75.668 0.196 7.24 1.95 6.12
8/6/2022 1:30:00 AM 24.22 75.596 0.196 7.24 1.81 6.16
8/6/2022 1:45:00 AM 24.17 75.506 0.196 7.24 1.95 6.23
8/6/2022 2:00:00 AM 24.13 75.434 0.196 7.24 1.86 6.24
8/6/2022 2:15:00 AM 24.09 75.362 0.196 7.24 2.13 6.26
8/6/2022 2:30:00 AM 24.06 75.308 0.196 7.24 1.93 6.31
8/6/2022 2:45:00 AM 24.01 75.218 0.196 7.23 1.9 6.25
8/6/2022 3:00:00 AM 23.97 75.146 0.196 7.23 1.86 6.32
8/6/2022 3:15:00 AM 23.91 75.038 0.196 7.22 1.79 6.28
8/6/2022 3:30:00 AM 23.86 74.948 0.196 7.22 1.84 6.36
8/6/2022 3:45:00 AM 23.82 74.876 0.196 7.23 1.89 6.41
8/6/2022 4:00:00 AM 23.78 74.804 0.196 7.23 1.9 6.46
8/6/2022 4:15:00 AM 23.74 74.732 0.195 7.23 2.03 6.48
8/6/2022 4:30:00 AM 23.7 74.66 0.195 7.23 1.84 6.51
8/6/2022 4:45:00 AM 23.66 74.588 0.195 7.23 1.87 6.51
8/6/2022 5:00:00 AM 23.63 74.534 0.195 7.22 2.02 6.52
8/6/2022 5:15:00 AM 23.6 74.48 0.195 7.22 2.1 6.51
8/6/2022 5:30:00 AM 23.58 74.444 0.195 7.22 1.85 6.56
8/6/2022 5:45:00 AM 23.55 74.39 0.195 7.22 2.1 6.56
8/6/2022 6:00:00 AM 23.5 74.3 0.195 7.22 2 6.55
8/6/2022 6:15:00 AM 23.47 74.246 0.195 7.22 2.1 6.61
8/6/2022 6:30:00 AM 23.43 74.174 0.195 7.22 2.12 6.67
8/6/2022 6:45:00 AM 23.39 74.102 0.196 7.22 2.04 6.72
8/6/2022 7:00:00 AM 23.35 74.03 0.196 7.23 2.13 6.79
8/6/2022 7:15:00 AM 23.34 74.012 0.195 7.23 1.95 6.89
8/6/2022 7:30:00 AM 23.34 74.012 0.195 7.25 1.98 7.04
8/6/2022 7:45:00 AM 23.37 74.066 0.195 7.26 2.02 7.24
8/6/2022 8:00:00 AM 23.41 74.138 0.194 7.29 2.01 7.41
8/6/2022 8:15:00 AM 23.47 74.246 0.194 7.31 1.96 7.68
8/6/2022 8:30:00 AM 23.54 74.372 0.193 7.33 1.83 8.01
8/6/2022 8:45:00 AM 23.64 74.552 0.192 7.36 1.98 8.1
8/6/2022 9:00:00 AM 23.78 74.804 0.191 7.39 1.92 8.41
8/6/2022 9:15:00 AM 23.9 75.02 0.191 7.42 1.85 8.52
8/6/2022 9:30:00 AM 24.08 75.344 0.19 7.46 2.11 8.73
8/6/2022 9:45:00 AM 24.26 75.668 0.19 7.5 1.83 8.87
8/6/2022 10:00:00 AM 24.44 75.992 0.189 7.55 1.91 9.09
8/6/2022 10:15:00 AM 24.62 76.316 0.189 7.58 1.85 9.11
8/6/2022 10:30:00 AM 24.8 76.64 0.189 7.63 1.67 9.27
8/6/2022 10:45:00 AM 24.92 76.856 0.189 7.65 1.87 9.14
8/6/2022 11:00:00 AM 25.07 77.126 0.189 7.69 1.83 9.19
8/6/2022 11:15:00 AM 25.23 77.414 0.189 7.75 1.91 9.26
8/6/2022 11:30:00 AM 25.4 77.72 0.189 7.79 1.99 9.34
8/6/2022 11:45:00 AM 25.54 77.972 0.189 7.85 1.75 9.44
8/6/2022 12:00:00 PM 25.74 78.332 0.189 7.9 2.16 9.39
8/6/2022 12:15:00 PM 25.95 78.71 0.188 7.98 1.89 9.49
8/6/2022 12:30:00 PM 26.17 79.106 0.188 8.01 2.15 9.32
8/6/2022 12:45:00 PM 26.42 79.556 0.188 8.08 1.69 9.49
8/6/2022 1:00:00 PM 26.67 80.006 0.188 8.1 2.63 9.3
8/6/2022 1:15:00 PM 26.88 80.384 0.188 8.14 3.02 9.36
8/6/2022 1:30:00 PM 27.2 80.96 0.189 8.19 2.77 9.25
8/6/2022 1:45:00 PM 27.57 81.626 0.188 8.21 2.34 9.07
8/6/2022 2:00:00 PM 27.92 82.256 0.189 8.24 1.76 9.11
8/6/2022 2:15:00 PM 28.27 82.886 0.189 8.23 1.71 8.97
8/6/2022 2:30:00 PM 28.63 83.534 0.189 8.25 1.93 8.85
8/6/2022 2:45:00 PM 28.82 83.876 0.189 8.27 1.88 8.79
8/6/2022 3:00:00 PM 29.14 84.452 0.189 8.28 3.61 8.79
8/6/2022 3:15:00 PM 29.4 84.92 0.189 8.31 1.96 8.81
8/6/2022 3:30:00 PM 29.55 85.18999 0.189 8.33 1.94 8.72
8/6/2022 3:45:00 PM 29.51 85.118 0.19 8.28 1.77 8.56
8/6/2022 4:00:00 PM 29.6 85.28 0.19 8.31 1.83 8.55
8/6/2022 4:15:00 PM 29.71 85.478 0.19 8.29 1.6 8.48
8/6/2022 4:30:00 PM 29.77 85.586 0.19 8.29 1.99 8.55
8/6/2022 4:45:00 PM 29.73 85.514 0.19 8.29 1.78 8.38
8/6/2022 5:00:00 PM 29.92 85.856 0.191 8.27 1.81 8.37
8/6/2022 5:15:00 PM 29.82 85.676 0.191 8.26 1.89 8.38
8/6/2022 5:30:00 PM 29.82 85.676 0.191 8.28 1.9 8.32
8/6/2022 5:45:00 PM 29.56 85.208 0.191 8.21 1.75 8.22
8/6/2022 6:00:00 PM 29 84.2 0.192 8.15 1.93 8.05
8/6/2022 6:15:00 PM 28.51 83.318 0.192 8.07 2.17 7.92
8/6/2022 6:30:00 PM 28.11 82.598 0.193 7.97 2.06 7.76
8/6/2022 6:45:00 PM 27.78 82.004 0.193 7.89 2.07 7.65
8/6/2022 7:00:00 PM 27.45 81.41 0.194 7.8 1.95 7.48
8/6/2022 7:15:00 PM 27.13 80.834 0.194 7.72 2 7.31
8/6/2022 7:30:00 PM 26.92 80.456 0.195 7.67 2.07 7.24
8/6/2022 7:45:00 PM 26.75 80.15 0.195 7.61 2.16 7.12
8/6/2022 8:00:00 PM 26.64 79.952 0.195 7.58 1.9 7.05
8/6/2022 8:15:00 PM 26.34 79.412 0.189 7.56 3.71 7.15
8/6/2022 8:30:00 PM 26.43 79.574 0.164 7.84 25.59 7.05
8/6/2022 8:45:00 PM 26.19 79.142 0.18 7.7 8.09 6.9
8/6/2022 9:00:00 PM 26.15 79.07 0.179 7.75 10.94 6.77
8/6/2022 9:15:00 PM 26.01 78.818 0.187 7.6 5.69 6.67
8/6/2022 9:30:00 PM 25.91 78.638 0.19 7.52 3.33 6.68
8/6/2022 9:45:00 PM 25.87 78.566 0.191 7.48 3.39 6.68
8/6/2022 10:00:00 PM 25.84 78.512 0.192 7.46 2.69 6.71
8/6/2022 10:15:00 PM 25.8 78.44 0.193 7.44 2.54 6.73
8/6/2022 10:30:00 PM 25.77 78.386 0.193 7.44 4.4 6.74
8/6/2022 10:45:00 PM 25.72 78.296 0.193 7.42 2.8 6.77
8/6/2022 11:00:00 PM 25.68 78.224 0.193 7.41 3.43 6.77
8/6/2022 11:15:00 PM 25.62 78.116 0.192 7.4 2.82 6.81
8/6/2022 11:30:00 PM 25.57 78.026 0.192 7.38 2.47 6.83
8/6/2022 11:45:00 PM 25.52 77.936 0.192 7.38 2.25 6.85
8/7/2022 12:00:00 AM 25.47 77.846 0.193 7.37 2.72 6.88
8/7/2022 12:15:00 AM 25.44 77.792 0.193 7.37 2.95 6.9
8/7/2022 12:30:00 AM 25.4 77.72 0.194 7.36 2.58 6.92
8/7/2022 12:45:00 AM 25.38 77.684 0.194 7.36 2.8 6.93
8/7/2022 1:00:00 AM 25.37 77.666 0.195 7.36 2.83 6.96
8/7/2022 1:15:00 AM 25.35 77.63 0.195 7.35 3.16 6.97
8/7/2022 1:30:00 AM 25.32 77.576 0.195 7.35 3.09 7
8/7/2022 1:45:00 AM 25.3 77.54 0.196 7.35 3.18 7.01
8/7/2022 2:00:00 AM 25.28 77.504 0.196 7.35 2.59 7.02
8/7/2022 2:15:00 AM 25.27 77.486 0.196 7.35 2.81 7.04
8/7/2022 2:30:00 AM 25.25 77.45 0.196 7.35 2.82 7.05
8/7/2022 2:45:00 AM 25.22 77.396 0.196 7.35 2.66 7.06
8/7/2022 3:00:00 AM 25.18 77.324 0.196 7.35 3.28 7.06
8/7/2022 3:15:00 AM 25.13 77.234 0.196 7.34 2.97 7.08
8/7/2022 3:30:00 AM 25.09 77.162 0.196 7.34 3.38 7.08
8/7/2022 3:45:00 AM 25.05 77.09 0.196 7.34 2.87 7.1
8/7/2022 4:00:00 AM 25.01 77.018 0.196 7.34 3.02 7.12
8/7/2022 4:15:00 AM 24.97 76.946 0.196 7.34 2.82 7.14
8/7/2022 4:30:00 AM 24.92 76.856 0.196 7.34 2.82 7.14
8/7/2022 4:45:00 AM 24.88 76.784 0.196 7.34 2.93 7.16
8/7/2022 5:00:00 AM 24.82 76.676 0.196 7.34 3.5 7.17
8/7/2022 5:15:00 AM 24.77 76.586 0.196 7.34 2.87 7.2
8/7/2022 5:30:00 AM 24.71 76.478 0.196 7.34 3.48 7.2
8/7/2022 5:45:00 AM 24.66 76.388 0.196 7.34 3.2 7.22
8/7/2022 6:00:00 AM 24.59 76.262 0.196 7.34 2.99 7.25
8/7/2022 6:15:00 AM 24.52 76.136 0.196 7.34 3.42 7.26
8/7/2022 6:30:00 AM 24.46 76.028 0.197 7.34 3.22 7.3
8/7/2022 6:45:00 AM 24.41 75.938 0.197 7.34 3.35 7.35
8/7/2022 7:00:00 AM 24.37 75.866 0.197 7.35 101.73 7.42
8/7/2022 7:15:00 AM 24.35 75.83 0.197 7.36 2.69 7.48
8/7/2022 7:30:00 AM 24.33 75.794 0.197 7.38 2.58 7.61
8/7/2022 7:45:00 AM 24.34 75.812 0.197 7.4 2.76 7.74
8/7/2022 8:00:00 AM 24.37 75.866 0.197 7.42 2.36 7.9
8/7/2022 8:15:00 AM 24.38 75.884 0.197 7.44 2.83 7.99
8/7/2022 8:30:00 AM 24.4 75.92 0.197 7.46 2.95 8.08
8/7/2022 8:45:00 AM 24.4 75.92 0.197 7.48 2.38 8.17
8/7/2022 9:00:00 AM 24.44 75.992 0.197 7.5 2.51 8.27
8/7/2022 9:15:00 AM 24.51 76.118 0.197 7.52 2.36 8.39
8/7/2022 9:30:00 AM 24.63 76.334 0.197 7.55 2.55 8.52
8/7/2022 9:45:00 AM 24.75 76.55 0.196 7.59 2.54 8.63
8/7/2022 10:00:00 AM 24.91 76.838 0.196 7.63 2.51 8.75
8/7/2022 10:15:00 AM 25.04 77.07201 0.196 7.67 2.29 8.82
8/7/2022 10:30:00 AM 25.18 77.324 0.196 7.71 2.98 8.88
8/7/2022 10:45:00 AM 25.27 77.486 0.196 7.73 2.44 8.9
8/7/2022 11:00:00 AM 25.42 77.756 0.196 7.77 2.36 8.97
8/7/2022 11:15:00 AM 25.49 77.882 0.196 7.8 2.79 8.93
8/7/2022 11:30:00 AM 25.53 77.954 0.196 7.78 2.15 8.82
8/7/2022 11:45:00 AM 25.51 77.918 0.196 7.77 2.5 8.76
8/7/2022 12:00:00 PM 25.49 77.882 0.196 7.76 2.46 8.66
8/7/2022 12:15:00 PM 25.47 77.846 0.192 7.74 2.68 8.58
8/7/2022 12:30:00 PM 25.55 77.99 0.186 7.81 7.53 8.52
8/7/2022 12:45:00 PM 25.63 78.134 0.188 7.85 3.93 8.67
8/7/2022 1:00:00 PM 25.65 78.17 0.192 7.84 2.59 8.73
8/7/2022 1:15:00 PM 25.73 78.314 0.192 7.85 2.57 8.8
8/7/2022 1:30:00 PM 25.85 78.53 0.192 7.91 2.18 8.94
8/7/2022 1:45:00 PM 26.3 79.34 0.193 7.98 2.42 9.05
8/7/2022 2:00:00 PM 26.64 79.952 0.193 7.99 2.09 8.91
8/7/2022 2:15:00 PM 26.55 79.79 0.183 7.85 2.77 8.43
8/7/2022 2:30:00 PM 26.85 80.33 0.149 8.23 27.38 8.16
8/7/2022 2:45:00 PM 26.82 80.276 0.175 8.12 7.56 8.63
8/7/2022 3:00:00 PM 27.41 81.338 0.181 8.09 3.82 8.72
8/7/2022 3:15:00 PM 28.01 82.418 0.182 8.09 2.9 8.72
8/7/2022 3:30:00 PM 28.45 83.21001 0.184 8.11 3.37 8.8
8/7/2022 3:45:00 PM 28.74 83.732 0.186 8.15 2.19 8.81
8/7/2022 4:00:00 PM 28.82 83.876 0.187 8.16 2.32 8.69
8/7/2022 4:15:00 PM 28.74 83.732 0.187 8.12 2.31 8.56
8/7/2022 4:30:00 PM 28.41 83.138 0.187 8.07 2.34 8.45
8/7/2022 4:45:00 PM 28.13 82.634 0.187 8.05 3.89 8.42
8/7/2022 5:00:00 PM 28.2 82.76 0.188 8.09 2 8.53
8/7/2022 5:15:00 PM 28.34 83.012 0.188 8.12 2.37 8.55
8/7/2022 5:30:00 PM 28.29 82.922 0.189 8.11 2.53 8.49
8/7/2022 5:45:00 PM 28.09 82.562 0.189 8.07 2.43 8.37
8/7/2022 6:00:00 PM 27.81 82.058 0.19 8.02 2.35 8.26
8/7/2022 6:15:00 PM 27.58 81.644 0.19 7.96 2.35 8.13
8/7/2022 6:30:00 PM 27.43 81.374 0.191 7.9 2.31 8.05
8/7/2022 6:45:00 PM 27.32 81.176 0.191 7.87 2.71 8
8/7/2022 7:00:00 PM 27.21 80.978 0.191 7.81 2.4 7.88
8/7/2022 7:15:00 PM 27.11 80.798 0.191 7.76 3.8 7.75
8/7/2022 7:30:00 PM 27.02 80.636 0.192 7.69 2.59 7.59
8/7/2022 7:45:00 PM 26.93 80.474 0.192 7.65 2.51 7.44
8/7/2022 8:00:00 PM 26.85 80.33 0.192 7.6 2.57 7.32
8/7/2022 8:15:00 PM 26.76 80.168 0.193 7.56 2.6 7.22
8/7/2022 8:30:00 PM 26.68 80.024 0.193 7.53 2.65 7.13
8/7/2022 8:45:00 PM 26.61 79.898 0.193 7.51 2.66 7.07
8/7/2022 9:00:00 PM 26.52 79.736 0.193 7.48 2.66 7.01
8/7/2022 9:15:00 PM 26.44 79.592 0.193 7.46 2.94 6.99
8/7/2022 9:30:00 PM 26.37 79.466 0.194 7.45 2.91 6.96
8/7/2022 9:45:00 PM 26.29 79.32201 0.194 7.43 2.76 6.94
8/7/2022 10:00:00 PM 26.21 79.17799 0.194 7.42 2.86 6.95
8/7/2022 10:15:00 PM 26.13 79.034 0.194 7.41 4.14 6.96
8/7/2022 10:30:00 PM 26.06 78.908 0.195 7.4 2.68 6.96
8/7/2022 10:45:00 PM 26 78.8 0.195 7.39 2.78 6.95
8/7/2022 11:00:00 PM 25.92 78.656 0.195 7.39 2.57 6.98
8/7/2022 11:15:00 PM 25.85 78.53 0.196 7.39 3.09 6.99
8/7/2022 11:30:00 PM 25.78 78.404 0.196 7.38 3.05 7
8/7/2022 11:45:00 PM 25.71 78.278 0.196 7.38 2.65 7.01
8/8/2022 12:00:00 AM 25.65 78.17 0.197 7.37 2.82 7.02
8/8/2022 12:15:00 AM 25.59 78.062 0.197 7.37 3 7.03
8/8/2022 12:30:00 AM 25.53 77.954 0.197 7.36 3.02 7.01
8/8/2022 12:45:00 AM 25.47 77.846 0.197 7.36 2.97 7.04
8/8/2022 1:00:00 AM 25.42 77.756 0.198 7.36 2.77 7.06
8/8/2022 1:15:00 AM 25.38 77.684 0.198 7.36 2.83 7.07
8/8/2022 1:30:00 AM 25.35 77.63 0.198 7.36 2.75 7.07
8/8/2022 1:45:00 AM 25.33 77.594 0.198 7.35 2.95 7.04
8/8/2022 2:00:00 AM 25.31 77.558 0.199 7.35 2.51 7.02
8/8/2022 2:15:00 AM 25.28 77.504 0.199 7.35 2.85 7.06
8/8/2022 2:30:00 AM 25.24 77.432 0.199 7.35 2.65 7.1
8/8/2022 2:45:00 AM 25.21 77.378 0.199 7.35 2.73 7.09
8/8/2022 3:00:00 AM 25.17 77.306 0.2 7.35 2.92 7.09
8/8/2022 3:15:00 AM 25.13 77.234 0.2 7.35 2.71 7.11
8/8/2022 3:30:00 AM 25.09 77.162 0.2 7.35 2.55 7.12
8/8/2022 3:45:00 AM 25.04 77.07201 0.2 7.35 2.78 7.13
8/8/2022 4:00:00 AM 24.99 76.982 0.201 7.35 2.54 7.15
8/8/2022 4:15:00 AM 24.95 76.91 0.201 7.35 2.69 7.14
8/8/2022 4:30:00 AM 24.9 76.82 0.201 7.34 3.19 7.1
8/8/2022 4:45:00 AM 24.84 76.712 0.202 7.35 11.43 7.15
8/8/2022 5:00:00 AM 24.79 76.622 0.202 7.34 2.49 7.16
8/8/2022 5:15:00 AM 24.73 76.514 0.203 7.34 2.39 7.19
8/8/2022 5:30:00 AM 24.66 76.388 0.203 7.34 2.81 7.2
8/8/2022 5:45:00 AM 24.6 76.28 0.204 7.34 2.8 7.22
8/8/2022 6:00:00 AM 24.55 76.19 0.204 7.34 2.89 7.24
8/8/2022 6:15:00 AM 24.49 76.082 0.205 7.34 2.85 7.27
8/8/2022 6:30:00 AM 24.45 76.01 0.205 7.34 2.6 7.29
8/8/2022 6:45:00 AM 24.41 75.938 0.205 7.35 2.57 7.32
8/8/2022 7:00:00 AM 24.37 75.866 0.206 7.35 2.61 7.32
8/8/2022 7:15:00 AM 24.34 75.812 0.206 7.36 2.84 7.41
8/8/2022 7:30:00 AM 24.31 75.758 0.206 7.35 16.3 7.43
8/8/2022 7:45:00 AM 24.3 75.74 0.207 7.38 4.53 7.57
8/8/2022 8:00:00 AM 24.31 75.758 0.207 7.4 2.67 7.7
8/8/2022 8:15:00 AM 24.31 75.758 0.207 7.41 2.59 7.79
8/8/2022 8:30:00 AM 24.36 75.848 0.207 7.43 2.94 7.94
8/8/2022 8:45:00 AM 24.41 75.938 0.207 7.45 2.6 8.12
8/8/2022 9:00:00 AM 24.48 76.064 0.207 7.48 2.46 8.24
8/8/2022 9:15:00 AM 24.56 76.208 0.206 7.5 2.78 8.35
8/8/2022 9:30:00 AM 24.66 76.388 0.206 7.53 2.65 8.48
8/8/2022 9:45:00 AM 24.76 76.568 0.206 7.56 2.46 8.58
8/8/2022 10:00:00 AM 24.89 76.802 0.206 7.6 2.21 8.67
8/8/2022 10:15:00 AM 25 77 0.206 7.63 2.35 8.72
8/8/2022 10:30:00 AM 25.12 77.216 0.206 7.67 2.5 8.76
8/8/2022 10:45:00 AM 25.21 77.378 0.206 7.69 2.08 8.76
8/8/2022 11:00:00 AM 25.3 77.54 0.205 7.71 2.27 8.75
8/8/2022 11:15:00 AM 25.47 77.846 0.205 7.73 2.29 8.77
8/8/2022 11:30:00 AM 25.68 78.224 0.205 7.77 2.04 8.84
8/8/2022 11:45:00 AM 25.89 78.602 0.205 7.82 2.44 8.93
8/8/2022 12:00:00 PM 26.04 78.872 0.205 7.86 2.68 8.91
8/8/2022 12:15:00 PM 26.34 79.412 0.204 7.91 2.64 8.98
8/8/2022 12:30:00 PM 26.72 80.096 0.204 7.95 3.48 8.98
8/8/2022 12:45:00 PM 27.08 80.744 0.204 8.02 1.98 9.07
8/8/2022 1:00:00 PM 27.36 81.248 0.204 8.05 2.08 8.97
8/8/2022 1:15:00 PM 27.55 81.59 0.204 8.03 2.28 8.77
8/8/2022 1:30:00 PM 27.69 81.842 0.203 8.02 2.06 8.71
8/8/2022 1:45:00 PM 27.89 82.202 0.203 8.05 2.16 8.69
8/8/2022 2:00:00 PM 28.26 82.868 0.203 8.1 1.96 8.72
8/8/2022 2:15:00 PM 28.86 83.948 0.203 8.15 2.65 8.76
8/8/2022 2:30:00 PM 29.2 84.56001 0.203 8.17 2.17 8.69
8/8/2022 2:45:00 PM 29.34 84.812 0.203 8.2 2.09 8.65
8/8/2022 3:00:00 PM 29.17 84.506 0.202 8.2 1.99 8.52
8/8/2022 3:15:00 PM 28.92 84.056 0.202 8.17 1.96 8.42
8/8/2022 3:30:00 PM 28.61 83.498 0.202 8.13 2.22 8.33
8/8/2022 3:45:00 PM 28.4 83.12 0.202 8.14 1.95 8.4
8/8/2022 4:00:00 PM 28.27 82.886 0.202 8.17 1.93 8.45
8/8/2022 4:15:00 PM 28.23 82.814 0.201 8.21 2.09 8.53
8/8/2022 4:30:00 PM 28.22 82.796 0.201 8.23 2.06 8.52
8/8/2022 4:45:00 PM 28.2 82.76 0.201 8.23 1.96 8.49
8/8/2022 5:00:00 PM 28.23 82.814 0.201 8.23 1.95 8.52
8/8/2022 5:15:00 PM 28.16 82.688 0.201 8.24 1.91 8.44
8/8/2022 5:30:00 PM 28.08 82.544 0.201 8.18 1.99 8.31
8/8/2022 5:45:00 PM 27.96 82.328 0.201 8.13 1.84 8.21
8/8/2022 6:00:00 PM 27.97 82.346 0.201 8.12 2.07 8.17
8/8/2022 6:15:00 PM 27.89 82.202 0.201 8.11 1.88 8.15
8/8/2022 6:30:00 PM 27.78 82.004 0.201 8.03 2.01 7.97
8/8/2022 6:45:00 PM 27.68 81.824 0.201 7.96 1.92 7.92
8/8/2022 7:00:00 PM 27.61 81.698 0.201 7.91 2.42 7.84
8/8/2022 7:15:00 PM 27.57 81.626 0.201 7.87 2.07 7.81
8/8/2022 7:30:00 PM 27.51 81.518 0.201 7.81 2.13 7.65
8/8/2022 7:45:00 PM 27.41 81.338 0.202 7.77 2.03 7.57
8/8/2022 8:00:00 PM 27.31 81.158 0.202 7.7 2.07 7.36
8/8/2022 8:15:00 PM 27.19 80.942 0.203 7.65 2.14 7.22
8/8/2022 8:30:00 PM 27.08 80.744 0.203 7.59 2.13 7.07
8/8/2022 8:45:00 PM 26.97 80.546 0.204 7.54 2.21 6.92
8/8/2022 9:00:00 PM 26.87 80.366 0.204 7.52 2.22 6.83
8/8/2022 9:15:00 PM 26.76 80.168 0.205 7.49 2.41 6.75
8/8/2022 9:30:00 PM 26.64 79.952 0.205 7.47 2.88 6.69
8/8/2022 9:45:00 PM 26.52 79.736 0.206 7.45 2.49 6.69
8/8/2022 10:00:00 PM 26.43 79.574 0.206 7.43 2.46 6.67
8/8/2022 10:15:00 PM 26.33 79.394 0.206 7.42 2.24 6.69
8/8/2022 10:30:00 PM 26.24 79.232 0.206 7.41 2.4 6.68
8/8/2022 10:45:00 PM 26.15 79.07 0.206 7.39 2.4 6.65
8/8/2022 11:00:00 PM 26.08 78.944 0.207 7.39 2.24 6.68
8/8/2022 11:15:00 PM 26.02 78.836 0.207 7.37 2.22 6.66
8/8/2022 11:30:00 PM 25.94 78.692 0.207 7.36 2.22 6.71
8/8/2022 11:45:00 PM 25.86 78.548 0.208 7.36 2.36 6.64
8/9/2022 12:00:00 AM 25.79 78.422 0.208 7.35 2.33 6.73
8/9/2022 12:15:00 AM 25.71 78.278 0.208 7.34 2.45 6.7
8/9/2022 12:30:00 AM 25.64 78.152 0.209 7.35 2.37 6.75
8/9/2022 12:45:00 AM 25.57 78.026 0.209 7.34 2.33 6.76
8/9/2022 1:00:00 AM 25.5 77.9 0.21 7.34 2.1 6.75
8/9/2022 1:15:00 AM 25.44 77.792 0.21 7.33 2.22 6.77
8/9/2022 1:30:00 AM 25.37 77.666 0.211 7.33 2.37 6.78
8/9/2022 1:45:00 AM 25.3 77.54 0.211 7.33 2.46 6.79
8/9/2022 2:00:00 AM 25.24 77.432 0.211 7.33 2.31 6.79
8/9/2022 2:15:00 AM 25.19 77.342 0.212 7.32 2.25 6.81
8/9/2022 2:30:00 AM 25.13 77.234 0.213 7.32 2.21 6.83
8/9/2022 2:45:00 AM 25.08 77.144 0.213 7.31 2.93 6.82
8/9/2022 3:00:00 AM 25.05 77.09 0.214 7.31 2.5 6.83
8/9/2022 3:15:00 AM 25.02 77.036 0.214 7.31 2.54 6.88
8/9/2022 3:30:00 AM 25 77 0.214 7.31 2.1 6.85
8/9/2022 3:45:00 AM 24.98 76.964 0.215 7.3 2.12 6.86
8/9/2022 4:00:00 AM 24.96 76.92799 0.215 7.3 2.37 6.88
8/9/2022 4:15:00 AM 24.93 76.874 0.216 7.31 2.15 6.91
8/9/2022 4:30:00 AM 24.89 76.802 0.216 7.3 2.46 6.88
8/9/2022 4:45:00 AM 24.86 76.748 0.217 7.3 2.6 6.9
8/9/2022 5:00:00 AM 24.82 76.676 0.216 7.31 2.37 6.99
8/9/2022 5:15:00 AM 24.78 76.604 0.216 7.3 2.59 6.98
8/9/2022 5:30:00 AM 24.75 76.55 0.215 7.29 2.81 6.92
8/9/2022 5:45:00 AM 24.71 76.478 0.214 7.28 2.99 6.87
8/9/2022 6:00:00 AM 24.68 76.424 0.215 7.28 2.64 6.87
8/9/2022 6:15:00 AM 24.66 76.388 0.215 7.28 2.48 6.87
8/9/2022 6:30:00 AM 24.64 76.352 0.216 7.28 2.53 6.92
8/9/2022 6:45:00 AM 24.62 76.316 0.215 7.29 2.31 6.99
8/9/2022 7:00:00 AM 24.6 76.28 0.215 7.3 2.89 7.05
8/9/2022 7:15:00 AM 24.61 76.298 0.216 7.31 2.18 7.18
8/9/2022 7:30:00 AM 24.61 76.298 0.216 7.32 2.33 7.23
8/9/2022 7:45:00 AM 24.62 76.316 0.215 7.34 2.28 7.36
8/9/2022 8:00:00 AM 24.66 76.388 0.215 7.35 2.41 7.47
8/9/2022 8:15:00 AM 24.71 76.478 0.214 7.37 2.43 7.69
8/9/2022 8:30:00 AM 24.78 76.604 0.213 7.4 2.26 7.86
8/9/2022 8:45:00 AM 24.86 76.748 0.213 7.41 2.09 8.03
8/9/2022 9:00:00 AM 24.92 76.856 0.212 7.44 2.1 7.97
8/9/2022 9:15:00 AM 24.98 76.964 0.212 7.44 2.17 8.03
8/9/2022 9:30:00 AM 25.08 77.144 0.211 7.47 28.95 8.18
8/9/2022 9:45:00 AM 25.19 77.342 0.211 7.52 5.14 8.37
8/9/2022 10:00:00 AM 25.37 77.666 0.211 7.56 22.11 8.6
8/9/2022 10:15:00 AM 25.57 78.026 0.21 7.62 3.88 8.77
8/9/2022 10:30:00 AM 25.7 78.26 0.209 7.67 1.95 8.81
8/9/2022 10:45:00 AM 25.9 78.62 0.209 7.72 1.86 8.9
8/9/2022 11:00:00 AM 26.05 78.89 0.209 7.73 2.13 8.85
8/9/2022 11:15:00 AM 26.13 79.034 0.208 7.77 1.87 8.81
8/9/2022 11:30:00 AM 26.14 79.052 0.208 7.77 1.71 8.74
8/9/2022 11:45:00 AM 26.21 79.17799 0.208 7.8 2.07 8.73
8/9/2022 12:00:00 PM 26.18 79.124 0.208 7.79 2.3 8.62
8/9/2022 12:15:00 PM 26.24 79.232 0.208 7.82 1.67 8.68
8/9/2022 12:30:00 PM 26.41 79.538 0.207 7.89 1.74 8.88
8/9/2022 12:45:00 PM 26.5 79.7 0.207 7.97 1.96 9.01
8/9/2022 1:00:00 PM 26.71 80.078 0.207 8.02 1.79 9.08
8/9/2022 1:15:00 PM 26.91 80.438 0.207 8.06 1.69 9
8/9/2022 1:30:00 PM 27.1 80.78 0.206 8.11 1.95 9
8/9/2022 1:45:00 PM 27.22 80.996 0.206 8.18 2.19 9.11
8/9/2022 2:00:00 PM 27.43 81.374 0.206 8.2 1.81 9.11
8/9/2022 2:15:00 PM 27.73 81.914 0.205 8.28 1.71 9.07
8/9/2022 2:30:00 PM 27.84 82.112 0.206 8.29 1.72 9
8/9/2022 2:45:00 PM 27.85 82.13 0.206 8.3 1.83 8.86
8/9/2022 3:00:00 PM 27.8 82.04 0.206 8.32 1.66 8.82
8/9/2022 3:15:00 PM 27.99 82.382 0.205 8.38 1.63 8.95
8/9/2022 3:30:00 PM 28.02 82.436 0.205 8.41 1.74 8.92
8/9/2022 3:45:00 PM 28.16 82.688 0.205 8.44 1.8 8.94
8/9/2022 4:00:00 PM 28.3 82.94 0.205 8.43 1.73 8.86
8/9/2022 4:15:00 PM 28.31 82.958 0.205 8.44 1.74 8.81
8/9/2022 4:30:00 PM 28.26 82.868 0.205 8.4 1.6 8.66
8/9/2022 4:45:00 PM 28.1 82.58 0.205 8.35 1.61 8.52
8/9/2022 5:00:00 PM 27.95 82.31 0.205 8.3 1.8 8.46
8/9/2022 5:15:00 PM 28.04 82.472 0.205 8.3 1.75 8.47
8/9/2022 5:30:00 PM 27.93 82.274 0.205 8.29 1.89 8.46
8/9/2022 5:45:00 PM 27.88 82.184 0.205 8.29 1.87 8.41
8/9/2022 6:00:00 PM 27.82 82.076 0.206 8.28 2.46 8.42
8/9/2022 6:15:00 PM 27.81 82.058 0.206 8.26 2.48 8.39
8/9/2022 6:30:00 PM 27.77 81.986 0.206 8.27 2.15 8.37
8/9/2022 6:45:00 PM 27.63 81.734 0.206 8.21 1.96 8.24
8/9/2022 7:00:00 PM 27.48 81.464 0.206 8.13 1.85 8.1
8/9/2022 7:15:00 PM 27.31 81.158 0.207 8.02 1.94 7.87
8/9/2022 7:30:00 PM 27.12 80.816 0.208 7.91 1.82 7.66
8/9/2022 7:45:00 PM 26.94 80.492 0.208 7.81 1.8 7.45
8/9/2022 8:00:00 PM 26.75 80.15 0.209 7.74 1.86 7.3
8/9/2022 8:15:00 PM 26.59 79.862 0.21 7.67 1.94 7.16
8/9/2022 8:30:00 PM 26.44 79.592 0.21 7.62 2.04 7.04
8/9/2022 8:45:00 PM 26.29 79.32201 0.211 7.57 2.05 6.91
8/9/2022 9:00:00 PM 26.17 79.106 0.212 7.54 2.1 6.8
8/9/2022 9:15:00 PM 26.06 78.908 0.212 7.5 2.05 6.74
8/9/2022 9:30:00 PM 25.92 78.656 0.212 7.48 2.17 6.73
8/9/2022 9:45:00 PM 25.81 78.458 0.212 7.45 2.19 6.72
8/9/2022 10:00:00 PM 25.7 78.26 0.213 7.44 2.21 6.7
8/9/2022 10:15:00 PM 25.61 78.098 0.213 7.43 2.22 6.68
8/9/2022 10:30:00 PM 25.51 77.918 0.213 7.41 2.01 6.68
8/9/2022 10:45:00 PM 25.41 77.738 0.213 7.4 2.01 6.69
8/9/2022 11:00:00 PM 25.32 77.576 0.213 7.4 2.05 6.72
8/9/2022 11:15:00 PM 25.25 77.45 0.213 7.38 2.21 6.73
8/9/2022 11:30:00 PM 25.18 77.324 0.213 7.38 1.95 6.74
8/9/2022 11:45:00 PM 25.1 77.18 0.213 7.37 2.1 6.73
8/10/2022 12:00:00 AM 25.05 77.09 0.214 7.36 1.9 6.78
8/10/2022 12:15:00 AM 24.99 76.982 0.214 7.36 2.05 6.8
8/10/2022 12:30:00 AM 24.95 76.91 0.214 7.36 2.13 6.82
8/10/2022 12:45:00 AM 24.89 76.802 0.214 7.35 2.24 6.84
8/10/2022 1:00:00 AM 24.83 76.694 0.214 7.34 1.87 6.78
8/10/2022 1:15:00 AM 24.75 76.55 0.214 7.34 2.06 6.85
8/10/2022 1:30:00 AM 24.68 76.424 0.214 7.34 1.97 6.88
8/10/2022 1:45:00 AM 24.6 76.28 0.214 7.34 2 6.91
8/10/2022 2:00:00 AM 24.52 76.136 0.214 7.34 1.78 6.88
8/10/2022 2:15:00 AM 24.43 75.974 0.214 7.33 1.99 6.9
8/10/2022 2:30:00 AM 24.35 75.83 0.214 7.33 2.07 6.96
8/10/2022 2:45:00 AM 24.27 75.686 0.214 7.33 2.18 6.96
8/10/2022 3:00:00 AM 24.2 75.56 0.215 7.32 2.03 6.96
8/10/2022 3:15:00 AM 24.14 75.452 0.215 7.32 2.03 6.99
8/10/2022 3:30:00 AM 24.07 75.326 0.215 7.33 1.86 7.02
8/10/2022 3:45:00 AM 24.01 75.218 0.215 7.32 1.94 7.01
8/10/2022 4:00:00 AM 23.96 75.128 0.215 7.32 1.9 7.01
8/10/2022 4:15:00 AM 23.9 75.02 0.215 7.33 1.91 7.07
8/10/2022 4:30:00 AM 23.84 74.912 0.215 7.33 2.08 7.08
8/10/2022 4:45:00 AM 23.77 74.786 0.215 7.32 1.91 7.05
8/10/2022 5:00:00 AM 23.71 74.67799 0.215 7.32 1.96 7.07
8/10/2022 5:15:00 AM 23.64 74.552 0.215 7.32 2.41 7.09
8/10/2022 5:30:00 AM 23.58 74.444 0.216 7.33 2.07 7.11
8/10/2022 5:45:00 AM 23.52 74.336 0.216 7.32 1.93 7.15
8/10/2022 6:00:00 AM 23.47 74.246 0.216 7.33 1.93 7.16
8/10/2022 6:15:00 AM 23.42 74.156 0.216 7.32 2.68 7.14
8/10/2022 6:30:00 AM 23.39 74.102 0.216 7.32 2.1 7.14
8/10/2022 6:45:00 AM 23.36 74.048 0.216 7.33 2.17 7.18
8/10/2022 7:00:00 AM 23.34 74.012 0.216 7.34 2.13 7.26
8/10/2022 7:15:00 AM 23.31 73.958 0.216 7.35 1.92 7.37
8/10/2022 7:30:00 AM 23.29 73.922 0.216 7.36 2.16 7.51
8/10/2022 7:45:00 AM 23.22 73.796 0.215 7.38 2.2 7.63
8/10/2022 8:00:00 AM 23.17 73.706 0.215 7.39 2.21 7.74
8/10/2022 8:15:00 AM 23.12 73.616 0.215 7.41 1.89 7.78
8/10/2022 8:30:00 AM 23.14 73.652 0.214 7.42 2.01 7.94
8/10/2022 8:45:00 AM 23.16 73.688 0.214 7.45 1.99 8.18
8/10/2022 9:00:00 AM 23.16 73.688 0.213 7.48 1.88 8.34
8/10/2022 9:15:00 AM 23.24 73.832 0.213 7.51 1.9 8.55
8/10/2022 9:30:00 AM 23.33 73.994 0.212 7.55 1.85 8.71
8/10/2022 9:45:00 AM 23.39 74.102 0.212 7.56 1.84 8.75
8/10/2022 10:00:00 AM 23.48 74.264 0.211 7.6 1.92 8.83
8/10/2022 10:15:00 AM 23.53 74.354 0.211 7.62 1.92 8.84
8/10/2022 10:30:00 AM 23.65 74.57 0.211 7.66 1.86 9
8/10/2022 10:45:00 AM 23.7 74.66 0.21 7.68 2.63 9
8/10/2022 11:00:00 AM 23.79 74.82201 0.21 7.72 3.51 9.04
8/10/2022 11:15:00 AM 23.97 75.146 0.21 7.73 6.31 9.07
8/10/2022 11:30:00 AM 24.07 75.326 0.21 7.75 2.19 9.03
8/10/2022 11:45:00 AM 24.17 75.506 0.21 7.75 2.18 9.02
8/10/2022 12:00:00 PM 24.3 75.74 0.209 7.74 4.72 9.05
8/10/2022 12:15:00 PM 24.49 76.082 0.209 7.79 3.24 9.03
8/10/2022 12:30:00 PM 24.62 76.316 0.209 7.81 3.27 9.05
8/10/2022 12:45:00 PM 24.96 76.92799 0.209 7.87 2.06 9.05
8/10/2022 1:00:00 PM 25.24 77.432 0.208 7.87 2.3 8.97
8/10/2022 1:15:00 PM 25.66 78.188 0.208 7.91 2.46 8.92
8/10/2022 1:30:00 PM 26.21 79.17799 0.208 7.94 2.29 8.85
8/10/2022 1:45:00 PM 26.77 80.186 0.208 7.96 2.08 8.81
8/10/2022 2:00:00 PM 27.33 81.194 0.208 8 2.08 8.8
8/10/2022 2:15:00 PM 27.92 82.256 0.208 8.03 2.74 8.75
8/10/2022 2:30:00 PM 28.4 83.12 0.208 8.05 2.18 8.66
8/10/2022 2:45:00 PM 28.89 84.002 0.208 8.06 2.11 8.61
8/10/2022 3:00:00 PM 29.31 84.758 0.208 8.08 2.14 8.52
8/10/2022 3:15:00 PM 29.75 85.55 0.208 8.07 2.14 8.37
8/10/2022 3:30:00 PM 30.14 86.252 0.208 8.09 2.11 8.33
8/10/2022 3:45:00 PM 30.44 86.792 0.208 8.1 2.02 8.32
8/10/2022 4:00:00 PM 30.6 87.08 0.208 8.09 1.81 8.17
8/10/2022 4:15:00 PM 30.79 87.422 0.209 8.12 1.85 8.11
8/10/2022 4:30:00 PM 30.95 87.71001 0.209 8.06 2.59 8.08
8/10/2022 4:45:00 PM 30.95 87.71001 0.209 8.09 1.83 8.04
8/10/2022 5:00:00 PM 30.87 87.566 0.209 8.08 1.86 7.94
8/10/2022 5:15:00 PM 30.76 87.368 0.21 8.06 1.85 7.92
8/10/2022 5:30:00 PM 30.33 86.594 0.21 8.11 2.03 7.99
8/10/2022 5:45:00 PM 29.79 85.622 0.21 8.08 1.93 7.96
8/10/2022 6:00:00 PM 29.26 84.668 0.211 8.04 1.94 7.96
8/10/2022 6:15:00 PM 28.7 83.66 0.211 8.02 1.94 7.98
8/10/2022 6:30:00 PM 28.16 82.688 0.211 7.98 1.93 7.91
8/10/2022 6:45:00 PM 27.66 81.788 0.211 7.93 1.87 7.85
8/10/2022 7:00:00 PM 27.33 81.194 0.212 7.87 1.79 7.79
8/10/2022 7:15:00 PM 27.01 80.618 0.211 7.84 1.98 7.75
8/10/2022 7:30:00 PM 26.74 80.132 0.212 7.8 1.89 7.69
8/10/2022 7:45:00 PM 26.47 79.646 0.211 7.75 2 7.57
8/10/2022 8:00:00 PM 26.24 79.232 0.212 7.69 2 7.4
8/10/2022 8:15:00 PM 26.05 78.89 0.212 7.65 1.91 7.23
8/10/2022 8:30:00 PM 25.87 78.566 0.212 7.6 1.91 7.11
8/10/2022 8:45:00 PM 25.7 78.26 0.213 7.56 2.23 6.97
8/10/2022 9:00:00 PM 25.54 77.972 0.213 7.53 2.11 6.89
8/10/2022 9:15:00 PM 25.38 77.684 0.213 7.51 2.33 6.83
8/10/2022 9:30:00 PM 25.24 77.432 0.214 7.48 2.32 6.77
8/10/2022 9:45:00 PM 25.11 77.198 0.214 7.46 2.74 6.75
8/10/2022 10:00:00 PM 24.97 76.946 0.214 7.45 2.24 6.74
8/10/2022 10:15:00 PM 24.86 76.748 0.214 7.43 2.25 6.74
8/10/2022 10:30:00 PM 24.73 76.514 0.214 7.43 2.39 6.73
8/10/2022 10:45:00 PM 24.64 76.352 0.214 7.41 2.31 6.78
8/10/2022 11:00:00 PM 24.54 76.172 0.214 7.4 1.98 6.79
8/10/2022 11:15:00 PM 24.42 75.956 0.214 7.39 2.3 6.79
8/10/2022 11:30:00 PM 24.3 75.74 0.214 7.39 2.08 6.8
8/10/2022 11:45:00 PM 24.17 75.506 0.214 7.38 2.17 6.84
8/11/2022 12:00:00 AM 24.06 75.308 0.214 7.37 2.11 6.87
8/11/2022 12:15:00 AM 23.91 75.038 0.214 7.37 2.23 6.89
8/11/2022 12:30:00 AM 23.81 74.858 0.214 7.37 2.45 6.98
8/11/2022 12:45:00 AM 23.7 74.66 0.214 7.37 2.2 6.97
8/11/2022 1:00:00 AM 23.56 74.408 0.214 7.36 2.13 6.93
8/11/2022 1:15:00 AM 23.44 74.192 0.214 7.36 2.14 6.94
8/11/2022 1:30:00 AM 23.32 73.976 0.214 7.35 2.03 7.07
8/11/2022 1:45:00 AM 23.22 73.796 0.214 7.35 2.11 7.07
8/11/2022 2:00:00 AM 23.11 73.598 0.214 7.35 2.22 7.07
8/11/2022 2:15:00 AM 22.98 73.364 0.214 7.35 2.27 7.1
8/11/2022 2:30:00 AM 22.87 73.166 0.214 7.35 2.22 7.11
8/11/2022 2:45:00 AM 22.78 73.004 0.214 7.34 2.22 7.13
8/11/2022 3:00:00 AM 22.67 72.806 0.214 7.34 2.38 7.22
8/11/2022 3:15:00 AM 22.55 72.59 0.214 7.34 2.05 7.17
8/11/2022 3:30:00 AM 22.46 72.42799 0.214 7.34 2.33 7.2
8/11/2022 3:45:00 AM 22.37 72.266 0.214 7.34 2.23 7.27
8/11/2022 4:00:00 AM 22.26 72.068 0.214 7.34 2.14 7.31
8/11/2022 4:15:00 AM 22.16 71.888 0.214 7.33 2.1 7.34
8/11/2022 4:30:00 AM 22.07 71.726 0.214 7.34 2.06 7.38
8/11/2022 4:45:00 AM 21.98 71.564 0.214 7.34 2.91 7.38
8/11/2022 5:00:00 AM 21.87 71.366 0.214 7.33 2.12 7.41
8/11/2022 5:15:00 AM 21.75 71.15 0.214 7.33 2.17 7.39
8/11/2022 5:30:00 AM 21.67 71.006 0.214 7.33 2.37 7.44
8/11/2022 5:45:00 AM 21.59 70.862 0.214 7.33 2.43 7.46
8/11/2022 6:00:00 AM 21.5 70.7 0.215 7.33 3.74 7.46
8/11/2022 6:15:00 AM 21.42 70.556 0.215 7.31 3.44 7.48
8/11/2022 6:30:00 AM 21.33 70.394 0.215 7.3 2.56 7.56
8/11/2022 6:45:00 AM 21.28 70.304 0.215 7.31 2.46 7.64
8/11/2022 7:00:00 AM 21.21 70.17799 0.215 7.31 2.54 7.72
8/11/2022 7:15:00 AM 21.15 70.07 0.215 7.31 2.72 7.76
8/11/2022 7:30:00 AM 21.1 69.98 0.215 7.33 2.37 7.88
8/11/2022 7:45:00 AM 21.04 69.872 0.215 7.34 2.26 7.99
8/11/2022 8:00:00 AM 20.98 69.764 0.215 7.35 2.27 8.02
8/11/2022 8:15:00 AM 20.94 69.692 0.214 7.36 2.13 8.13
8/11/2022 8:30:00 AM 20.95 69.71 0.214 7.39 2.15 8.21
8/11/2022 8:45:00 AM 20.99 69.782 0.214 7.4 2.11 8.3
8/11/2022 9:00:00 AM 21.04 69.872 0.214 7.42 2.15 8.35
8/11/2022 9:15:00 AM 21.12 70.016 0.214 7.43 2.2 8.39
8/11/2022 9:30:00 AM 21.28 70.304 0.213 7.46 2.27 8.52
8/11/2022 9:45:00 AM 21.43 70.574 0.213 7.47 1.99 8.54
8/11/2022 10:00:00 AM 21.59 70.862 0.213 7.51 2.12 8.62
8/11/2022 10:15:00 AM 21.75 71.15 0.213 7.52 2.19 8.6
8/11/2022 10:30:00 AM 21.94 71.492 0.213 7.52 2.02 8.7
8/11/2022 10:45:00 AM 22.14 71.852 0.212 7.56 2.05 8.76
8/11/2022 11:00:00 AM 22.35 72.23 0.212 7.57 2 8.76
8/11/2022 11:15:00 AM 22.56 72.608 0.212 7.62 2.11 8.91
8/11/2022 11:30:00 AM 22.79 73.022 0.211 7.65 2.01 9.01
8/11/2022 11:45:00 AM 23.1 73.58 0.211 7.67 2.23 9.1
8/11/2022 12:00:00 PM 23.38 74.084 0.211 7.72 2.03 9.13
8/11/2022 12:15:00 PM 23.64 74.552 0.21 7.74 2.09 9.08
8/11/2022 12:30:00 PM 23.97 75.146 0.21 7.76 1.87 9.08
8/11/2022 12:45:00 PM 24.3 75.74 0.21 7.78 2.12 9.04
8/11/2022 1:00:00 PM 24.77 76.586 0.21 7.83 2.24 9.08
8/11/2022 1:15:00 PM 25.2 77.36 0.21 7.86 2.16 9.05
8/11/2022 1:30:00 PM 25.62 78.116 0.209 7.87 2.63 8.98
8/11/2022 1:45:00 PM 26.18 79.124 0.209 7.94 2.87 8.97
8/11/2022 2:00:00 PM 26.39 79.502 0.209 7.97 3.11 8.91
8/11/2022 2:15:00 PM 26.77 80.186 0.209 7.98 2.4 8.8
8/11/2022 2:30:00 PM 27.09 80.762 0.209 7.99 2.29 8.76
8/11/2022 2:45:00 PM 27.37 81.266 0.209 8.04 2.02 8.79
8/11/2022 3:00:00 PM 27.63 81.734 0.209 8.06 1.82 8.67
8/11/2022 3:15:00 PM 27.95 82.31 0.209 8.08 4.04 8.64
8/11/2022 3:30:00 PM 28.16 82.688 0.209 8.1 2.37 8.57
8/11/2022 3:45:00 PM 28.53 83.354 0.209 8.13 1.75 8.41
8/11/2022 4:00:00 PM 28.62 83.51601 0.209 8.11 2.16 8.43
8/11/2022 4:15:00 PM 28.91 84.038 0.209 8.14 1.66 8.45
8/11/2022 4:30:00 PM 29.12 84.416 0.209 8.16 2.61 8.42
8/11/2022 4:45:00 PM 29.29 84.722 0.209 8.19 1.91 8.37
8/11/2022 5:00:00 PM 29.21 84.578 0.209 8.17 1.92 8.28
8/11/2022 5:15:00 PM 29.13 84.434 0.21 8.17 1.98 8.31
8/11/2022 5:30:00 PM 29.02 84.236 0.21 8.15 1.83 8.24
8/11/2022 5:45:00 PM 28.68 83.624 0.21 8.13 2.19 8.2
8/11/2022 6:00:00 PM 28.15 82.67 0.211 8.07 1.74 8.12
8/11/2022 6:15:00 PM 27.45 81.41 0.212 8 1.75 7.97
8/11/2022 6:30:00 PM 26.8 80.24 0.213 7.94 1.88 7.9
8/11/2022 6:45:00 PM 26.22 79.196 0.213 7.88 1.95 7.81
8/11/2022 7:00:00 PM 25.77 78.386 0.213 7.82 1.9 7.79
8/11/2022 7:15:00 PM 25.35 77.63 0.213 7.77 2.16 7.69
8/11/2022 7:30:00 PM 25 77 0.213 7.72 2.03 7.6
8/11/2022 7:45:00 PM 24.71 76.478 0.213 7.68 1.93 7.55
8/11/2022 8:00:00 PM 24.45 76.01 0.214 7.63 1.93 7.45
8/11/2022 8:15:00 PM 24.19 75.542 0.214 7.6 1.87 7.36
8/11/2022 8:30:00 PM 23.96 75.128 0.214 7.57 1.98 7.34
8/11/2022 8:45:00 PM 23.74 74.732 0.214 7.55 2.05 7.28
8/11/2022 9:00:00 PM 23.6 74.48 0.214 7.53 1.94 7.21
8/11/2022 9:15:00 PM 23.46 74.228 0.214 7.5 2.2 7.1
8/11/2022 9:30:00 PM 23.33 73.994 0.215 7.48 2.33 7.05
8/11/2022 9:45:00 PM 23.18 73.724 0.215 7.47 2.25 7.07
8/11/2022 10:00:00 PM 23.05 73.49 0.215 7.45 2.28 7.06
8/11/2022 10:15:00 PM 22.92 73.256 0.215 7.44 2.18 7.08
8/11/2022 10:30:00 PM 22.79 73.022 0.215 7.43 2.44 7.08
8/11/2022 10:45:00 PM 22.63 72.734 0.215 7.43 3.35 7.14
8/11/2022 11:00:00 PM 22.48 72.464 0.215 7.42 2.2 7.16
8/11/2022 11:15:00 PM 22.38 72.284 0.215 7.42 2.19 7.18
8/11/2022 11:30:00 PM 22.27 72.086 0.215 7.41 2.11 7.22
8/11/2022 11:45:00 PM 22.16 71.888 0.215 7.41 2.08 7.25
8/12/2022 12:00:00 AM 22.05 71.69 0.215 7.4 2.15 7.28
8/12/2022 12:15:00 AM 21.96 71.528 0.215 7.4 2.21 7.28
8/12/2022 12:30:00 AM 21.88 71.384 0.215 7.39 2.05 7.3
8/12/2022 12:45:00 AM 21.73 71.114 0.215 7.39 2.21 7.35
8/12/2022 1:00:00 AM 21.53 70.754 0.215 7.39 2.12 7.41
8/12/2022 1:15:00 AM 21.4 70.52 0.215 7.39 2.02 7.44
8/12/2022 1:30:00 AM 21.29 70.32201 0.215 7.37 2.29 7.43
8/12/2022 1:45:00 AM 21.22 70.196 0.215 7.36 2.09 7.45
8/12/2022 2:00:00 AM 21.18 70.124 0.215 7.35 2.16 7.44
8/12/2022 2:15:00 AM 21.05 69.89 0.215 7.35 2.48 7.5
8/12/2022 2:30:00 AM 20.98 69.764 0.215 7.34 1.98 7.5
8/12/2022 2:45:00 AM 20.89 69.602 0.215 7.33 2.03 7.51
8/12/2022 3:00:00 AM 20.8 69.44 0.215 7.32 2.07 7.54
8/12/2022 3:15:00 AM 20.68 69.224 0.215 7.31 1.97 7.58
8/12/2022 3:30:00 AM 20.61 69.098 0.215 7.3 2.15 7.64
8/12/2022 3:45:00 AM 20.5 68.9 0.215 7.29 2.24 7.65
8/12/2022 4:00:00 AM 20.4 68.72 0.215 7.29 2.22 7.67
8/12/2022 4:15:00 AM 20.29 68.522 0.215 7.28 2.1 7.68
8/12/2022 4:30:00 AM 20.19 68.342 0.215 7.28 2.2 7.75
8/12/2022 4:45:00 AM 20.1 68.18 0.215 7.28 2.46 7.77
8/12/2022 5:00:00 AM 20 68 0.215 7.27 2.01 7.81
8/12/2022 5:15:00 AM 19.91 67.838 0.215 7.28 2.02 7.8
8/12/2022 5:30:00 AM 19.82 67.676 0.215 7.27 2.1 7.83
8/12/2022 5:45:00 AM 19.72 67.496 0.215 7.27 2.14 7.87
8/12/2022 6:00:00 AM 19.64 67.352 0.215 7.27 2.31 7.89
8/12/2022 6:15:00 AM 19.54 67.172 0.215 7.27 2.37 7.93
8/12/2022 6:30:00 AM 19.44 66.992 0.215 7.27 2.2 7.96
8/12/2022 6:45:00 AM 19.37 66.866 0.215 7.27 2.48 8
8/12/2022 7:00:00 AM 19.29 66.722 0.215 7.28 2.34 8.09
8/12/2022 7:15:00 AM 19.2 66.56 0.215 7.3 2.1 8.17
8/12/2022 7:30:00 AM 19.13 66.434 0.215 7.31 2.12 8.24
8/12/2022 7:45:00 AM 19.06 66.308 0.215 7.33 2.14 8.37
8/12/2022 8:00:00 AM 19.02 66.236 0.215 7.35 2.04 8.42
8/12/2022 8:15:00 AM 19.01 66.218 0.215 7.38 2.68 8.49
8/12/2022 8:30:00 AM 19.05 66.29 0.215 7.42 1.92 8.58
8/12/2022 8:45:00 AM 19.13 66.434 0.215 7.45 1.89 8.67
8/12/2022 9:00:00 AM 19.18 66.524 0.214 7.47 1.99 8.71
8/12/2022 9:15:00 AM 19.27 66.686 0.214 7.49 1.98 8.73
8/12/2022 9:30:00 AM 19.43 66.974 0.214 7.51 1.91 8.85
8/12/2022 9:45:00 AM 19.6 67.28 0.214 7.52 1.88 8.94
8/12/2022 10:00:00 AM 19.73 67.514 0.214 7.53 2.02 8.93
8/12/2022 10:15:00 AM 19.9 67.82 0.213 7.54 1.82 8.99
8/12/2022 10:30:00 AM 20.04 68.07201 0.213 7.55 2.07 9.02
8/12/2022 10:45:00 AM 20.16 68.288 0.213 7.57 1.89 8.93
8/12/2022 11:00:00 AM 20.24 68.432 0.213 7.59 1.95 9.02
8/12/2022 11:15:00 AM 20.4 68.72 0.213 7.59 1.79 9.03
8/12/2022 11:30:00 AM 20.51 68.918 0.213 7.62 1.72 9.08
8/12/2022 11:45:00 AM 20.77 69.386 0.213 7.63 1.89 9.12
8/12/2022 12:00:00 PM 20.99 69.782 0.213 7.66 1.91 9.18
8/12/2022 12:15:00 PM 21.27 70.286 0.213 7.68 1.91 9.19
8/12/2022 12:30:00 PM 21.46 70.628 0.212 7.68 1.83 9.19
8/12/2022 12:45:00 PM 21.81 71.258 0.212 7.71 1.77 9.24
8/12/2022 1:00:00 PM 22.23 72.014 0.212 7.74 1.77 9.26
8/12/2022 1:15:00 PM 22.67 72.806 0.212 7.76 1.8 9.2
8/12/2022 1:30:00 PM 23.23 73.814 0.211 7.79 1.78 9.19
8/12/2022 1:45:00 PM 23.84 74.912 0.211 7.84 1.74 9.15
8/12/2022 2:00:00 PM 24.45 76.01 0.211 7.86 2.1 9.18
8/12/2022 2:15:00 PM 25.09 77.162 0.211 7.89 1.89 9.1
8/12/2022 2:30:00 PM 25.69 78.242 0.211 7.92 1.91 9.01
8/12/2022 2:45:00 PM 26.28 79.304 0.211 7.94 1.86 8.96
8/12/2022 3:00:00 PM 26.87 80.366 0.211 7.98 1.83 8.86
8/12/2022 3:15:00 PM 27.25 81.05 0.211 7.98 1.71 8.81
8/12/2022 3:30:00 PM 27.63 81.734 0.211 8.03 1.74 8.8
8/12/2022 3:45:00 PM 27.92 82.256 0.211 8.02 1.75 8.71
8/12/2022 4:00:00 PM 28.16 82.688 0.211 8.05 1.74 8.66
8/12/2022 4:15:00 PM 28.25 82.85 0.211 8.06 1.79 8.64
8/12/2022 4:30:00 PM 28.33 82.994 0.211 8.07 1.8 8.6
8/12/2022 4:45:00 PM 28.28 82.904 0.211 8.05 5.72 8.48
8/12/2022 5:00:00 PM 28.28 82.904 0.211 8.02 5.01 8.47
8/12/2022 5:15:00 PM 28.14 82.652 0.211 8 6.88 8.47
8/12/2022 5:30:00 PM 28 82.4 0.212 8.03 2.67 8.49
8/12/2022 5:45:00 PM 27.61 81.698 0.212 8.03 2.2 8.41
8/12/2022 6:00:00 PM 27.14 80.852 0.212 8.01 1.95 8.37
8/12/2022 6:15:00 PM 26.63 79.934 0.213 7.99 3.27 8.31
8/12/2022 6:30:00 PM 25.97 78.746 0.213 7.95 2.48 8.23
8/12/2022 6:45:00 PM 25.3 77.54 0.214 7.85 2.35 8.15
8/12/2022 7:00:00 PM 24.74 76.532 0.215 7.83 2.31 8.04
8/12/2022 7:15:00 PM 24.23 75.614 0.215 7.76 4.05 7.88
8/12/2022 7:30:00 PM 23.79 74.82201 0.216 7.71 2.44 7.77
8/12/2022 7:45:00 PM 23.38 74.084 0.216 7.67 4.52 7.72
8/12/2022 8:00:00 PM 23.05 73.49 0.216 7.63 2.2 7.67
8/12/2022 8:15:00 PM 22.74 72.932 0.216 7.62 1.85 7.65
8/12/2022 8:30:00 PM 22.47 72.446 0.216 7.58 2.16 7.59
8/12/2022 8:45:00 PM 22.19 71.942 0.217 7.54 44.92 7.49
8/12/2022 9:00:00 PM 21.96 71.528 0.217 7.53 5.55 7.52
8/12/2022 9:15:00 PM 21.7 71.06 0.217 7.52 2.01 7.52
8/12/2022 9:30:00 PM 21.5 70.7 0.217 7.51 2.28 7.5
8/12/2022 9:45:00 PM 21.3 70.34 0.217 7.49 2.02 7.5
8/12/2022 10:00:00 PM 21.14 70.052 0.217 7.48 1.92 7.48
8/12/2022 10:15:00 PM 20.96 69.728 0.217 7.47 2.06 7.5
8/12/2022 10:30:00 PM 20.81 69.458 0.217 7.46 3.27 7.52
8/12/2022 10:45:00 PM 20.64 69.152 0.217 7.45 1.87 7.5
8/12/2022 11:00:00 PM 20.5 68.9 0.217 7.45 2.09 7.56
8/12/2022 11:15:00 PM 20.36 68.648 0.217 7.44 2.34 7.59
8/12/2022 11:30:00 PM 20.22 68.396 0.217 7.43 1.88 7.62
8/12/2022 11:45:00 PM 20.06 68.108 0.217 7.41 2.08 7.67
8/13/2022 12:00:00 AM 19.95 67.91 0.217 7.39 1.96 7.66
8/13/2022 12:15:00 AM 19.79 67.622 0.217 7.38 1.9 7.75
8/13/2022 12:30:00 AM 19.65 67.37 0.217 7.36 2.24 7.79
8/13/2022 12:45:00 AM 19.53 67.154 0.217 7.34 1.97 7.81
8/13/2022 1:00:00 AM 19.42 66.956 0.217 7.34 1.91 7.84
8/13/2022 1:15:00 AM 19.28 66.704 0.217 7.34 1.96 7.86
8/13/2022 1:30:00 AM 19.15 66.47 0.216 7.34 2.05 7.9
8/13/2022 1:45:00 AM 19.03 66.254 0.216 7.33 1.85 7.94
8/13/2022 2:00:00 AM 18.9 66.02 0.217 7.33 1.94 7.98
8/13/2022 2:15:00 AM 18.78 65.804 0.216 7.33 2.08 7.98
8/13/2022 2:30:00 AM 18.65 65.57 0.216 7.34 2.46 7.99
8/13/2022 2:45:00 AM 18.55 65.39 0.216 7.33 2.02 8.02
8/13/2022 3:00:00 AM 18.41 65.138 0.216 7.32 1.86 8.08
8/13/2022 3:15:00 AM 18.31 64.958 0.216 7.33 1.95 8.13
8/13/2022 3:30:00 AM 18.19 64.742 0.216 7.33 1.97 8.16
8/13/2022 3:45:00 AM 18.08 64.544 0.216 7.33 1.91 8.21
8/13/2022 4:00:00 AM 17.96 64.328 0.216 7.34 1.92 8.2
8/13/2022 4:15:00 AM 17.85 64.13 0.216 7.33 2.01 8.23
8/13/2022 4:30:00 AM 17.75 63.95 0.216 7.32 1.91 8.26
8/13/2022 4:45:00 AM 17.64 63.752 0.216 7.32 1.98 8.29
8/13/2022 5:00:00 AM 17.52 63.536 0.216 7.33 2.06 8.3
8/13/2022 5:15:00 AM 17.43 63.374 0.216 7.32 1.91 8.34
8/13/2022 5:30:00 AM 17.34 63.212 0.216 7.32 1.94 8.38
8/13/2022 5:45:00 AM 17.23 63.014 0.216 7.33 1.85 8.41
8/13/2022 6:00:00 AM 17.14 62.852 0.216 7.33 1.92 8.45
8/13/2022 6:15:00 AM 17.06 62.708 0.215 7.33 1.91 8.46
8/13/2022 6:30:00 AM 16.93 62.474 0.215 7.33 1.98 8.53
8/13/2022 6:45:00 AM 16.8 62.24 0.215 7.33 1.89 8.6
8/13/2022 7:00:00 AM 16.73 62.114 0.215 7.33 3.37 8.67
8/13/2022 7:15:00 AM 16.68 62.024 0.215 7.35 2.79 8.71
8/13/2022 7:30:00 AM 16.61 61.898 0.215 7.36 1.98 8.8
8/13/2022 7:45:00 AM 16.53 61.754 0.215 7.37 1.87 8.9
8/13/2022 8:00:00 AM 16.47 61.646 0.214 7.39 1.74 8.98
8/13/2022 8:15:00 AM 16.42 61.556 0.214 7.41 1.74 9.12
8/13/2022 8:30:00 AM 16.46 61.628 0.214 7.43 1.69 9.17
8/13/2022 8:45:00 AM 16.51 61.718 0.213 7.46 2.08 9.26
8/13/2022 9:00:00 AM 16.57 61.826 0.213 7.48 1.57 9.34
8/13/2022 9:15:00 AM 16.66 61.988 0.213 7.49 5.23 9.39
8/13/2022 9:30:00 AM 16.8 62.24 0.213 7.5 1.6 9.46
8/13/2022 9:45:00 AM 16.99 62.582 0.212 7.52 1.85 9.5
8/13/2022 10:00:00 AM 17.19 62.942 0.12 7.53 3.26 9.54
8/13/2022 10:15:00 AM 17.43 63.374 0.212 7.54 1.64 9.5
8/13/2022 10:30:00 AM 17.67 63.806 0.212 7.55 1.61 9.49
8/13/2022 10:45:00 AM 17.91 64.238 0.211 7.56 1.82 9.54
8/13/2022 11:00:00 AM 18.19 64.742 0.211 7.57 1.65 9.55
8/13/2022 11:15:00 AM 18.52 65.336 0.211 7.6 1.46 9.55
8/13/2022 11:30:00 AM 18.89 66.002 0.211 7.6 1.44 9.55
8/13/2022 11:45:00 AM 19.34 66.812 0.211 7.63 1.58 9.57
8/13/2022 12:00:00 PM 19.69 67.442 0.211 7.64 1.42 9.56
8/13/2022 12:15:00 PM 20.05 68.09 0.211 7.66 1.43 9.56
8/13/2022 12:30:00 PM 20.39 68.702 0.211 7.66 1.37 9.45
8/13/2022 12:45:00 PM 20.79 69.422 0.211 7.68 1.49 9.48
8/13/2022 1:00:00 PM 21.24 70.232 0.211 7.69 1.44 9.42
8/13/2022 1:15:00 PM 21.71 71.078 0.211 7.73 1.84 9.37
8/13/2022 1:30:00 PM 22.21 71.978 0.211 7.73 1.77 9.31
8/13/2022 1:45:00 PM 22.81 73.058 0.21 7.75 2.23 9.36
8/13/2022 2:00:00 PM 23.53 74.354 0.21 7.76 2.03 9.23
8/13/2022 2:15:00 PM 24.27 75.686 0.21 7.79 1.72 9.16
8/13/2022 2:30:00 PM 24.99 76.982 0.21 7.85 1.46 9.05
8/13/2022 2:45:00 PM 25.63 78.134 0.21 7.8 1.5 8.97
8/13/2022 3:00:00 PM 26.21 79.17799 0.21 7.84 1.76 8.9
8/13/2022 3:15:00 PM 26.78 80.204 0.21 7.86 1.41 8.84
8/13/2022 3:30:00 PM 27.22 80.996 0.21 7.83 1.36 8.74
8/13/2022 3:45:00 PM 27.55 81.59 0.21 7.84 1.51 8.5
8/13/2022 4:00:00 PM 27.87 82.166 0.211 7.9 1.69 8.57
8/13/2022 4:15:00 PM 28.02 82.436 0.211 7.87 1.32 8.48
8/13/2022 4:30:00 PM 28.24 82.832 0.211 7.9 1.91 8.39
8/13/2022 4:45:00 PM 28.28 82.904 0.211 7.9 1.42 8.38
8/13/2022 5:00:00 PM 28.3 82.94 0.211 7.91 1.51 8.21
8/13/2022 5:15:00 PM 28.27 82.886 0.212 7.91 1.58 8.33
8/13/2022 5:30:00 PM 28.12 82.616 0.212 7.91 1.5 8.31
8/13/2022 5:45:00 PM 27.87 82.166 0.212 7.91 1.54 8.2
8/13/2022 6:00:00 PM 27.52 81.536 0.213 7.88 1.56 8.12
8/13/2022 6:15:00 PM 26.97 80.546 0.213 7.84 1.59 8.02
8/13/2022 6:30:00 PM 26.4 79.52 0.214 7.79 2.1 7.85
8/13/2022 6:45:00 PM 25.84 78.512 0.215 7.76 1.52 7.8
8/13/2022 7:00:00 PM 25.29 77.522 0.216 7.72 1.6 7.81
8/13/2022 7:15:00 PM 24.79 76.622 0.216 7.69 1.8 7.76
8/13/2022 7:30:00 PM 24.3 75.74 0.217 7.67 1.69 7.68
8/13/2022 7:45:00 PM 23.89 75.002 0.217 7.64 1.68 7.68
8/13/2022 8:00:00 PM 23.52 74.336 0.217 7.62 1.74 7.65
8/13/2022 8:15:00 PM 23.16 73.688 0.217 7.6 2.17 7.61
8/13/2022 8:30:00 PM 22.82 73.076 0.218 7.57 2.18 7.54
8/13/2022 8:45:00 PM 22.53 72.554 0.218 7.55 2.14 7.49
8/13/2022 9:00:00 PM 22.25 72.05 0.218 7.53 1.91 7.46
8/13/2022 9:15:00 PM 21.97 71.546 0.218 7.51 1.84 7.42
8/13/2022 9:30:00 PM 21.72 71.096 0.218 7.48 1.83 7.4
8/13/2022 9:45:00 PM 21.48 70.664 0.219 7.48 2.19 7.41
8/13/2022 10:00:00 PM 21.3 70.34 0.219 7.44 1.7 7.41
8/13/2022 10:15:00 PM 21.09 69.962 0.219 7.45 1.91 7.43
8/13/2022 10:30:00 PM 20.91 69.638 0.219 7.45 1.99 7.43
8/13/2022 10:45:00 PM 20.75 69.35 0.218 7.44 2 7.48
8/13/2022 11:00:00 PM 20.61 69.098 0.218 7.44 2 7.5
8/13/2022 11:15:00 PM 20.48 68.864 0.218 7.44 1.84 7.49
8/13/2022 11:30:00 PM 20.38 68.684 0.218 7.44 1.82 7.51
8/13/2022 11:45:00 PM 20.27 68.486 0.218 7.43 1.81 7.52
8/14/2022 12:00:00 AM 20.18 68.324 0.218 7.42 1.64 7.53
8/14/2022 12:15:00 AM 20.07 68.126 0.218 7.42 1.85 7.59
8/14/2022 12:30:00 AM 19.97 67.946 0.218 7.42 1.78 7.63
8/14/2022 12:45:00 AM 19.87 67.766 0.218 7.41 1.74 7.6
8/14/2022 1:00:00 AM 19.78 67.604 0.217 7.41 1.95 7.64
8/14/2022 1:15:00 AM 19.69 67.442 0.217 7.4 1.76 7.68
8/14/2022 1:30:00 AM 19.59 67.262 0.217 7.4 1.88 7.69
8/14/2022 1:45:00 AM 19.47 67.046 0.217 7.4 1.7 7.76
8/14/2022 2:00:00 AM 19.37 66.866 0.217 7.4 1.8 7.77
8/14/2022 2:15:00 AM 19.28 66.704 0.217 7.39 1.72 7.78
8/14/2022 2:30:00 AM 19.19 66.542 0.217 7.4 1.73 7.82
8/14/2022 2:45:00 AM 19.1 66.38 0.217 7.39 1.68 7.86
8/14/2022 3:00:00 AM 18.99 66.182 0.217 7.39 1.63 7.85
8/14/2022 3:15:00 AM 18.91 66.038 0.217 7.39 1.79 7.87
8/14/2022 3:30:00 AM 18.81 65.858 0.216 7.39 2.02 7.89
8/14/2022 3:45:00 AM 18.71 65.67799 0.216 7.38 1.87 7.92
8/14/2022 4:00:00 AM 18.6 65.48 0.216 7.38 1.74 7.97
8/14/2022 4:15:00 AM 18.5 65.3 0.216 7.38 1.9 8.02
8/14/2022 4:30:00 AM 18.39 65.102 0.216 7.39 1.76 8.02
8/14/2022 4:45:00 AM 18.29 64.922 0.216 7.37 1.81 8.05
8/14/2022 5:00:00 AM 18.18 64.724 0.216 7.38 1.76 8.01
8/14/2022 5:15:00 AM 18.06 64.508 0.216 7.38 1.63 8.09
8/14/2022 5:30:00 AM 17.96 64.328 0.216 7.38 1.76 8.13
8/14/2022 5:45:00 AM 17.87 64.166 0.216 7.38 1.78 8.15
8/14/2022 6:00:00 AM 17.76 63.968 0.216 7.38 1.74 8.18
8/14/2022 6:15:00 AM 17.66 63.788 0.216 7.38 1.74 8.24
8/14/2022 6:30:00 AM 17.57 63.626 0.216 7.38 1.86 8.28
8/14/2022 6:45:00 AM 17.47 63.446 0.216 7.38 1.73 8.37
8/14/2022 7:00:00 AM 17.41 63.338 0.215 7.38 1.84 8.41
8/14/2022 7:15:00 AM 17.35 63.23 0.215 7.4 1.68 8.56
8/14/2022 7:30:00 AM 17.31 63.158 0.215 7.39 1.64 8.68
8/14/2022 7:45:00 AM 17.27 63.086 0.214 7.41 1.65 8.77
8/14/2022 8:00:00 AM 17.25 63.05 0.214 7.44 1.63 8.98
8/14/2022 8:15:00 AM 17.3 63.14 0.213 7.45 1.63 9.23
8/14/2022 8:30:00 AM 17.34 63.212 0.212 7.47 1.53 9.4
8/14/2022 8:45:00 AM 17.31 63.158 0.212 7.5 2.5 9.54
8/14/2022 9:00:00 AM 17.35 63.23 0.211 7.51 1.5 9.58
8/14/2022 9:15:00 AM 17.41 63.338 0.211 7.52 1.5 9.65
8/14/2022 9:30:00 AM 17.53 63.554 0.21 7.54 1.5 9.65
8/14/2022 9:45:00 AM 17.66 63.788 0.21 7.54 1.53 9.74
8/14/2022 10:00:00 AM 17.89 64.202 0.209 7.56 1.86 9.72
8/14/2022 10:15:00 AM 18.16 64.688 0.209 7.61 1.52 9.92
8/14/2022 10:30:00 AM 18.51 65.318 0.208 7.65 5.71 10.01
8/14/2022 10:45:00 AM 18.83 65.894 0.208 7.67 1.39 10.09
8/14/2022 11:00:00 AM 19.09 66.362 0.207 7.69 1.67 10.04
8/14/2022 11:15:00 AM 19.36 66.848 0.207 7.71 1.59 9.97
8/14/2022 11:30:00 AM 19.57 67.226 0.207 7.72 1.37 9.9
8/14/2022 11:45:00 AM 19.84 67.712 0.207 7.74 1.41 9.85
8/14/2022 12:00:00 PM 20.2 68.36 0.207 7.77 1.41 9.82
8/14/2022 12:15:00 PM 20.57 69.026 0.207 7.82 1.51 9.86
8/14/2022 12:30:00 PM 20.99 69.782 0.207 7.84 1.38 9.72
8/14/2022 12:45:00 PM 21.39 70.502 0.207 7.84 1.57 9.75
8/14/2022 1:00:00 PM 21.73 71.114 0.206 7.88 1.45 9.74
8/14/2022 1:15:00 PM 22.27 72.086 0.207 7.93 1.25 9.69
8/14/2022 1:30:00 PM 22.76 72.968 0.207 7.95 1.61 9.59
8/14/2022 1:45:00 PM 23.08 73.544 0.206 7.98 1.38 9.53
8/14/2022 2:00:00 PM 23.77 74.786 0.206 8.01 1.42 9.36
8/14/2022 2:15:00 PM 24.19 75.542 0.206 7.98 1.47 9.34
8/14/2022 2:30:00 PM 24.45 76.01 0.206 8.02 1.38 9.32
8/14/2022 2:45:00 PM 24.63 76.334 0.206 8.02 1.42 9.16
8/14/2022 3:00:00 PM 24.72 76.496 0.206 8.01 1.42 9
8/14/2022 3:15:00 PM 24.76 76.568 0.206 7.97 1.45 9
8/14/2022 3:30:00 PM 24.78 76.604 0.206 8 1.44 9.02
8/14/2022 3:45:00 PM 24.77 76.586 0.206 8.03 1.67 9.08
8/14/2022 4:00:00 PM 24.71 76.478 0.206 8.06 1.37 9.08
8/14/2022 4:15:00 PM 24.65 76.37 0.206 8.09 1.87 9
8/14/2022 4:30:00 PM 24.58 76.244 0.206 8.13 1.49 9.05
8/14/2022 4:45:00 PM 24.47 76.046 0.206 8.1 1.53 8.88
8/14/2022 5:00:00 PM 24.33 75.794 0.206 8.05 1.69 8.74
8/14/2022 5:15:00 PM 24.21 75.578 0.207 7.96 1.45 8.59
8/14/2022 5:30:00 PM 24.07 75.326 0.207 7.94 1.59 8.4
8/14/2022 5:45:00 PM 23.93 75.074 0.208 7.86 1.7 8.32
8/14/2022 6:00:00 PM 23.8 74.84 0.208 7.79 1.54 8.18
8/14/2022 6:15:00 PM 23.66 74.588 0.209 7.76 1.59 8.14
8/14/2022 6:30:00 PM 23.53 74.354 0.209 7.76 1.49 8.11
8/14/2022 6:45:00 PM 23.42 74.156 0.21 7.73 1.79 8.06
8/14/2022 7:00:00 PM 23.29 73.922 0.21 7.68 2.12 8.01
8/14/2022 7:15:00 PM 23.18 73.724 0.211 7.67 1.6 8.01
8/14/2022 7:30:00 PM 23.05 73.49 0.211 7.67 1.62 7.89
8/14/2022 7:45:00 PM 22.91 73.238 0.212 7.59 1.66 7.76
8/14/2022 8:00:00 PM 22.75 72.95 0.213 7.55 1.73 7.7
8/14/2022 8:15:00 PM 22.58 72.644 0.213 7.58 1.72 7.58
8/14/2022 8:30:00 PM 22.46 72.42799 0.214 7.56 1.54 7.48
8/14/2022 8:45:00 PM 22.36 72.248 0.215 7.54 1.62 7.35
8/14/2022 9:00:00 PM 22.23 72.014 0.216 7.52 1.57 7.28
8/14/2022 9:15:00 PM 22.12 71.816 0.216 7.51 1.78 7.24
8/14/2022 9:30:00 PM 22 71.6 0.217 7.49 1.89 7.19
8/14/2022 9:45:00 PM 21.88 71.384 0.217 7.49 1.73 7.17
8/14/2022 10:00:00 PM 21.78 71.204 0.218 7.47 1.9 7.18
8/14/2022 10:15:00 PM 21.69 71.042 0.218 7.46 1.69 7.18
8/14/2022 10:30:00 PM 21.61 70.898 0.218 7.45 1.69 7.2
8/14/2022 10:45:00 PM 21.53 70.754 0.218 7.45 2.12 7.17
8/14/2022 11:00:00 PM 21.45 70.61 0.218 7.45 1.73 7.18
8/14/2022 11:15:00 PM 21.38 70.484 0.218 7.43 1.99 7.22
8/14/2022 11:30:00 PM 21.29 70.32201 0.218 7.43 1.63 7.24
8/14/2022 11:45:00 PM 21.23 70.214 0.218 7.43 1.68 7.23
8/15/2022 12:00:00 AM 21.16 70.088 0.218 7.42 1.74 7.27
8/15/2022 12:15:00 AM 21.08 69.944 0.218 7.42 1.64 7.28
8/15/2022 12:30:00 AM 21.02 69.836 0.218 7.41 1.7 7.3
8/15/2022 12:45:00 AM 20.96 69.728 0.218 7.41 1.64 7.34
8/15/2022 1:00:00 AM 20.9 69.62 0.218 7.41 1.71 7.36
8/15/2022 1:15:00 AM 20.84 69.512 0.218 7.4 1.63 7.41
8/15/2022 1:30:00 AM 20.78 69.404 0.218 7.39 1.87 7.4
8/15/2022 1:45:00 AM 20.73 69.314 0.217 7.4 1.75 7.41
8/15/2022 2:00:00 AM 20.67 69.206 0.217 7.39 1.86 7.45
8/15/2022 2:15:00 AM 20.61 69.098 0.217 7.39 1.87 7.46
8/15/2022 2:30:00 AM 20.56 69.008 0.217 7.39 1.83 7.45
8/15/2022 2:45:00 AM 20.51 68.918 0.217 7.38 1.68 7.54
8/15/2022 3:00:00 AM 20.46 68.828 0.217 7.38 1.98 7.5
8/15/2022 3:15:00 AM 20.41 68.738 0.217 7.38 1.66 7.51
8/15/2022 3:30:00 AM 20.35 68.63 0.217 7.38 1.89 7.53
8/15/2022 3:45:00 AM 20.29 68.522 0.216 7.37 1.89 7.58
8/15/2022 4:00:00 AM 20.24 68.432 0.216 7.37 1.65 7.55
8/15/2022 4:15:00 AM 20.19 68.342 0.216 7.37 1.81 7.59
8/15/2022 4:30:00 AM 20.14 68.252 0.216 7.37 1.81 7.58
8/15/2022 4:45:00 AM 20.09 68.162 0.216 7.36 1.76 7.58
8/15/2022 5:00:00 AM 20.04 68.07201 0.216 7.36 2.42 7.55
8/15/2022 5:15:00 AM 20 68 0.216 7.36 2.2 7.56
8/15/2022 5:30:00 AM 19.95 67.91 0.216 7.36 3.14 7.62
8/15/2022 5:45:00 AM 19.92 67.856 0.216 7.35 1.91 7.64
8/15/2022 6:00:00 AM 19.88 67.784 0.216 7.36 2.19 7.66
8/15/2022 6:15:00 AM 19.84 67.712 0.216 7.34 1.96 7.65
8/15/2022 6:30:00 AM 19.78 67.604 0.215 7.35 1.81 7.69
8/15/2022 6:45:00 AM 19.74 67.532 0.215 7.35 1.77 7.75
8/15/2022 7:00:00 AM 19.69 67.442 0.215 7.36 2 7.8
8/15/2022 7:15:00 AM 19.67 67.406 0.215 7.36 1.65 7.84
8/15/2022 7:30:00 AM 19.68 67.424 0.215 7.36 1.75 8.05
8/15/2022 7:45:00 AM 19.69 67.442 0.214 7.38 1.65 8.19
8/15/2022 8:00:00 AM 19.72 67.496 0.213 7.39 1.85 8.4
8/15/2022 8:15:00 AM 19.76 67.568 0.213 7.41 1.79 8.59
8/15/2022 8:30:00 AM 19.82 67.676 0.212 7.43 1.8 8.71
8/15/2022 8:45:00 AM 19.92 67.856 0.211 7.46 1.54 8.93
8/15/2022 9:00:00 AM 20.02 68.036 0.21 7.47 1.65 9.05
8/15/2022 9:15:00 AM 20.13 68.234 0.21 7.5 1.6 9.14
8/15/2022 9:30:00 AM 20.27 68.486 0.209 7.55 3.26 9.38
8/15/2022 9:45:00 AM 20.45 68.81 0.208 7.55 1.86 9.44
8/15/2022 10:00:00 AM 20.61 69.098 0.208 7.59 1.89 9.55
8/15/2022 10:15:00 AM 20.74 69.332 0.207 7.61 1.71 9.61
8/15/2022 10:30:00 AM 20.87 69.566 0.207 7.67 13.08 9.67
8/15/2022 10:45:00 AM 20.99 69.782 0.206 7.67 3.48 9.64
8/15/2022 11:00:00 AM 21.07 69.926 0.206 7.73 1.6 9.74
8/15/2022 11:15:00 AM 21.15 70.07 0.206 7.74 1.54 9.65
8/15/2022 11:30:00 AM 21.26 70.268 0.206 7.78 1.78 9.72
8/15/2022 11:45:00 AM 21.32 70.376 0.205 7.8 1.35 9.7
8/15/2022 12:00:00 PM 21.35 70.43 0.205 7.79 1.47 9.63
8/15/2022 12:15:00 PM 21.37 70.466 0.205 7.84 1.6 9.73
8/15/2022 12:30:00 PM 21.4 70.52 0.205 7.87 1.41 9.65
8/15/2022 12:45:00 PM 21.44 70.592 0.205 7.87 1.53 9.65
8/15/2022 1:00:00 PM 21.48 70.664 0.205 7.88 1.38 9.7
8/15/2022 1:15:00 PM 21.54 70.772 0.204 7.94 1.93 9.72
8/15/2022 1:30:00 PM 21.57 70.826 0.205 7.98 16.62 9.64
8/15/2022 1:45:00 PM 21.58 70.844 0.205 7.98 1.62 9.71
8/15/2022 2:00:00 PM 21.58 70.844 0.205 7.99 1.49 9.65
8/15/2022 2:15:00 PM 21.6 70.88 0.205 8.03 2.05 9.63
8/15/2022 2:30:00 PM 21.63 70.934 0.205 8.03 2.73 9.59
8/15/2022 2:45:00 PM 21.63 70.934 0.205 8.06 1.52 9.54
8/15/2022 3:00:00 PM 21.63 70.934 0.205 8.07 2 9.59
8/15/2022 3:15:00 PM 21.62 70.916 0.205 8.05 1.36 9.51
8/15/2022 3:30:00 PM 21.6 70.88 0.205 8.04 1.34 9.42
8/15/2022 3:45:00 PM 21.59 70.862 0.205 8.03 1.41 9.38
8/15/2022 4:00:00 PM 21.58 70.844 0.205 8.03 2.13 9.28
8/15/2022 4:15:00 PM 21.52 70.736 0.205 8.02 1.48 9.25
8/15/2022 4:30:00 PM 21.46 70.628 0.205 8 1.5 9.22
8/15/2022 4:45:00 PM 21.44 70.592 0.206 8 1.44 9.16
8/15/2022 5:00:00 PM 21.41 70.538 0.206 8.02 1.43 9.15
8/15/2022 5:15:00 PM 21.38 70.484 0.206 7.99 1.53 9.08
8/15/2022 5:30:00 PM 21.32 70.376 0.206 7.97 1.4 9.06
8/15/2022 5:45:00 PM 21.28 70.304 0.207 7.93 1.91 9.02
8/15/2022 6:00:00 PM 21.21 70.17799 0.207 7.91 1.38 8.9
8/15/2022 6:15:00 PM 21.15 70.07 0.207 7.91 1.39 8.89
8/15/2022 6:30:00 PM 21.11 69.998 0.208 7.89 1.42 8.87
8/15/2022 6:45:00 PM 21.07 69.926 0.208 7.86 2.32 8.76
8/15/2022 7:00:00 PM 21.02 69.836 0.209 7.83 1.75 8.64
8/15/2022 7:15:00 PM 20.95 69.71 0.209 7.81 1.4 8.63
8/15/2022 7:30:00 PM 20.89 69.602 0.21 7.79 1.28 8.58
8/15/2022 7:45:00 PM 20.83 69.494 0.21 7.75 1.31 8.43
8/15/2022 8:00:00 PM 20.77 69.386 0.211 7.7 1.44 8.25
8/15/2022 8:15:00 PM 20.71 69.278 0.211 7.68 1.7 8.16
8/15/2022 8:30:00 PM 20.64 69.152 0.212 7.64 2.61 8
8/15/2022 8:45:00 PM 20.55 68.99 0.213 7.62 1.61 7.91
8/15/2022 9:00:00 PM 20.47 68.846 0.214 7.6 1.69 7.8
8/15/2022 9:15:00 PM 20.41 68.738 0.214 7.57 1.64 7.73
8/15/2022 9:30:00 PM 20.32 68.576 0.215 7.55 1.55 7.68
8/15/2022 9:45:00 PM 20.26 68.468 0.216 7.54 1.96 7.63
8/15/2022 10:00:00 PM 20.18 68.324 0.216 7.52 1.62 7.64
8/15/2022 10:15:00 PM 20.1 68.18 0.217 7.51 1.7 7.64
8/15/2022 10:30:00 PM 20.01 68.018 0.217 7.51 2.05 7.63
8/15/2022 10:45:00 PM 19.94 67.892 0.217 7.5 1.89 7.61
8/15/2022 11:00:00 PM 19.87 67.766 0.217 7.49 1.67 7.64
8/15/2022 11:15:00 PM 19.79 67.622 0.217 7.48 1.69 7.63
8/15/2022 11:30:00 PM 19.73 67.514 0.217 7.48 1.78 7.66
8/15/2022 11:45:00 PM 19.66 67.388 0.218 7.47 1.64 7.7
8/16/2022 12:00:00 AM 19.6 67.28 0.218 7.47 1.57 7.68
8/16/2022 12:15:00 AM 19.55 67.19 0.218 7.46 2.15 7.72
8/16/2022 12:30:00 AM 19.51 67.118 0.217 7.45 1.65 7.72
8/16/2022 12:45:00 AM 19.46 67.028 0.217 7.45 1.6 7.74
8/16/2022 1:00:00 AM 19.41 66.938 0.217 7.45 1.66 7.76
8/16/2022 1:15:00 AM 19.35 66.83 0.217 7.44 1.54 7.78
8/16/2022 1:30:00 AM 19.32 66.776 0.217 7.44 1.68 7.83
8/16/2022 1:45:00 AM 19.28 66.704 0.217 7.43 1.58 7.82
8/16/2022 2:00:00 AM 19.25 66.65 0.217 7.43 1.62 7.82
8/16/2022 2:15:00 AM 19.21 66.578 0.217 7.43 1.82 7.81
8/16/2022 2:30:00 AM 19.18 66.524 0.217 7.43 1.62 7.87
8/16/2022 2:45:00 AM 19.14 66.452 0.217 7.42 1.7 7.81
8/16/2022 3:00:00 AM 19.11 66.398 0.217 7.42 1.54 7.85
8/16/2022 3:15:00 AM 19.09 66.362 0.217 7.41 1.57 7.82
8/16/2022 3:30:00 AM 19.06 66.308 0.216 7.41 1.57 7.87
8/16/2022 3:45:00 AM 19.03 66.254 0.216 7.4 1.73 7.88
8/16/2022 4:00:00 AM 19 66.2 0.216 7.41 1.65 7.88
8/16/2022 4:15:00 AM 18.98 66.164 0.216 7.4 1.63 7.84
8/16/2022 4:30:00 AM 18.94 66.092 0.216 7.39 1.77 7.85
8/16/2022 4:45:00 AM 18.89 66.002 0.216 7.39 1.66 7.88
8/16/2022 5:00:00 AM 18.87 65.966 0.215 7.39 1.63 7.91
8/16/2022 5:15:00 AM 18.84 65.912 0.215 7.38 1.72 7.88
8/16/2022 5:30:00 AM 18.81 65.858 0.215 7.38 1.81 7.87
8/16/2022 5:45:00 AM 18.77 65.786 0.215 7.37 1.69 7.87
8/16/2022 6:00:00 AM 18.74 65.732 0.215 7.36 1.76 7.84
8/16/2022 6:15:00 AM 18.71 65.67799 0.215 7.37 1.85 7.82
8/16/2022 6:30:00 AM 18.67 65.606 0.215 7.36 1.64 7.83
8/16/2022 6:45:00 AM 18.64 65.552 0.215 7.36 1.96 7.82
8/16/2022 7:00:00 AM 18.62 65.516 0.215 7.36 1.76 7.83
8/16/2022 7:15:00 AM 18.6 65.48 0.215 7.36 1.8 7.94
8/16/2022 7:30:00 AM 18.59 65.462 0.215 7.37 1.63 8
8/16/2022 7:45:00 AM 18.59 65.462 0.214 7.38 1.74 8.1
8/16/2022 8:00:00 AM 18.6 65.48 0.214 7.38 1.64 8.21
8/16/2022 8:15:00 AM 18.61 65.498 0.213 7.39 1.55 8.32
8/16/2022 8:30:00 AM 18.64 65.552 0.213 7.4 1.64 8.45
8/16/2022 8:45:00 AM 18.73 65.714 0.212 7.43 1.61 8.75
8/16/2022 9:00:00 AM 18.81 65.858 0.211 7.45 1.45 8.97
8/16/2022 9:15:00 AM 18.92 66.056 0.21 7.48 1.61 9.29
8/16/2022 9:30:00 AM 19.07 66.326 0.209 7.52 1.57 9.5
8/16/2022 9:45:00 AM 19.21 66.578 0.208 7.56 1.59 9.7
8/16/2022 10:00:00 AM 19.35 66.83 0.207 7.59 1.44 9.82
8/16/2022 10:15:00 AM 19.51 67.118 0.207 7.62 1.49 9.92
8/16/2022 10:30:00 AM 19.71 67.478 0.206 7.66 1.45 9.98
8/16/2022 10:45:00 AM 19.95 67.91 0.206 7.71 1.45 9.98
8/16/2022 11:00:00 AM 20.14 68.252 0.205 7.76 1.44 10.09
8/16/2022 11:15:00 AM 20.41 68.738 0.205 7.8 1.43 10.05
8/16/2022 11:30:00 AM 20.68 69.224 0.204 7.87 1.56 10.15
8/16/2022 11:45:00 AM 20.93 69.674 0.204 7.92 1.53 10.11
8/16/2022 12:00:00 PM 21.22 70.196 0.204 7.98 1.57 10.1
8/16/2022 12:15:00 PM 21.67 71.006 0.204 8.06 1.38 10.12
8/16/2022 12:30:00 PM 21.89 71.402 0.204 8.04 1.33 10
8/16/2022 12:45:00 PM 22.16 71.888 0.204 8.06 1.33 9.97
8/16/2022 1:00:00 PM 22.47 72.446 0.204 8.11 1.4 9.88
8/16/2022 1:15:00 PM 22.89 73.202 0.204 8.16 1.5 9.78
8/16/2022 1:30:00 PM 23.2 73.76 0.204 8.15 1.3 9.69
8/16/2022 1:45:00 PM 23.53 74.354 0.204 8.22 1.31 9.67
8/16/2022 2:00:00 PM 24.21 75.578 0.204 8.25 1.59 9.58
8/16/2022 2:15:00 PM 24.47 76.046 0.204 8.25 1.4 9.53
8/16/2022 2:30:00 PM 24.71 76.478 0.204 8.25 1.52 9.45
8/16/2022 2:45:00 PM 24.66 76.388 0.204 8.18 1.55 9.03
8/16/2022 3:00:00 PM 23.86 74.948 0.195 7.94 6.18 8.63
8/16/2022 3:15:00 PM 23.55 74.39 0.189 7.81 6.81 8.25
8/16/2022 3:30:00 PM 23.22 73.796 0.157 8.27 58.92 7.92
8/16/2022 3:45:00 PM 22.89 73.202 0.166 8.27 45.89 7.56
8/16/2022 4:00:00 PM 22.65 72.77 0.181 8.15 22.1 7.53
8/16/2022 4:15:00 PM 22.47 72.446 0.188 8.04 9.17 7.8
8/16/2022 4:30:00 PM 22.34 72.212 0.192 7.97 4.91 8.06
8/16/2022 4:45:00 PM 22.29 72.122 0.194 7.98 3.6 8.32
8/16/2022 5:00:00 PM 22.19 71.942 0.196 7.98 2.68 8.48
8/16/2022 5:15:00 PM 22.14 71.852 0.198 7.99 2.46 8.82
8/16/2022 5:30:00 PM 22.1 71.78 0.2 8.01 2.1 8.69
8/16/2022 5:45:00 PM 22.07 71.726 0.201 7.99 1.79 8.67
8/16/2022 6:00:00 PM 22.03 71.654 0.202 7.98 1.81 8.66
8/16/2022 6:15:00 PM 21.99 71.582 0.203 7.96 1.86 8.64
8/16/2022 6:30:00 PM 21.93 71.474 0.204 7.92 1.77 8.61
8/16/2022 6:45:00 PM 21.84 71.312 0.205 7.89 1.75 8.53
8/16/2022 7:00:00 PM 21.76 71.168 0.206 7.85 1.9 8.44
8/16/2022 7:15:00 PM 21.66 70.988 0.206 7.82 1.65 8.29
8/16/2022 7:30:00 PM 21.53 70.754 0.207 7.78 1.56 8.14
8/16/2022 7:45:00 PM 21.4 70.52 0.207 7.75 1.75 8.08
8/16/2022 8:00:00 PM 21.3 70.34 0.207 7.72 1.99 8.03
8/16/2022 8:15:00 PM 21.19 70.142 0.208 7.7 1.94 7.99
8/16/2022 8:30:00 PM 21.08 69.944 0.209 7.66 1.84 7.96
8/16/2022 8:45:00 PM 20.98 69.764 0.21 7.63 1.96 7.92
8/16/2022 9:00:00 PM 20.89 69.602 0.211 7.62 2.18 7.92
8/16/2022 9:15:00 PM 20.81 69.458 0.211 7.61 1.88 7.9
8/16/2022 9:30:00 PM 20.75 69.35 0.212 7.59 1.94 7.9
8/16/2022 9:45:00 PM 20.7 69.26 0.212 7.58 1.86 7.85
8/16/2022 10:00:00 PM 20.64 69.152 0.212 7.56 2.22 7.8
8/16/2022 10:15:00 PM 20.58 69.044 0.212 7.55 1.85 7.76
8/16/2022 10:30:00 PM 20.54 68.972 0.212 7.55 1.92 7.78
8/16/2022 10:45:00 PM 20.5 68.9 0.212 7.53 2.03 7.75
8/16/2022 11:00:00 PM 20.46 68.828 0.212 7.52 1.76 7.77
8/16/2022 11:15:00 PM 20.42 68.756 0.212 7.52 2.01 7.76
8/16/2022 11:30:00 PM 20.35 68.63 0.211 7.51 3.98 7.76
8/16/2022 11:45:00 PM 20.28 68.504 0.211 7.5 1.98 7.74
8/17/2022 12:00:00 AM 20.21 68.378 0.21 7.49 1.72 7.73
8/17/2022 12:15:00 AM 20.12 68.216 0.209 7.48 1.79 7.76
8/17/2022 12:30:00 AM 20.04 68.07201 0.208 7.45 2.23 7.7
8/17/2022 12:45:00 AM 19.93 67.874 0.207 7.46 1.69 7.75
8/17/2022 1:00:00 AM 19.81 67.658 0.206 7.45 7.65 7.74
8/17/2022 1:15:00 AM 19.73 67.514 0.205 7.45 1.89 7.74
8/17/2022 1:30:00 AM 19.64 67.352 0.204 7.45 1.72 7.84
8/17/2022 1:45:00 AM 19.57 67.226 0.203 7.45 1.81 7.84
8/17/2022 2:00:00 AM 19.49 67.082 0.201 7.45 1.7 7.88
8/17/2022 2:15:00 AM 19.43 66.974 0.201 7.44 1.8 7.85
8/17/2022 2:30:00 AM 19.37 66.866 0.2 7.44 2.02 7.93
8/17/2022 2:45:00 AM 19.31 66.758 0.2 7.44 1.75 7.93
8/17/2022 3:00:00 AM 19.25 66.65 0.2 7.43 1.75 7.94
8/17/2022 3:15:00 AM 19.18 66.524 0.199 7.43 1.86 7.96
8/17/2022 3:30:00 AM 19.12 66.416 0.199 7.43 1.81 7.98
8/17/2022 3:45:00 AM 19.07 66.326 0.199 7.42 1.78 7.97
8/17/2022 4:00:00 AM 18.99 66.182 0.2 7.42 1.85 7.94
8/17/2022 4:15:00 AM 18.95 66.11 0.2 7.42 1.88 7.95
8/17/2022 4:30:00 AM 18.91 66.038 0.2 7.42 2.04 8.01
8/17/2022 4:45:00 AM 18.84 65.912 0.2 7.42 2.01 8
8/17/2022 5:00:00 AM 18.79 65.82201 0.201 7.42 2.02 8.04
8/17/2022 5:15:00 AM 18.73 65.714 0.201 7.42 2.3 8.03
8/17/2022 5:30:00 AM 18.65 65.57 0.201 7.43 2.48 8.08
8/17/2022 5:45:00 AM 18.61 65.498 0.201 7.43 2.71 8.08
8/17/2022 6:00:00 AM 18.56 65.408 0.202 7.43 2.73 8.08
8/17/2022 6:15:00 AM 18.51 65.318 0.202 7.44 3.03 8.03
8/17/2022 6:30:00 AM 18.47 65.246 0.202 7.43 3.43 8.07
8/17/2022 6:45:00 AM 18.44 65.192 0.203 7.45 3.06 8.11
8/17/2022 7:00:00 AM 18.43 65.174 0.203 7.46 3.03 8.21
8/17/2022 7:15:00 AM 18.42 65.156 0.203 7.48 3.54 8.23
8/17/2022 7:30:00 AM 18.43 65.174 0.203 7.49 3.48 8.36
8/17/2022 7:45:00 AM 18.43 65.174 0.203 7.51 3.99 8.54
8/17/2022 8:00:00 AM 18.44 65.192 0.203 7.54 3.67 8.71
8/17/2022 8:15:00 AM 18.48 65.264 0.203 7.56 3.65 8.83
8/17/2022 8:30:00 AM 18.53 65.354 0.203 7.59 3.53 9.1
8/17/2022 8:45:00 AM 18.59 65.462 0.203 7.62 3.46 9.25
8/17/2022 9:00:00 AM 18.67 65.606 0.203 7.65 3.45 9.48
8/17/2022 9:15:00 AM 18.77 65.786 0.203 7.69 3.51 9.59
8/17/2022 9:30:00 AM 18.9 66.02 0.203 7.71 3.31 9.76
8/17/2022 9:45:00 AM 19.04 66.272 0.202 7.75 3.14 9.87
8/17/2022 10:00:00 AM 19.21 66.578 0.202 7.81 3.12 10.06
8/17/2022 10:15:00 AM 19.42 66.956 0.202 7.86 2.92 10.09
8/17/2022 10:30:00 AM 19.66 67.388 0.202 7.93 2.86 10.29
8/17/2022 10:45:00 AM 19.91 67.838 0.202 7.99 2.66 10.39
8/17/2022 11:00:00 AM 20.15 68.27 0.202 8.05 2.64 10.4
8/17/2022 11:15:00 AM 20.39 68.702 0.202 8.11 2.59 10.44
8/17/2022 11:30:00 AM 20.59 69.062 0.203 8.15 2.32 10.5
8/17/2022 11:45:00 AM 20.78 69.404 0.202 8.21 2.43 10.41
8/17/2022 12:00:00 PM 20.96 69.728 0.202 8.26 2.28 10.44
8/17/2022 12:15:00 PM 21.11 69.998 0.202 8.3 2.32 10.39
8/17/2022 12:30:00 PM 21.2 70.16 0.202 8.35 2.16 10.4
8/17/2022 12:45:00 PM 21.29 70.32201 0.202 8.38 2.06 10.24
8/17/2022 1:00:00 PM 21.34 70.412 0.202 8.4 1.94 10.26
8/17/2022 1:15:00 PM 21.37 70.466 0.202 8.41 2.02 10.2
8/17/2022 1:30:00 PM 21.41 70.538 0.202 8.43 1.96 10.06
8/17/2022 1:45:00 PM 21.46 70.628 0.202 8.45 1.84 10.09
8/17/2022 2:00:00 PM 21.52 70.736 0.202 8.46 1.87 10.13
8/17/2022 2:15:00 PM 21.62 70.916 0.202 8.52 1.9 10.21
8/17/2022 2:30:00 PM 21.91 71.438 0.202 8.57 1.96 10.19
8/17/2022 2:45:00 PM 22.32 72.176 0.202 8.59 1.87 10.1
8/17/2022 3:00:00 PM 22.94 73.292 0.203 8.6 1.81 10.12
8/17/2022 3:15:00 PM 23.61 74.498 0.203 8.6 1.96 10
8/17/2022 3:30:00 PM 24.42 75.956 0.203 8.59 1.85 9.83
8/17/2022 3:45:00 PM 25.17 77.306 0.203 8.6 1.86 9.7
8/17/2022 4:00:00 PM 25.69 78.242 0.203 8.59 1.75 9.61
8/17/2022 4:15:00 PM 25.78 78.404 0.204 8.57 1.59 9.35
8/17/2022 4:30:00 PM 25.7 78.26 0.204 8.52 1.61 9.05
8/17/2022 4:45:00 PM 25.51 77.918 0.205 8.46 1.53 8.78
8/17/2022 5:00:00 PM 25.18 77.324 0.205 8.41 1.61 8.74
8/17/2022 5:15:00 PM 24.77 76.586 0.205 8.32 1.9 8.64
8/17/2022 5:30:00 PM 24.33 75.794 0.206 8.34 1.74 8.78
8/17/2022 5:45:00 PM 23.9 75.02 0.206 8.34 2.2 8.8
8/17/2022 6:00:00 PM 23.5 74.3 0.206 8.29 2.52 8.73
8/17/2022 6:15:00 PM 23.16 73.688 0.207 8.26 1.66 8.63
8/17/2022 6:30:00 PM 22.83 73.094 0.207 8.22 1.81 8.7
8/17/2022 6:45:00 PM 22.56 72.608 0.207 8.18 1.57 8.68
8/17/2022 7:00:00 PM 22.36 72.248 0.208 8.12 1.68 8.57
8/17/2022 7:15:00 PM 22.19 71.942 0.208 8.09 1.67 8.6
8/17/2022 7:30:00 PM 22.04 71.672 0.208 8.04 1.63 8.51
8/17/2022 7:45:00 PM 21.86 71.348 0.209 7.98 1.89 8.37
8/17/2022 8:00:00 PM 21.66 70.988 0.209 7.92 1.55 8.24
8/17/2022 8:15:00 PM 21.48 70.664 0.21 7.87 1.53 8.12
8/17/2022 8:30:00 PM 21.32 70.376 0.211 7.83 1.67 7.98
8/17/2022 8:45:00 PM 21.12 70.016 0.212 7.78 1.75 7.89
8/17/2022 9:00:00 PM 20.95 69.71 0.213 7.74 1.78 7.77
8/17/2022 9:15:00 PM 20.78 69.404 0.213 7.71 1.75 7.72
8/17/2022 9:30:00 PM 20.63 69.134 0.214 7.68 1.8 7.71
8/17/2022 9:45:00 PM 20.49 68.882 0.214 7.66 1.76 7.68
8/17/2022 10:00:00 PM 20.34 68.612 0.214 7.64 1.95 7.67
8/17/2022 10:15:00 PM 20.21 68.378 0.215 7.63 1.93 7.63
8/17/2022 10:30:00 PM 20.09 68.162 0.215 7.61 1.95 7.68
8/17/2022 10:45:00 PM 19.95 67.91 0.215 7.6 2.02 7.68
8/17/2022 11:00:00 PM 19.83 67.694 0.215 7.59 1.76 7.73
8/17/2022 11:15:00 PM 19.7 67.46 0.215 7.57 2.13 7.71
8/17/2022 11:30:00 PM 19.59 67.262 0.215 7.57 1.74 7.74
8/17/2022 11:45:00 PM 19.48 67.064 0.215 7.56 1.77 7.75
8/18/2022 12:00:00 AM 19.38 66.884 0.215 7.55 2.18 7.8
8/18/2022 12:15:00 AM 19.26 66.668 0.215 7.55 2.13 7.81
8/18/2022 12:30:00 AM 19.17 66.506 0.215 7.53 1.89 7.81
8/18/2022 12:45:00 AM 19.07 66.326 0.214 7.53 1.65 7.86
8/18/2022 1:00:00 AM 18.98 66.164 0.214 7.53 2.06 7.89
8/18/2022 1:15:00 AM 18.91 66.038 0.214 7.52 1.93 7.83
8/18/2022 1:30:00 AM 18.84 65.912 0.214 7.51 1.73 7.89
8/18/2022 1:45:00 AM 18.78 65.804 0.214 7.51 1.7 7.92
8/18/2022 2:00:00 AM 18.71 65.67799 0.214 7.5 1.58 7.97
8/18/2022 2:15:00 AM 18.65 65.57 0.214 7.5 1.79 7.94
8/18/2022 2:30:00 AM 18.63 65.534 0.214 7.5 1.7 7.99
8/18/2022 2:45:00 AM 18.59 65.462 0.214 7.49 1.86 7.92
8/18/2022 3:00:00 AM 18.55 65.39 0.214 7.49 2.18 8.02
8/18/2022 3:15:00 AM 18.52 65.336 0.214 7.48 1.64 7.98
8/18/2022 3:30:00 AM 18.5 65.3 0.214 7.48 1.7 8.01
8/18/2022 3:45:00 AM 18.47 65.246 0.214 7.48 1.79 8.01
8/18/2022 4:00:00 AM 18.43 65.174 0.213 7.48 1.83 8.03
8/18/2022 4:15:00 AM 18.41 65.138 0.213 7.48 1.7 8.03
8/18/2022 4:30:00 AM 18.39 65.102 0.213 7.47 1.87 8.03
8/18/2022 4:45:00 AM 18.35 65.03 0.213 7.47 1.69 8.03
8/18/2022 5:00:00 AM 18.3 64.94 0.213 7.47 1.87 8.05
8/18/2022 5:15:00 AM 18.25 64.85 0.213 7.47 1.77 8.06
8/18/2022 5:30:00 AM 18.2 64.76 0.213 7.47 1.71 8.1
8/18/2022 5:45:00 AM 18.14 64.652 0.213 7.46 1.67 8.14
8/18/2022 6:00:00 AM 18.09 64.562 0.213 7.46 2.35 8.21
8/18/2022 6:15:00 AM 18.07 64.526 0.213 7.46 2.02 8.18
8/18/2022 6:30:00 AM 18.03 64.454 0.213 7.46 1.97 8.19
8/18/2022 6:45:00 AM 17.99 64.382 0.213 7.46 1.89 8.17
8/18/2022 7:00:00 AM 17.96 64.328 0.213 7.47 1.62 8.26
8/18/2022 7:15:00 AM 17.92 64.256 0.213 7.47 1.7 8.31
8/18/2022 7:30:00 AM 17.88 64.184 0.213 7.47 1.54 8.31
8/18/2022 7:45:00 AM 17.89 64.202 0.212 7.49 1.62 8.5
8/18/2022 8:00:00 AM 17.9 64.22 0.212 7.52 1.6 8.67
8/18/2022 8:15:00 AM 17.94 64.292 0.211 7.53 1.55 8.85
8/18/2022 8:30:00 AM 18.01 64.418 0.211 7.55 1.54 9.06
8/18/2022 8:45:00 AM 18.07 64.526 0.21 7.58 1.48 9.26
8/18/2022 9:00:00 AM 18.17 64.706 0.21 7.6 1.61 9.41
8/18/2022 9:15:00 AM 18.26 64.868 0.209 7.62 1.58 9.5
8/18/2022 9:30:00 AM 18.33 64.994 0.209 7.64 1.53 9.4
8/18/2022 9:45:00 AM 18.41 65.138 0.209 7.65 1.47 9.57
8/18/2022 10:00:00 AM 18.54 65.372 0.209 7.66 1.55 9.53
8/18/2022 10:15:00 AM 18.71 65.67799 0.208 7.68 1.36 9.4
8/18/2022 10:30:00 AM 18.84 65.912 0.209 7.68 1.48 9.43
8/18/2022 10:45:00 AM 19.03 66.254 0.209 7.68 1.44 9.35
8/18/2022 11:00:00 AM 19.26 66.668 0.209 7.69 1.47 9.42
8/18/2022 11:15:00 AM 19.54 67.172 0.209 7.72 1.51 9.44
8/18/2022 11:30:00 AM 19.85 67.73 0.209 7.73 1.54 9.43
8/18/2022 11:45:00 AM 20.21 68.378 0.209 7.76 1.39 9.41
8/18/2022 12:00:00 PM 20.59 69.062 0.209 7.79 1.47 9.48
8/18/2022 12:15:00 PM 20.94 69.692 0.209 7.81 1.45 9.51
8/18/2022 12:30:00 PM 21.34 70.412 0.209 7.83 1.44 9.51
8/18/2022 12:45:00 PM 21.74 71.132 0.209 7.9 1.29 9.53
8/18/2022 1:00:00 PM 22.11 71.798 0.209 7.93 1.34 9.49
8/18/2022 1:15:00 PM 22.57 72.626 0.209 7.96 1.37 9.44
8/18/2022 1:30:00 PM 23 73.4 0.208 7.99 1.37 9.36
8/18/2022 1:45:00 PM 23.64 74.552 0.208 8.03 1.41 9.32
8/18/2022 2:00:00 PM 24.15 75.47 0.208 8.08 1.31 9.29
8/18/2022 2:15:00 PM 24.84 76.712 0.208 8.12 1.48 9.28
8/18/2022 2:30:00 PM 25.17 77.306 0.208 8.12 1.35 9.1
8/18/2022 2:45:00 PM 25.81 78.458 0.208 8.17 1.28 9.09
8/18/2022 3:00:00 PM 26.1 78.98 0.209 8.17 1.39 9
8/18/2022 3:15:00 PM 25.31 77.558 0.197 8.05 2.92 8.61
8/18/2022 3:30:00 PM 25.13 77.234 0.191 7.94 4.22 8.36
8/18/2022 3:45:00 PM 25.05 77.09 0.167 8.2 40.34 7.97
8/18/2022 4:00:00 PM 24.77 76.586 0.176 8.26 27.06 7.68
8/18/2022 4:15:00 PM 24.46 76.028 0.188 8.13 12.6 7.8
8/18/2022 4:30:00 PM 24.44 75.992 0.193 8.09 5.57 8.23
8/18/2022 4:45:00 PM 24.47 76.046 0.197 8.07 3.44 8.45
8/18/2022 5:00:00 PM 24.67 76.406 0.201 8.13 2.05 8.72
8/18/2022 5:15:00 PM 24.96 76.92799 0.202 8.17 1.98 8.69
8/18/2022 5:30:00 PM 25.2 77.36 0.203 8.19 2 8.77
8/18/2022 5:45:00 PM 25.16 77.288 0.204 8.19 1.9 8.77
8/18/2022 6:00:00 PM 25.03 77.054 0.205 8.17 1.77 8.7
8/18/2022 6:15:00 PM 24.63 76.334 0.206 8.12 1.84 8.53
8/18/2022 6:30:00 PM 24.08 75.344 0.207 8.04 1.74 8.28
8/18/2022 6:45:00 PM 23.63 74.534 0.208 7.96 1.71 8.1
8/18/2022 7:00:00 PM 23.28 73.904 0.205 7.9 1.94 7.95
8/18/2022 7:15:00 PM 22.94 73.292 0.21 7.85 4.24 7.83
8/18/2022 7:30:00 PM 22.6 72.68 0.211 7.83 1.56 7.85
8/18/2022 7:45:00 PM 22.32 72.176 0.211 7.79 1.6 7.8
8/18/2022 8:00:00 PM 22.05 71.69 0.211 7.77 1.47 7.76
8/18/2022 8:15:00 PM 21.77 71.186 0.212 7.74 2.07 7.72
8/18/2022 8:30:00 PM 21.59 70.862 0.212 7.72 1.8 7.64
8/18/2022 8:45:00 PM 21.39 70.502 0.212 7.69 2.12 7.57
8/18/2022 9:00:00 PM 21.21 70.17799 0.213 7.67 1.72 7.55
8/18/2022 9:15:00 PM 21.07 69.926 0.213 7.66 1.73 7.52
8/18/2022 9:30:00 PM 20.93 69.674 0.214 7.64 1.74 7.51
8/18/2022 9:45:00 PM 20.81 69.458 0.214 7.62 1.7 7.53
8/18/2022 10:00:00 PM 20.69 69.242 0.214 7.61 1.81 7.49
8/18/2022 10:15:00 PM 20.56 69.008 0.215 7.59 1.73 7.5
8/18/2022 10:30:00 PM 20.44 68.792 0.215 7.58 1.8 7.53
8/18/2022 10:45:00 PM 20.32 68.576 0.215 7.57 1.6 7.52
8/18/2022 11:00:00 PM 20.21 68.378 0.215 7.56 1.73 7.55
8/18/2022 11:15:00 PM 20.11 68.198 0.215 7.56 1.71 7.58
8/18/2022 11:30:00 PM 20.01 68.018 0.215 7.55 2.03 7.57
8/18/2022 11:45:00 PM 19.94 67.892 0.215 7.54 1.74 7.63
8/19/2022 12:00:00 AM 19.84 67.712 0.215 7.53 1.77 7.63
8/19/2022 12:15:00 AM 19.75 67.55 0.215 7.53 1.74 7.64
8/19/2022 12:30:00 AM 19.66 67.388 0.215 7.52 1.9 7.67
8/19/2022 12:45:00 AM 19.57 67.226 0.215 7.52 2.16 7.74
8/19/2022 1:00:00 AM 19.49 67.082 0.216 7.51 1.63 7.74
8/19/2022 1:15:00 AM 19.42 66.956 0.216 7.5 1.63 7.77
8/19/2022 1:30:00 AM 19.35 66.83 0.216 7.5 1.7 7.77
8/19/2022 1:45:00 AM 19.3 66.74 0.216 7.5 1.76 7.8
8/19/2022 2:00:00 AM 19.24 66.632 0.216 7.5 1.61 7.81
8/19/2022 2:15:00 AM 19.21 66.578 0.216 7.49 1.8 7.85
8/19/2022 2:30:00 AM 19.17 66.506 0.216 7.49 1.65 7.83
8/19/2022 2:45:00 AM 19.15 66.47 0.216 7.49 2 7.86
8/19/2022 3:00:00 AM 19.13 66.434 0.216 7.48 1.76 7.88
8/19/2022 3:15:00 AM 19.1 66.38 0.216 7.48 1.55 7.83
8/19/2022 3:30:00 AM 19.07 66.326 0.216 7.48 1.63 7.86
8/19/2022 3:45:00 AM 19.04 66.272 0.216 7.47 1.86 7.86
8/19/2022 4:00:00 AM 19.02 66.236 0.216 7.47 1.83 7.87
8/19/2022 4:15:00 AM 19 66.2 0.216 7.46 1.83 7.88
8/19/2022 4:30:00 AM 18.97 66.146 0.216 7.46 1.7 7.91
8/19/2022 4:45:00 AM 18.93 66.074 0.216 7.46 1.68 7.92
8/19/2022 5:00:00 AM 18.91 66.038 0.215 7.45 3.27 7.92
8/19/2022 5:15:00 AM 18.85 65.93 0.216 7.45 1.72 7.97
8/19/2022 5:30:00 AM 18.81 65.858 0.216 7.45 1.75 7.96
8/19/2022 5:45:00 AM 18.77 65.786 0.216 7.45 1.71 7.92
8/19/2022 6:00:00 AM 18.72 65.696 0.216 7.45 1.82 7.96
8/19/2022 6:15:00 AM 18.67 65.606 0.216 7.45 2.75 7.97
8/19/2022 6:30:00 AM 18.62 65.516 0.216 7.44 1.84 7.98
8/19/2022 6:45:00 AM 18.56 65.408 0.216 7.45 2.21 8.02
8/19/2022 7:00:00 AM 18.54 65.372 0.216 7.45 2.57 8.08
8/19/2022 7:15:00 AM 18.53 65.354 0.216 7.46 1.97 8.09
8/19/2022 7:30:00 AM 18.5 65.3 0.215 7.46 13.91 8.28
8/19/2022 7:45:00 AM 18.48 65.264 0.215 7.48 2.06 8.39
8/19/2022 8:00:00 AM 18.48 65.264 0.215 7.5 1.78 8.57
8/19/2022 8:15:00 AM 18.49 65.282 0.214 7.52 1.71 8.8
8/19/2022 8:30:00 AM 18.52 65.336 0.213 7.53 1.69 8.96
8/19/2022 8:45:00 AM 18.56 65.408 0.213 7.56 1.66 9.24
8/19/2022 9:00:00 AM 18.65 65.57 0.212 7.6 3.53 9.36
8/19/2022 9:15:00 AM 18.78 65.804 0.211 7.63 2.1 9.68
8/19/2022 9:30:00 AM 18.87 65.966 0.211 7.66 1.72 9.68
8/19/2022 9:45:00 AM 18.94 66.092 0.21 7.68 1.7 9.69
8/19/2022 10:00:00 AM 19.04 66.272 0.21 7.69 1.71 9.63
8/19/2022 10:15:00 AM 19.19 66.542 0.21 7.7 1.59 9.53
8/19/2022 10:30:00 AM 19.33 66.794 0.21 7.69 1.55 9.35
8/19/2022 10:45:00 AM 19.5 67.1 0.21 7.7 1.52 9.39
8/19/2022 11:00:00 AM 19.69 67.442 0.21 7.7 2.03 9.49
8/19/2022 11:15:00 AM 19.97 67.946 0.21 7.73 3.96 9.49
8/19/2022 11:30:00 AM 20.27 68.486 0.21 7.74 1.47 9.51
8/19/2022 11:45:00 AM 20.62 69.116 0.21 7.77 1.55 9.52
8/19/2022 12:00:00 PM 21.04 69.872 0.21 7.79 1.53 9.51
8/19/2022 12:15:00 PM 21.42 70.556 0.21 7.81 1.66 9.48
8/19/2022 12:30:00 PM 21.86 71.348 0.21 7.86 1.37 9.5
8/19/2022 12:45:00 PM 22.33 72.194 0.21 7.89 1.6 9.52
8/19/2022 1:00:00 PM 22.86 73.148 0.21 7.94 1.4 9.53
8/19/2022 1:15:00 PM 23.4 74.12 0.21 7.99 1.38 9.46
8/19/2022 1:30:00 PM 23.71 74.67799 0.21 7.99 1.33 9.39
8/19/2022 1:45:00 PM 24.07 75.326 0.209 7.99 1.39 9.18
8/19/2022 2:00:00 PM 24.35 75.83 0.209 7.97 1.42 9.06
8/19/2022 2:15:00 PM 24.75 76.55 0.21 7.99 1.33 9.07
8/19/2022 2:30:00 PM 25.17 77.306 0.21 8.04 1.54 9.09
8/19/2022 2:45:00 PM 25.64 78.152 0.21 8.1 1.56 9.21
8/19/2022 3:00:00 PM 26.3 79.34 0.21 8.18 1.64 9.29
8/19/2022 3:15:00 PM 26.85 80.33 0.21 8.2 1.38 9.18
8/19/2022 3:30:00 PM 27.45 81.41 0.21 8.24 1.67 9.13
8/19/2022 3:45:00 PM 28.03 82.454 0.209 8.25 12.17 8.98
8/19/2022 4:00:00 PM 28.48 83.264 0.21 8.3 1.57 8.89
8/19/2022 4:15:00 PM 28.79 83.82201 0.21 8.28 73.99 8.77
8/19/2022 4:30:00 PM 28.96 84.128 0.211 8.25 2.11 8.67
8/19/2022 4:45:00 PM 29.01 84.218 0.211 8.25 2.9 8.5
8/19/2022 5:00:00 PM 28.95 84.11 0.211 8.23 1.55 8.45
8/19/2022 5:15:00 PM 28.9 84.02 0.211 8.22 1.63 8.43
8/19/2022 5:30:00 PM 28.76 83.768 0.212 8.23 1.48 8.34
8/19/2022 5:45:00 PM 28.36 83.048 0.212 8.15 1.59 8.18
8/19/2022 6:00:00 PM 27.94 82.292 0.213 8.06 1.5 8.07
8/19/2022 6:15:00 PM 27.43 81.374 0.213 8.03 1.54 7.92
8/19/2022 6:30:00 PM 26.91 80.438 0.214 7.96 1.78 7.91
8/19/2022 6:45:00 PM 26.42 79.556 0.214 7.88 2.2 7.72
8/19/2022 7:00:00 PM 25.91 78.638 0.215 7.84 1.8 7.72
8/19/2022 7:15:00 PM 25.45 77.81 0.216 7.79 1.67 7.62
8/19/2022 7:30:00 PM 25.02 77.036 0.217 7.72 1.71 7.49
8/19/2022 7:45:00 PM 24.63 76.334 0.217 7.68 1.67 7.34
8/19/2022 8:00:00 PM 24.26 75.668 0.218 7.65 2.37 7.34
8/19/2022 8:15:00 PM 23.94 75.092 0.218 7.62 2.08 7.27
8/19/2022 8:30:00 PM 23.64 74.552 0.219 7.6 2.38 7.28
8/19/2022 8:45:00 PM 23.38 74.084 0.219 7.57 11.13 7.17
8/19/2022 9:00:00 PM 23.12 73.616 0.219 7.56 1.83 7.21
8/19/2022 9:15:00 PM 22.9 73.22 0.22 7.55 1.84 7.2
8/19/2022 9:30:00 PM 22.71 72.878 0.22 7.53 1.8 7.19
8/19/2022 9:45:00 PM 22.52 72.536 0.22 7.52 1.82 7.2
8/19/2022 10:00:00 PM 22.33 72.194 0.22 7.51 1.74 7.2
8/19/2022 10:15:00 PM 22.18 71.924 0.22 7.49 1.7 7.17
8/19/2022 10:30:00 PM 22.03 71.654 0.22 7.49 1.83 7.23
8/19/2022 10:45:00 PM 21.9 71.42 0.22 7.47 1.73 7.21
8/19/2022 11:00:00 PM 21.78 71.204 0.22 7.47 1.78 7.25
8/19/2022 11:15:00 PM 21.65 70.97 0.22 7.47 1.6 7.27
8/19/2022 11:30:00 PM 21.55 70.79 0.22 7.46 1.9 7.31
8/19/2022 11:45:00 PM 21.44 70.592 0.22 7.45 1.78 7.32
8/20/2022 12:00:00 AM 21.32 70.376 0.22 7.45 1.8 7.31
8/20/2022 12:15:00 AM 21.24 70.232 0.22 7.44 2.75 7.36
8/20/2022 12:30:00 AM 21.13 70.034 0.22 7.44 2.14 7.37
8/20/2022 12:45:00 AM 21.04 69.872 0.22 7.43 1.99 7.39
8/20/2022 1:00:00 AM 20.95 69.71 0.22 7.43 1.95 7.43
8/20/2022 1:15:00 AM 20.87 69.566 0.219 7.42 1.71 7.45
8/20/2022 1:30:00 AM 20.78 69.404 0.219 7.42 1.77 7.48
8/20/2022 1:45:00 AM 20.68 69.224 0.219 7.42 2.02 7.48
8/20/2022 2:00:00 AM 20.6 69.08 0.219 7.42 1.77 7.54
8/20/2022 2:15:00 AM 20.51 68.918 0.219 7.41 1.58 7.53
8/20/2022 2:30:00 AM 20.43 68.774 0.219 7.41 1.82 7.58
8/20/2022 2:45:00 AM 20.37 68.666 0.219 7.41 1.67 7.59
8/20/2022 3:00:00 AM 20.31 68.558 0.219 7.41 1.71 7.6
8/20/2022 3:15:00 AM 20.25 68.45 0.219 7.41 1.59 7.61
8/20/2022 3:30:00 AM 20.21 68.378 0.219 7.41 1.75 7.64
8/20/2022 3:45:00 AM 20.16 68.288 0.219 7.4 1.79 7.6
8/20/2022 4:00:00 AM 20.11 68.198 0.219 7.4 1.87 7.66
8/20/2022 4:15:00 AM 20.05 68.09 0.218 7.4 1.79 7.65
8/20/2022 4:30:00 AM 19.98 67.964 0.218 7.39 1.63 7.65
8/20/2022 4:45:00 AM 19.92 67.856 0.218 7.39 1.78 7.69
8/20/2022 5:00:00 AM 19.85 67.73 0.218 7.39 1.75 7.72
8/20/2022 5:15:00 AM 19.79 67.622 0.218 7.4 1.68 7.77
8/20/2022 5:30:00 AM 19.72 67.496 0.218 7.39 1.68 7.75
8/20/2022 5:45:00 AM 19.67 67.406 0.218 7.39 1.8 7.79
8/20/2022 6:00:00 AM 19.61 67.298 0.218 7.39 1.87 7.79
8/20/2022 6:15:00 AM 19.57 67.226 0.218 7.39 1.82 7.79
8/20/2022 6:30:00 AM 19.52 67.136 0.218 7.39 1.79 7.83
8/20/2022 6:45:00 AM 19.46 67.028 0.218 7.39 2.09 7.85
8/20/2022 7:00:00 AM 19.38 66.884 0.218 7.39 1.78 7.93
8/20/2022 7:15:00 AM 19.35 66.83 0.218 7.4 1.73 8.04
8/20/2022 7:30:00 AM 19.34 66.812 0.218 7.41 9.31 8.14
8/20/2022 7:45:00 AM 19.32 66.776 0.217 7.42 2.09 8.31
8/20/2022 8:00:00 AM 19.34 66.812 0.217 7.44 2.03 8.53
8/20/2022 8:15:00 AM 19.37 66.866 0.216 7.47 1.85 8.72
8/20/2022 8:30:00 AM 19.4 66.92 0.216 7.48 1.59 8.83
8/20/2022 8:45:00 AM 19.46 67.028 0.215 7.5 1.63 8.89
8/20/2022 9:00:00 AM 19.52 67.136 0.215 7.5 1.62 9
8/20/2022 9:15:00 AM 19.6 67.28 0.214 7.5 1.65 8.99
8/20/2022 9:30:00 AM 19.68 67.424 0.214 7.52 1.56 9
8/20/2022 9:45:00 AM 19.82 67.676 0.214 7.53 1.74 9.01
8/20/2022 10:00:00 AM 19.97 67.946 0.214 7.54 1.57 9.09
8/20/2022 10:15:00 AM 20.16 68.288 0.214 7.56 1.56 9.1
8/20/2022 10:30:00 AM 20.35 68.63 0.213 7.57 1.51 9.13
8/20/2022 10:45:00 AM 20.56 69.008 0.213 7.58 1.52 9.13
8/20/2022 11:00:00 AM 20.85 69.53 0.213 7.6 1.51 9.2
8/20/2022 11:15:00 AM 21.14 70.052 0.213 7.63 1.51 9.25
8/20/2022 11:30:00 AM 21.48 70.664 0.213 7.66 1.74 9.3
8/20/2022 11:45:00 AM 21.9 71.42 0.213 7.7 1.59 9.33
8/20/2022 12:00:00 PM 22.28 72.104 0.213 7.74 1.57 9.48
8/20/2022 12:15:00 PM 22.64 72.752 0.212 7.78 1.47 9.57
8/20/2022 12:30:00 PM 23.04 73.472 0.212 7.84 1.46 9.62
8/20/2022 12:45:00 PM 23.36 74.048 0.212 7.88 1.55 9.67
8/20/2022 1:00:00 PM 23.74 74.732 0.211 7.95 1.38 9.7
8/20/2022 1:15:00 PM 24.04 75.272 0.211 8 1.46 9.58
8/20/2022 1:30:00 PM 24.4 75.92 0.211 8.04 1.55 9.56
8/20/2022 1:45:00 PM 24.99 76.982 0.211 8.03 1.76 9.39
8/20/2022 2:00:00 PM 25.6 78.08 0.211 8.08 1.44 9.32
8/20/2022 2:15:00 PM 26.23 79.214 0.211 8.11 1.45 9.15
8/20/2022 2:30:00 PM 26.83 80.294 0.211 8.14 1.34 9.13
8/20/2022 2:45:00 PM 27.4 81.32 0.211 8.15 1.52 8.99
8/20/2022 3:00:00 PM 27.76 81.968 0.212 8.15 1.56 8.8
8/20/2022 3:15:00 PM 28.16 82.688 0.212 8.2 1.44 8.83
8/20/2022 3:30:00 PM 28.45 83.21001 0.212 8.19 1.41 8.79
8/20/2022 3:45:00 PM 28.62 83.51601 0.212 8.2 1.43 8.7
8/20/2022 4:00:00 PM 28.88 83.98399 0.212 8.22 1.45 8.64
8/20/2022 4:15:00 PM 28.91 84.038 0.212 8.18 1.31 8.58
8/20/2022 4:30:00 PM 28.91 84.038 0.212 8.18 1.35 8.51
8/20/2022 4:45:00 PM 29.06 84.308 0.212 8.22 1.39 8.53
8/20/2022 5:00:00 PM 28.97 84.146 0.213 8.18 1.31 8.37
8/20/2022 5:15:00 PM 28.88 83.98399 0.213 8.18 1.32 8.29
8/20/2022 5:30:00 PM 28.76 83.768 0.213 8.13 1.42 8.21
8/20/2022 5:45:00 PM 28.55 83.39 0.214 8.12 1.59 8.14
8/20/2022 6:00:00 PM 28.17 82.706 0.214 8.06 1.5 8.03
8/20/2022 6:15:00 PM 27.72 81.896 0.215 7.96 1.77 7.86
8/20/2022 6:30:00 PM 27.22 80.996 0.217 7.89 1.76 7.59
8/20/2022 6:45:00 PM 26.75 80.15 0.217 7.85 1.77 7.7
8/20/2022 7:00:00 PM 26.29 79.32201 0.218 7.8 1.51 7.65
8/20/2022 7:15:00 PM 25.85 78.53 0.219 7.74 1.57 7.51
8/20/2022 7:30:00 PM 25.44 77.792 0.219 7.7 1.98 7.4
8/20/2022 7:45:00 PM 25.12 77.216 0.219 7.62 1.7 7.24
8/20/2022 8:00:00 PM 24.83 76.694 0.22 7.61 5.37 7.16
8/20/2022 8:15:00 PM 24.57 76.226 0.22 7.58 1.96 7.08
8/20/2022 8:30:00 PM 24.33 75.794 0.221 7.56 1.89 7
8/20/2022 8:45:00 PM 24.1 75.38 0.221 7.52 57.29 6.88
8/20/2022 9:00:00 PM 23.89 75.002 0.222 7.51 2 6.95
8/20/2022 9:15:00 PM 23.69 74.642 0.222 7.5 2.35 6.88
8/20/2022 9:30:00 PM 23.49 74.282 0.222 7.48 2.24 6.93
8/20/2022 9:45:00 PM 23.32 73.976 0.222 7.49 1.61 6.94
8/20/2022 10:00:00 PM 23.15 73.67 0.222 7.48 1.71 7
8/20/2022 10:15:00 PM 22.98 73.364 0.222 7.47 1.87 7
8/20/2022 10:30:00 PM 22.85 73.13 0.222 7.47 1.76 7.02
8/20/2022 10:45:00 PM 22.71 72.878 0.222 7.46 1.89 7.07
8/20/2022 11:00:00 PM 22.57 72.626 0.222 7.46 1.68 7.06
8/20/2022 11:15:00 PM 22.45 72.41 0.222 7.45 1.66 7.11
8/20/2022 11:30:00 PM 22.33 72.194 0.222 7.44 1.71 7.09
8/20/2022 11:45:00 PM 22.22 71.996 0.222 7.43 1.66 7.1
8/21/2022 12:00:00 AM 22.12 71.816 0.222 7.43 1.89 7.18
8/21/2022 12:15:00 AM 22.02 71.636 0.222 7.43 1.8 7.21
8/21/2022 12:30:00 AM 21.92 71.456 0.221 7.42 1.76 7.23
8/21/2022 12:45:00 AM 21.82 71.276 0.221 7.42 1.68 7.26
8/21/2022 1:00:00 AM 21.72 71.096 0.221 7.41 1.73 7.24
8/21/2022 1:15:00 AM 21.64 70.952 0.221 7.41 1.71 7.32
8/21/2022 1:30:00 AM 21.55 70.79 0.221 7.41 1.65 7.28
8/21/2022 1:45:00 AM 21.47 70.646 0.221 7.41 1.75 7.3
8/21/2022 2:00:00 AM 21.4 70.52 0.221 7.4 1.69 7.33
8/21/2022 2:15:00 AM 21.35 70.43 0.221 7.4 1.72 7.34
8/21/2022 2:30:00 AM 21.29 70.32201 0.221 7.4 1.72 7.36
8/21/2022 2:45:00 AM 21.23 70.214 0.221 7.4 1.71 7.37
8/21/2022 3:00:00 AM 21.18 70.124 0.22 7.39 1.72 7.44
8/21/2022 3:15:00 AM 21.14 70.052 0.22 7.39 1.67 7.4
8/21/2022 3:30:00 AM 21.1 69.98 0.22 7.38 1.69 7.38
8/21/2022 3:45:00 AM 21.07 69.926 0.22 7.38 1.61 7.39
8/21/2022 4:00:00 AM 21.03 69.854 0.22 7.38 1.73 7.42
8/21/2022 4:15:00 AM 21.02 69.836 0.22 7.38 1.71 7.44
8/21/2022 4:30:00 AM 20.98 69.764 0.22 7.38 1.69 7.43
8/21/2022 4:45:00 AM 20.95 69.71 0.22 7.38 1.81 7.43
8/21/2022 5:00:00 AM 20.93 69.674 0.22 7.37 1.86 7.44
8/21/2022 5:15:00 AM 20.91 69.638 0.22 7.37 1.69 7.47
8/21/2022 5:30:00 AM 20.89 69.602 0.22 7.37 1.69 7.5
8/21/2022 5:45:00 AM 20.88 69.584 0.22 7.37 1.82 7.48
8/21/2022 6:00:00 AM 20.85 69.53 0.22 7.37 1.73 7.5
8/21/2022 6:15:00 AM 20.85 69.53 0.22 7.37 1.68 7.49
8/21/2022 6:30:00 AM 20.84 69.512 0.22 7.37 1.74 7.53
8/21/2022 6:45:00 AM 20.82 69.476 0.22 7.37 1.82 7.55
8/21/2022 7:00:00 AM 20.81 69.458 0.22 7.36 3.64 7.53
8/21/2022 7:15:00 AM 20.8 69.44 0.22 7.36 1.96 7.61
8/21/2022 7:30:00 AM 20.8 69.44 0.219 7.38 1.99 7.67
8/21/2022 7:45:00 AM 20.8 69.44 0.219 7.39 1.74 7.77
8/21/2022 8:00:00 AM 20.81 69.458 0.219 7.39 1.74 7.84
8/21/2022 8:15:00 AM 20.83 69.494 0.219 7.41 1.87 8.01
8/21/2022 8:30:00 AM 20.86 69.548 0.218 7.42 1.73 8.17
8/21/2022 8:45:00 AM 20.91 69.638 0.218 7.43 1.63 8.37
8/21/2022 9:00:00 AM 20.98 69.764 0.217 7.47 1.55 8.61
8/21/2022 9:15:00 AM 21.1 69.98 0.216 7.49 1.9 8.8
8/21/2022 9:30:00 AM 21.2 70.16 0.216 7.5 1.52 8.93
8/21/2022 9:45:00 AM 21.34 70.412 0.215 7.53 1.76 9.05
8/21/2022 10:00:00 AM 21.48 70.664 0.214 7.56 1.62 9.16
8/21/2022 10:15:00 AM 21.63 70.934 0.214 7.59 1.88 9.32
8/21/2022 10:30:00 AM 21.88 71.384 0.213 7.63 1.58 9.44
8/21/2022 10:45:00 AM 22.15 71.87 0.213 7.68 1.54 9.61
8/21/2022 11:00:00 AM 22.46 72.42799 0.212 7.75 1.67 9.7
8/21/2022 11:15:00 AM 22.78 73.004 0.212 7.78 1.6 9.69
8/21/2022 11:30:00 AM 23.03 73.454 0.212 7.82 1.67 9.73
8/21/2022 11:45:00 AM 23.31 73.958 0.211 7.87 1.82 9.67
8/21/2022 12:00:00 PM 23.61 74.498 0.211 7.93 1.48 9.74
8/21/2022 12:15:00 PM 23.82 74.876 0.211 7.98 1.47 9.72
8/21/2022 12:30:00 PM 24.03 75.254 0.211 8.02 1.43 9.66
8/21/2022 12:45:00 PM 24.15 75.47 0.211 8.02 1.44 9.58
8/21/2022 1:00:00 PM 24.23 75.614 0.211 8.06 1.37 9.53
8/21/2022 1:15:00 PM 24.27 75.686 0.211 8.04 1.6 9.37
8/21/2022 1:30:00 PM 24.21 75.578 0.211 8 1.45 9.13
8/21/2022 1:45:00 PM 24.08 75.344 0.212 7.92 1.45 8.77
8/21/2022 2:00:00 PM 23.09 73.562 0.174 7.75 5.48 8.5
8/21/2022 2:15:00 PM 22.69 72.842 0.103 8.52 106.64 8.36
8/21/2022 2:30:00 PM 22.33 72.194 0.103 8.52 57.67 8.1
8/21/2022 2:45:00 PM 22.27 72.086 0.133 8.29 23.99 7.9
8/21/2022 3:00:00 PM 22.11 71.798 0.156 8.03 9.51 7.8
8/21/2022 3:15:00 PM 22 71.6 0.172 7.85 6.66 7.81
8/21/2022 3:30:00 PM 21.98 71.564 0.177 7.78 5 7.8
8/21/2022 3:45:00 PM 22.02 71.636 0.18 7.76 5.72 7.89
8/21/2022 4:00:00 PM 22.12 71.816 0.183 7.77 3.03 8.25
8/21/2022 4:15:00 PM 22.39 72.302 0.187 7.75 3.47 8.56
8/21/2022 4:30:00 PM 22.55 72.59 0.191 7.85 2.03 8.81
8/21/2022 4:45:00 PM 22.8 73.04 0.193 7.88 2.01 8.93
8/21/2022 5:00:00 PM 23.2 73.76 0.193 7.94 3.15 9.04
8/21/2022 5:15:00 PM 23.41 74.138 0.193 7.98 2.13 9.05
8/21/2022 5:30:00 PM 23.63 74.534 0.192 8.02 1.92 9.15
8/21/2022 5:45:00 PM 23.5 74.3 0.191 8.03 2.33 9.08
8/21/2022 6:00:00 PM 23.24 73.832 0.19 8.02 2.43 9.01
8/21/2022 6:15:00 PM 23.03 73.454 0.19 7.97 2.29 8.85
8/21/2022 6:30:00 PM 22.83 73.094 0.191 7.92 2.43 8.69
8/21/2022 6:45:00 PM 22.66 72.788 0.193 7.88 2.31 8.57
8/21/2022 7:00:00 PM 22.52 72.536 0.194 7.85 2.21 8.51
8/21/2022 7:15:00 PM 22.41 72.338 0.195 7.81 2.03 8.37
8/21/2022 7:30:00 PM 22.31 72.158 0.196 7.77 2.25 8.24
8/21/2022 7:45:00 PM 22.24 72.032 0.197 7.74 2.03 8.11
8/21/2022 8:00:00 PM 22.16 71.888 0.198 7.7 2.02 8
8/21/2022 8:15:00 PM 22.08 71.744 0.199 7.67 2.61 7.9
8/21/2022 8:30:00 PM 22.02 71.636 0.2 7.64 2.24 7.78
8/21/2022 8:45:00 PM 21.96 71.528 0.201 7.63 2.03 7.72
8/21/2022 9:00:00 PM 21.91 71.438 0.202 7.61 1.95 7.68
8/21/2022 9:15:00 PM 21.87 71.366 0.203 7.59 2.25 7.63
8/21/2022 9:30:00 PM 21.83 71.294 0.203 7.57 2.28 7.6
8/21/2022 9:45:00 PM 21.8 71.24 0.203 7.56 2.27 7.55
8/21/2022 10:00:00 PM 21.76 71.168 0.203 7.55 1.92 7.54
8/21/2022 10:15:00 PM 21.72 71.096 0.203 7.54 1.96 7.55
8/21/2022 10:30:00 PM 21.69 71.042 0.204 7.53 2.05 7.55
8/21/2022 10:45:00 PM 21.66 70.988 0.203 7.52 1.98 7.54
8/21/2022 11:00:00 PM 21.62 70.916 0.204 7.51 2.15 7.56
8/21/2022 11:15:00 PM 21.6 70.88 0.203 7.51 2.02 7.54
8/21/2022 11:30:00 PM 21.57 70.826 0.202 7.49 1.94 7.47
8/21/2022 11:45:00 PM 21.54 70.772 0.202 7.49 1.81 7.56
8/22/2022 12:00:00 AM 21.52 70.736 0.202 7.48 1.94 7.44
8/22/2022 12:15:00 AM 21.49 70.682 0.201 7.47 2.01 7.49
8/22/2022 12:30:00 AM 21.46 70.628 0.2 7.47 1.94 7.47
8/22/2022 12:45:00 AM 21.44 70.592 0.2 7.46 3.43 7.48
8/22/2022 1:00:00 AM 21.42 70.556 0.199 7.46 2.37 7.6
8/22/2022 1:15:00 AM 21.4 70.52 0.199 7.46 1.98 7.59
8/22/2022 1:30:00 AM 21.38 70.484 0.199 7.46 1.89 7.62
8/22/2022 1:45:00 AM 21.37 70.466 0.198 7.45 1.81 7.6
8/22/2022 2:00:00 AM 21.35 70.43 0.198 7.45 2.33 7.65
8/22/2022 2:15:00 AM 21.33 70.394 0.199 7.44 2.07 7.65
8/22/2022 2:30:00 AM 21.32 70.376 0.199 7.44 1.96 7.63
8/22/2022 2:45:00 AM 21.3 70.34 0.198 7.44 1.89 7.64
8/22/2022 3:00:00 AM 21.29 70.32201 0.198 7.43 1.91 7.65
8/22/2022 3:15:00 AM 21.21 70.17799 0.191 7.44 2.79 7.75
8/22/2022 3:30:00 AM 21.14 70.052 0.142 7.77 40.48 8.25
8/22/2022 3:45:00 AM 21.11 69.998 0.114 8.24 35.08 8.32
8/22/2022 4:00:00 AM 21.06 69.908 0.152 7.79 10.51 8.14
8/22/2022 4:15:00 AM 21.07 69.926 0.163 7.63 6.22 8.01
8/22/2022 4:30:00 AM 21.06 69.908 0.172 7.55 4.67 7.95
8/22/2022 4:45:00 AM 21.04 69.872 0.179 7.5 3.7 7.92
8/22/2022 5:00:00 AM 21.03 69.854 0.184 7.49 3.16 7.91
8/22/2022 5:15:00 AM 21.02 69.836 0.188 7.48 3.02 7.91
8/22/2022 5:30:00 AM 21.02 69.836 0.19 7.47 2.7 7.92
8/22/2022 5:45:00 AM 21.01 69.818 0.191 7.47 4.31 7.93
8/22/2022 6:00:00 AM 20.99 69.782 0.191 7.47 3.51 7.94
8/22/2022 6:15:00 AM 20.98 69.764 0.191 7.47 5.7 7.93
8/22/2022 6:30:00 AM 20.96 69.728 0.191 7.47 3.43 7.97
8/22/2022 6:45:00 AM 20.94 69.692 0.192 7.46 3.6 7.99
8/22/2022 7:00:00 AM 20.93 69.674 0.193 7.47 3.36 8.02
8/22/2022 7:15:00 AM 20.93 69.674 0.194 7.47 3.43 8.06
8/22/2022 7:30:00 AM 20.93 69.674 0.195 7.48 5.99 8.09
8/22/2022 7:45:00 AM 20.93 69.674 0.197 7.49 4.73 8.16
8/22/2022 8:00:00 AM 20.95 69.71 0.197 7.5 3.03 8.27
8/22/2022 8:15:00 AM 20.97 69.746 0.198 7.52 3.29 8.39
8/22/2022 8:30:00 AM 21.01 69.818 0.198 7.54 3.03 8.52
8/22/2022 8:45:00 AM 21.04 69.872 0.198 7.56 2.98 8.62
8/22/2022 9:00:00 AM 21.07 69.926 0.198 7.58 3.3 8.71
8/22/2022 9:15:00 AM 21.13 70.034 0.198 7.6 3.01 8.83
8/22/2022 9:30:00 AM 21.19 70.142 0.198 7.62 3.75 8.92
8/22/2022 9:45:00 AM 21.28 70.304 0.198 7.66 2.97 9.02
8/22/2022 10:00:00 AM 21.38 70.484 0.197 7.69 2.91 9.17
8/22/2022 10:15:00 AM 21.49 70.682 0.197 7.73 3.16 9.28
8/22/2022 10:30:00 AM 21.61 70.898 0.197 7.77 2.9 9.35
8/22/2022 10:45:00 AM 21.71 71.078 0.197 7.8 2.67 9.38
8/22/2022 11:00:00 AM 21.78 71.204 0.197 7.83 2.71 9.4
8/22/2022 11:15:00 AM 21.89 71.402 0.197 7.86 2.7 9.44
8/22/2022 11:30:00 AM 22.03 71.654 0.197 7.9 2.75 9.51
8/22/2022 11:45:00 AM 22.18 71.924 0.197 7.94 2.56 9.57
8/22/2022 12:00:00 PM 22.37 72.266 0.197 7.99 2.54 9.6
8/22/2022 12:15:00 PM 22.61 72.698 0.197 8.03 2.61 9.64
8/22/2022 12:30:00 PM 22.98 73.364 0.197 8.08 2.88 9.65
8/22/2022 12:45:00 PM 23.2 73.76 0.198 8.11 2.92 9.6
8/22/2022 1:00:00 PM 23.26 73.868 0.198 8.1 2.58 9.49
8/22/2022 1:15:00 PM 23.24 73.832 0.198 8.07 2.85 9.37
8/22/2022 1:30:00 PM 23.33 73.994 0.199 8.07 3.44 9.38
8/22/2022 1:45:00 PM 23.51 74.318 0.199 8.08 2.83 9.34
8/22/2022 2:00:00 PM 23.55 74.39 0.199 8.09 2.57 9.31
8/22/2022 2:15:00 PM 23.72 74.696 0.2 8.11 2.8 9.33
8/22/2022 2:30:00 PM 24.15 75.47 0.2 8.15 2.46 9.34
8/22/2022 2:45:00 PM 24.38 75.884 0.2 8.16 2.72 9.29
8/22/2022 3:00:00 PM 24.26 75.668 0.2 8.14 2.59 9.18
8/22/2022 3:15:00 PM 24.11 75.398 0.201 8.1 2.67 9.05
8/22/2022 3:30:00 PM 24.02 75.236 0.201 8.06 2.62 8.95
8/22/2022 3:45:00 PM 23.99 75.182 0.201 8.04 3.93 8.91
8/22/2022 4:00:00 PM 24.29 75.722 0.201 8.08 2.17 9.05
8/22/2022 4:15:00 PM 24.74 76.532 0.201 8.13 2.63 9.09
8/22/2022 4:30:00 PM 25.03 77.054 0.201 8.17 2.34 9.09
8/22/2022 4:45:00 PM 25.2 77.36 0.202 8.2 2.92 9.1
8/22/2022 5:00:00 PM 25.23 77.414 0.202 8.19 2.29 9.02
8/22/2022 5:15:00 PM 25.03 77.054 0.203 8.14 2.22 8.84
8/22/2022 5:30:00 PM 24.72 76.496 0.204 8.05 2.34 8.65
8/22/2022 5:45:00 PM 24.42 75.956 0.204 7.96 2.38 8.45
8/22/2022 6:00:00 PM 24.23 75.614 0.205 7.89 2.46 8.34
8/22/2022 6:15:00 PM 24.15 75.47 0.206 7.84 2.32 8.26
8/22/2022 6:30:00 PM 24.08 75.344 0.206 7.79 2.6 8.17
8/22/2022 6:45:00 PM 24.06 75.308 0.207 7.76 2.48 8.11
8/22/2022 7:00:00 PM 24.03 75.254 0.207 7.74 2.23 8.11
8/22/2022 7:15:00 PM 23.99 75.182 0.206 7.72 2.42 8.09
8/22/2022 7:30:00 PM 23.95 75.11 0.208 7.69 2.73 8
8/22/2022 7:45:00 PM 23.88 74.984 0.209 7.66 2.42 7.92
8/22/2022 8:00:00 PM 23.81 74.858 0.21 7.63 2.63 7.84
8/22/2022 8:15:00 PM 23.72 74.696 0.21 7.61 2.7 7.78
8/22/2022 8:30:00 PM 23.64 74.552 0.211 7.58 4.18 7.74
8/22/2022 8:45:00 PM 23.55 74.39 0.211 7.57 3.58 7.72
8/22/2022 9:00:00 PM 23.48 74.264 0.212 7.55 3.01 7.7
8/22/2022 9:15:00 PM 23.4 74.12 0.213 7.54 3.14 7.69
8/22/2022 9:30:00 PM 23.34 74.012 0.213 7.53 2.78 7.67
8/22/2022 9:45:00 PM 23.28 73.904 0.214 7.52 3.72 7.69
8/22/2022 10:00:00 PM 23.22 73.796 0.214 7.52 2.77 7.69
8/22/2022 10:15:00 PM 23.17 73.706 0.215 7.51 2.93 7.71
8/22/2022 10:30:00 PM 23.12 73.616 0.215 7.51 2.53 7.7
8/22/2022 10:45:00 PM 23.06 73.508 0.215 7.5 2.72 7.71
8/22/2022 11:00:00 PM 23 73.4 0.216 7.5 3.01 7.72
8/22/2022 11:15:00 PM 22.94 73.292 0.216 7.49 2.69 7.72
8/22/2022 11:30:00 PM 22.88 73.184 0.216 7.48 2.8 7.73
8/22/2022 11:45:00 PM 22.82 73.076 0.216 7.48 2.69 7.75
8/23/2022 12:00:00 AM 22.76 72.968 0.217 7.48 2.96 7.76
8/23/2022 12:15:00 AM 22.69 72.842 0.217 7.47 2.99 7.77
8/23/2022 12:30:00 AM 22.63 72.734 0.217 7.47 2.94 7.79
8/23/2022 12:45:00 AM 22.59 72.662 0.217 7.47 2.55 7.8
8/23/2022 1:00:00 AM 22.54 72.57201 0.218 7.47 2.71 7.81
8/23/2022 1:15:00 AM 22.47 72.446 0.218 7.47 2.74 7.82
8/23/2022 1:30:00 AM 22.41 72.338 0.218 7.47 2.57 7.82
8/23/2022 1:45:00 AM 22.35 72.23 0.218 7.47 2.61 7.84
8/23/2022 2:00:00 AM 22.31 72.158 0.219 7.46 2.99 7.85
8/23/2022 2:15:00 AM 22.26 72.068 0.219 7.46 2.8 7.86
8/23/2022 2:30:00 AM 22.2 71.96 0.219 7.46 2.67 7.87
8/23/2022 2:45:00 AM 22.14 71.852 0.219 7.46 2.35 7.88
8/23/2022 3:00:00 AM 22.08 71.744 0.219 7.46 2.6 7.9
8/23/2022 3:15:00 AM 22.03 71.654 0.219 7.46 2.57 7.9
8/23/2022 3:30:00 AM 21.98 71.564 0.219 7.46 2.67 7.91
8/23/2022 3:45:00 AM 21.95 71.51 0.219 7.46 2.66 7.93
8/23/2022 4:00:00 AM 21.91 71.438 0.219 7.45 2.66 7.93
8/23/2022 4:15:00 AM 21.87 71.366 0.219 7.45 3.08 7.94
8/23/2022 4:30:00 AM 21.83 71.294 0.219 7.45 2.78 7.95
8/23/2022 4:45:00 AM 21.8 71.24 0.219 7.45 2.95 7.96
8/23/2022 5:00:00 AM 21.76 71.168 0.22 7.45 2.65 7.97
8/23/2022 5:15:00 AM 21.73 71.114 0.22 7.45 2.73 7.97
8/23/2022 5:30:00 AM 21.7 71.06 0.22 7.45 3.11 7.98
8/23/2022 5:45:00 AM 21.67 71.006 0.22 7.45 2.69 7.98
8/23/2022 6:00:00 AM 21.65 70.97 0.22 7.44 2.87 7.98
8/23/2022 6:15:00 AM 21.62 70.916 0.22 7.44 2.62 7.99
8/23/2022 6:30:00 AM 21.6 70.88 0.22 7.44 3.17 8
8/23/2022 6:45:00 AM 21.58 70.844 0.22 7.44 2.54 8.02
8/23/2022 7:00:00 AM 21.56 70.808 0.22 7.45 2.7 8.05
8/23/2022 7:15:00 AM 21.55 70.79 0.22 7.45 2.61 8.1
8/23/2022 7:30:00 AM 21.55 70.79 0.219 7.46 2.6 8.17
8/23/2022 7:45:00 AM 21.56 70.808 0.219 7.47 2.59 8.23
8/23/2022 8:00:00 AM 21.57 70.826 0.219 7.49 5.24 8.32
8/23/2022 8:15:00 AM 21.59 70.862 0.219 7.51 2.66 8.41
8/23/2022 8:30:00 AM 21.63 70.934 0.219 7.53 2.44 8.49
8/23/2022 8:45:00 AM 21.68 71.024 0.219 7.55 2.57 8.6
8/23/2022 9:00:00 AM 21.72 71.096 0.218 7.57 2.37 8.66
8/23/2022 9:15:00 AM 21.79 71.222 0.218 7.59 2.7 8.69
8/23/2022 9:30:00 AM 21.89 71.402 0.218 7.61 2.69 8.79
8/23/2022 9:45:00 AM 21.97 71.546 0.218 7.64 2.37 8.86
8/23/2022 10:00:00 AM 22.08 71.744 0.218 7.68 2.4 8.95
8/23/2022 10:15:00 AM 22.16 71.888 0.217 7.71 2.24 9.04
8/23/2022 10:30:00 AM 22.2 71.96 0.217 7.74 2.5 9.08
8/23/2022 10:45:00 AM 22.27 72.086 0.217 7.78 2.25 9.14
8/23/2022 11:00:00 AM 22.36 72.248 0.217 7.81 2.5 9.19
8/23/2022 11:15:00 AM 22.46 72.42799 0.217 7.84 2.28 9.24
8/23/2022 11:30:00 AM 22.55 72.59 0.217 7.87 2.09 9.27
8/23/2022 11:45:00 AM 22.6 72.68 0.217 7.9 2.22 9.24
8/23/2022 12:00:00 PM 22.77 72.986 0.217 7.9 1.81 9.2
8/23/2022 12:15:00 PM 22.96 73.328 0.217 7.91 1.89 9.18
8/23/2022 12:30:00 PM 23.23 73.814 0.217 7.95 1.85 9.23
8/23/2022 12:45:00 PM 23.44 74.192 0.216 7.97 2.03 9.19
8/23/2022 1:00:00 PM 23.74 74.732 0.216 8.01 1.71 9.22
8/23/2022 1:15:00 PM 23.96 75.128 0.216 8.05 1.87 9.25
8/23/2022 1:30:00 PM 24.03 75.254 0.216 8.08 1.71 9.22
8/23/2022 1:45:00 PM 24.01 75.218 0.216 8.09 1.88 9.15
8/23/2022 2:00:00 PM 23.84 74.912 0.212 8.02 2.05 8.93
8/23/2022 2:15:00 PM 23.74 74.732 0.206 7.95 4.87 8.67
8/23/2022 2:30:00 PM 23.76 74.768 0.21 7.96 3.42 8.7
8/23/2022 2:45:00 PM 24.04 75.272 0.211 7.99 2.47 8.93
8/23/2022 3:00:00 PM 24.52 76.136 0.212 8.03 1.96 9.02
8/23/2022 3:15:00 PM 25.07 77.126 0.213 8.08 1.86 9.06
8/23/2022 3:30:00 PM 25.63 78.134 0.213 8.14 1.94 9.09
8/23/2022 3:45:00 PM 26.05 78.89 0.213 8.19 2.11 9.14
8/23/2022 4:00:00 PM 26.35 79.43 0.214 8.23 1.94 9.08
8/23/2022 4:15:00 PM 26.25 79.25 0.214 8.24 2.04 9.05
8/23/2022 4:30:00 PM 25.89 78.602 0.214 8.24 1.78 8.99
8/23/2022 4:45:00 PM 25.13 77.234 0.208 8.1 2.55 8.63
8/23/2022 5:00:00 PM 24.79 76.622 0.183 8.17 32.16 8.42
8/23/2022 5:15:00 PM 24.78 76.604 0.193 8.23 13.53 8.58
8/23/2022 5:30:00 PM 24.76 76.568 0.204 8.16 5.32 8.68
8/23/2022 5:45:00 PM 24.72 76.496 0.206 8.13 3.01 8.7
8/23/2022 6:00:00 PM 24.62 76.316 0.208 8.07 2.27 8.62
8/23/2022 6:15:00 PM 24.53 76.154 0.21 8 1.73 8.47
8/23/2022 6:30:00 PM 24.46 76.028 0.21 7.93 1.99 8.32
8/23/2022 6:45:00 PM 24.4 75.92 0.21 7.88 2.4 8.16
8/23/2022 7:00:00 PM 24.29 75.722 0.209 7.81 2.04 8.05
8/23/2022 7:15:00 PM 24.19 75.542 0.209 7.76 1.9 7.97
8/23/2022 7:30:00 PM 24.11 75.398 0.211 7.74 3.12 7.87
8/23/2022 7:45:00 PM 24.04 75.272 0.212 7.7 2.06 7.8
8/23/2022 8:00:00 PM 23.97 75.146 0.213 7.66 2.04 7.74
8/23/2022 8:15:00 PM 23.89 75.002 0.214 7.63 2.29 7.66
8/23/2022 8:30:00 PM 23.8 74.84 0.215 7.61 2.1 7.63
8/23/2022 8:45:00 PM 23.72 74.696 0.216 7.59 1.75 7.59
8/23/2022 9:00:00 PM 23.64 74.552 0.217 7.57 2.27 7.58
8/23/2022 9:15:00 PM 23.56 74.408 0.217 7.55 1.85 7.58
8/23/2022 9:30:00 PM 23.48 74.264 0.218 7.54 2.34 7.58
8/23/2022 9:45:00 PM 23.41 74.138 0.218 7.53 2.21 7.59
8/23/2022 10:00:00 PM 23.35 74.03 0.219 7.52 1.77 7.6
8/23/2022 10:15:00 PM 23.29 73.922 0.219 7.51 2.06 7.61
8/23/2022 10:30:00 PM 23.23 73.814 0.219 7.51 2.08 7.61
8/23/2022 10:45:00 PM 23.17 73.706 0.219 7.5 2.13 7.62
8/23/2022 11:00:00 PM 23.1 73.58 0.219 7.49 2.02 7.62
8/23/2022 11:15:00 PM 23.03 73.454 0.219 7.49 2.1 7.64
8/23/2022 11:30:00 PM 22.96 73.328 0.219 7.49 2.14 7.64
8/23/2022 11:45:00 PM 22.91 73.238 0.219 7.48 2.07 7.66
8/24/2022 12:00:00 AM 22.85 73.13 0.219 7.48 1.98 7.67
8/24/2022 12:15:00 AM 22.8 73.04 0.219 7.47 2.02 7.68
8/24/2022 12:30:00 AM 22.73 72.914 0.219 7.47 2.11 7.69
8/24/2022 12:45:00 AM 22.67 72.806 0.219 7.47 2.1 7.7
8/24/2022 1:00:00 AM 22.61 72.698 0.219 7.46 2.15 7.72
8/24/2022 1:15:00 AM 22.55 72.59 0.219 7.46 1.96 7.73
8/24/2022 1:30:00 AM 22.48 72.464 0.22 7.46 2.03 7.75
8/24/2022 1:45:00 AM 22.42 72.356 0.22 7.46 1.84 7.76
8/24/2022 2:00:00 AM 22.38 72.284 0.22 7.46 1.99 7.77
8/24/2022 2:15:00 AM 22.32 72.176 0.221 7.46 2.04 7.78
8/24/2022 2:30:00 AM 22.25 72.05 0.221 7.46 1.91 7.8
8/24/2022 2:45:00 AM 22.2 71.96 0.222 7.45 1.95 7.82
8/24/2022 3:00:00 AM 22.15 71.87 0.222 7.45 2.11 7.83
8/24/2022 3:15:00 AM 22.1 71.78 0.222 7.45 2.35 7.84
8/24/2022 3:30:00 AM 22.05 71.69 0.222 7.45 2.26 7.85
8/24/2022 3:45:00 AM 21.99 71.582 0.223 7.45 2.26 7.86
8/24/2022 4:00:00 AM 21.94 71.492 0.223 7.45 1.99 7.87
8/24/2022 4:15:00 AM 21.89 71.402 0.223 7.45 1.95 7.88
8/24/2022 4:30:00 AM 21.83 71.294 0.223 7.45 2.15 7.9
8/24/2022 4:45:00 AM 21.78 71.204 0.223 7.45 2.05 7.9
8/24/2022 5:00:00 AM 21.73 71.114 0.223 7.45 1.95 7.91
8/24/2022 5:15:00 AM 21.69 71.042 0.223 7.45 1.96 7.92
8/24/2022 5:30:00 AM 21.66 70.988 0.223 7.45 2.09 7.93
8/24/2022 5:45:00 AM 21.62 70.916 0.223 7.45 2.11 7.94
8/24/2022 6:00:00 AM 21.55 70.79 0.223 7.44 2.16 7.96
8/24/2022 6:15:00 AM 21.51 70.718 0.223 7.44 2.24 7.98
8/24/2022 6:30:00 AM 21.46 70.628 0.223 7.44 2.22 7.99
8/24/2022 6:45:00 AM 21.39 70.502 0.223 7.45 2.13 8.01
8/24/2022 7:00:00 AM 21.34 70.412 0.223 7.45 2.12 8.06
8/24/2022 7:15:00 AM 21.32 70.376 0.223 7.46 2.05 8.12
8/24/2022 7:30:00 AM 21.29 70.32201 0.223 7.47 2.09 8.19
8/24/2022 7:45:00 AM 21.25 70.25 0.222 7.48 2.1 8.27
8/24/2022 8:00:00 AM 21.24 70.232 0.222 7.5 2.31 8.4
8/24/2022 8:15:00 AM 21.23 70.214 0.222 7.53 2.24 8.51
8/24/2022 8:30:00 AM 21.25 70.25 0.221 7.55 2.05 8.62
8/24/2022 8:45:00 AM 21.27 70.286 0.221 7.56 2.03 8.7
8/24/2022 9:00:00 AM 21.32 70.376 0.221 7.58 1.95 8.78
8/24/2022 9:15:00 AM 21.37 70.466 0.221 7.6 1.99 8.84
8/24/2022 9:30:00 AM 21.45 70.61 0.221 7.62 2.17 8.89
8/24/2022 9:45:00 AM 21.56 70.808 0.221 7.64 2.02 8.91
8/24/2022 10:00:00 AM 21.66 70.988 0.22 7.65 2.11 8.92
8/24/2022 10:15:00 AM 21.74 71.132 0.22 7.67 1.95 8.94
8/24/2022 10:30:00 AM 21.82 71.276 0.22 7.68 1.92 8.96
8/24/2022 10:45:00 AM 21.91 71.438 0.22 7.7 1.95 8.98
8/24/2022 11:00:00 AM 21.99 71.582 0.22 7.72 2.09 9.01
8/24/2022 11:15:00 AM 22.1 71.78 0.22 7.73 1.97 9.05
8/24/2022 11:30:00 AM 22.26 72.068 0.22 7.75 2.02 9.08
8/24/2022 11:45:00 AM 22.45 72.41 0.22 7.78 2.08 9.11
8/24/2022 12:00:00 PM 22.68 72.824 0.22 7.8 1.93 9.15
8/24/2022 12:15:00 PM 22.94 73.292 0.22 7.82 1.82 9.16
8/24/2022 12:30:00 PM 23.22 73.796 0.22 7.86 2.11 9.18
8/24/2022 12:45:00 PM 23.58 74.444 0.22 7.9 1.81 9.22
8/24/2022 1:00:00 PM 23.96 75.128 0.22 7.94 1.81 9.26
8/24/2022 1:15:00 PM 24.31 75.758 0.22 7.99 1.84 9.27
8/24/2022 1:30:00 PM 24.69 76.442 0.22 8.04 1.86 9.28
8/24/2022 1:45:00 PM 25.09 77.162 0.221 8.09 1.95 9.29
8/24/2022 2:00:00 PM 25.54 77.972 0.221 8.13 1.95 9.24
8/24/2022 2:15:00 PM 25.96 78.728 0.221 8.18 1.87 9.26
8/24/2022 2:30:00 PM 26.41 79.538 0.221 8.21 2.08 9.21
8/24/2022 2:45:00 PM 26.83 80.294 0.222 8.25 1.99 9.2
8/24/2022 3:00:00 PM 27.14 80.852 0.222 8.28 2.42 9.17
8/24/2022 3:15:00 PM 27.28 81.104 0.222 8.31 1.69 9.14
8/24/2022 3:30:00 PM 27.45 81.41 0.223 8.32 1.72 9.11
8/24/2022 3:45:00 PM 27.58 81.644 0.223 8.35 1.68 9.09
8/24/2022 4:00:00 PM 27.71 81.878 0.223 8.35 1.85 9.05
8/24/2022 4:15:00 PM 27.71 81.878 0.223 8.36 1.95 9.03
8/24/2022 4:30:00 PM 27.65 81.77 0.224 8.36 1.85 8.99
8/24/2022 4:45:00 PM 27.31 81.158 0.224 8.33 1.98 8.83
8/24/2022 5:00:00 PM 26.79 80.222 0.224 8.26 1.73 8.66
8/24/2022 5:15:00 PM 26.29 79.32201 0.224 8.18 1.63 8.57
8/24/2022 5:30:00 PM 26.01 78.818 0.225 8.14 1.93 8.56
8/24/2022 5:45:00 PM 25.67 78.206 0.225 8.07 1.8 8.43
8/24/2022 6:00:00 PM 25.34 77.612 0.226 7.97 1.74 8.24
8/24/2022 6:15:00 PM 25.1 77.18 0.226 7.9 1.89 8.12
8/24/2022 6:30:00 PM 24.89 76.802 0.226 7.83 1.85 8.02
8/24/2022 6:45:00 PM 24.74 76.532 0.227 7.79 1.81 7.96
8/24/2022 7:00:00 PM 24.61 76.298 0.227 7.74 1.96 7.89
8/24/2022 7:15:00 PM 24.52 76.136 0.227 7.71 1.75 7.82
8/24/2022 7:30:00 PM 24.43 75.974 0.228 7.67 1.69 7.76
8/24/2022 7:45:00 PM 24.34 75.812 0.228 7.64 1.91 7.69
8/24/2022 8:00:00 PM 24.23 75.614 0.228 7.61 1.93 7.62
8/24/2022 8:15:00 PM 24.12 75.416 0.229 7.59 1.81 7.57
8/24/2022 8:30:00 PM 23.99 75.182 0.229 7.56 2.28 7.53
8/24/2022 8:45:00 PM 23.86 74.948 0.229 7.55 2.67 7.5
8/24/2022 9:00:00 PM 23.73 74.714 0.23 7.53 2.07 7.49
8/24/2022 9:15:00 PM 23.6 74.48 0.23 7.52 2.07 7.49
8/24/2022 9:30:00 PM 23.47 74.246 0.23 7.51 2.19 7.51
8/24/2022 9:45:00 PM 23.34 74.012 0.23 7.5 2.79 7.53
8/24/2022 10:00:00 PM 23.21 73.778 0.23 7.49 2.03 7.55
8/24/2022 10:15:00 PM 23.08 73.544 0.23 7.48 2.01 7.57
8/24/2022 10:30:00 PM 22.95 73.31 0.231 7.48 2.01 7.58
8/24/2022 10:45:00 PM 22.83 73.094 0.231 7.47 2.02 7.62
8/24/2022 11:00:00 PM 22.7 72.86 0.231 7.47 1.94 7.63
8/24/2022 11:15:00 PM 22.58 72.644 0.231 7.46 2.21 7.66
8/24/2022 11:30:00 PM 22.47 72.446 0.231 7.46 2.01 7.68
8/24/2022 11:45:00 PM 22.36 72.248 0.231 7.45 2.05 7.67
8/25/2022 12:00:00 AM 22.25 72.05 0.231 7.45 2.12 7.71
8/25/2022 12:15:00 AM 22.15 71.87 0.231 7.45 2.26 7.71
8/25/2022 12:30:00 AM 22.04 71.672 0.231 7.44 2.06 7.77
8/25/2022 12:45:00 AM 21.95 71.51 0.231 7.44 1.98 7.79
8/25/2022 1:00:00 AM 21.85 71.33 0.231 7.44 1.84 7.81
8/25/2022 1:15:00 AM 21.76 71.168 0.231 7.44 2.26 7.83
8/25/2022 1:30:00 AM 21.68 71.024 0.231 7.43 1.91 7.84
8/25/2022 1:45:00 AM 21.58 70.844 0.231 7.43 2.01 7.87
8/25/2022 2:00:00 AM 21.51 70.718 0.231 7.43 1.91 7.87
8/25/2022 2:15:00 AM 21.42 70.556 0.231 7.43 2.03 7.9
8/25/2022 2:30:00 AM 21.35 70.43 0.231 7.43 2.88 7.91
8/25/2022 2:45:00 AM 21.27 70.286 0.231 7.43 1.87 7.94
8/25/2022 3:00:00 AM 21.2 70.16 0.231 7.43 2.1 7.95
8/25/2022 3:15:00 AM 21.12 70.016 0.231 7.42 2.03 7.96
8/25/2022 3:30:00 AM 21.05 69.89 0.231 7.43 1.93 7.97
8/25/2022 3:45:00 AM 20.97 69.746 0.231 7.42 1.82 7.99
8/25/2022 4:00:00 AM 20.9 69.62 0.231 7.42 1.96 8
8/25/2022 4:15:00 AM 20.84 69.512 0.231 7.42 2 8.01
8/25/2022 4:30:00 AM 20.79 69.422 0.231 7.42 1.94 8.03
8/25/2022 4:45:00 AM 20.73 69.314 0.231 7.42 1.8 8.05
8/25/2022 5:00:00 AM 20.68 69.224 0.231 7.42 2.06 8.05
8/25/2022 5:15:00 AM 20.62 69.116 0.231 7.42 2.07 8.08
8/25/2022 5:30:00 AM 20.55 68.99 0.231 7.42 2.13 8.08
8/25/2022 5:45:00 AM 20.48 68.864 0.231 7.42 1.82 8.1
8/25/2022 6:00:00 AM 20.41 68.738 0.231 7.42 3.18 8.09
8/25/2022 6:15:00 AM 20.33 68.594 0.231 7.42 3.16 8.14
8/25/2022 6:30:00 AM 20.27 68.486 0.231 7.42 2.37 8.07
8/25/2022 6:45:00 AM 20.2 68.36 0.231 7.41 2.18 8.12
8/25/2022 7:00:00 AM 20.14 68.252 0.231 7.42 2.19 8.18
8/25/2022 7:15:00 AM 20.08 68.144 0.23 7.43 1.8 8.29
8/25/2022 7:30:00 AM 20.05 68.09 0.23 7.44 1.96 8.23
8/25/2022 7:45:00 AM 20.04 68.07201 0.23 7.45 1.97 8.48
8/25/2022 8:00:00 AM 20.06 68.108 0.23 7.47 2 8.59
8/25/2022 8:15:00 AM 20.08 68.144 0.229 7.5 1.95 8.76
8/25/2022 8:30:00 AM 20.13 68.234 0.228 7.53 2.1 8.97
8/25/2022 8:45:00 AM 20.18 68.324 0.228 7.56 2.19 9.1
8/25/2022 9:00:00 AM 20.21 68.378 0.228 7.58 2.58 9.17
8/25/2022 9:15:00 AM 20.24 68.432 0.227 7.59 2.68 9.18
8/25/2022 9:30:00 AM 20.31 68.558 0.227 7.6 2.24 9.16
8/25/2022 9:45:00 AM 20.39 68.702 0.227 7.61 2.31 9.1
8/25/2022 10:00:00 AM 20.47 68.846 0.227 7.61 1.84 9.1
8/25/2022 10:15:00 AM 20.55 68.99 0.227 7.63 1.84 9.14
8/25/2022 10:30:00 AM 20.65 69.17 0.227 7.65 1.83 9.18
8/25/2022 10:45:00 AM 20.78 69.404 0.227 7.64 1.99 9.11